Moscow MillsWeather Station
Hourly Leaf Wetness Data

Source: University of Missouri

To the bottom of the page

Year Month Day Hour Leaf Wetness Total
Precipitation
Avg. Temp Avg. Rel.
Humidity
Wind
Speed
CST mV in mm F C % mph
2020 11 22 1:00 Wet 528.1 0.0 1.02 40.6 4.8 91.9 7.1
2020 11 22 2:00 Wet 500.5 0.0 0.25 40.2 4.5 92.2 7.0
2020 11 22 3:00 Wet 502.5 0.0 0.25 40.2 4.5 92.8 6.7
2020 11 22 4:00 Wet 361.3 0.0 0.00 40.4 4.6 93.3 6.6
2020 11 22 5:00 278.7 0.0 0.00 40.8 4.9 89.7 7.5
2020 11 22 6:00 271.4 0.0 0.00 40.9 4.9 90.2 5.3
2020 11 22 7:00 269.0 0.0 0.00 40.8 4.9 89.7 5.7
2020 11 22 8:00 Wet 350.5 0.0 0.00 40.5 4.7 90.2 6.9
2020 11 22 9:00 Wet 335.4 0.0 0.00 40.6 4.8 91.1 6.1
2020 11 22 10:00 272.9 0.0 0.00 41.8 5.4 88.5 7.0
2020 11 22 11:00 268.7 0.0 0.00 42.7 5.9 85 7.1
2020 11 22 12:00 267.4 0.0 0.00 44.4 6.9 79.3 6.1
2020 11 22 13:00 266.5 0.0 0.00 47.2 8.5 71.33 5.1
2020 11 22 14:00 266.3 0.0 0.00 47.0 8.3 69.26 5.7
2020 11 22 15:00 266.3 0.0 0.00 46.8 8.2 69.4 7.2
2020 11 22 16:00 266.3 0.0 0.00 46.5 8.1 68.43 6.5
2020 11 22 17:00 267.0 0.0 0.00 45.4 7.4 71.14 3.9
2020 11 22 18:00 268.3 0.0 0.00 43.4 6.3 77.31 1.8
2020 11 22 19:00 Wet 285.4 0.0 0.00 41.7 5.4 82.5 0.1
2020 11 22 20:00 Wet 334.5 0.0 0.00 40.3 4.6 85.8 0.1
2020 11 22 21:00 Wet 413.3 0.0 0.00 39.8 4.3 86.9 0.3
2020 11 22 22:00 Wet 461.4 0.0 0.00 39.6 4.2 87.7 1.0
2020 11 22 23:00 Wet 475.9 0.0 0.00 40.0 4.5 86.9 1.5
2020 11 22 24:00 Wet 467.7 0.0 0.00 39.4 4.1 87.2 0.3
2020 11 23 1:00 Wet 456.1 0.0 0.00 38.4 3.5 87.9 0.6
2020 11 23 2:00 Wet 416.7 0.0 0.00 37.4 3.0 87.7 0.4
2020 11 23 3:00 Wet 390.6 0.0 0.00 34.3 1.3 92.4 0.0
2020 11 23 4:00 282.0 0.0 0.00 32.4 0.2 94.7 0.5
2020 11 23 5:00 283.6 0.0 0.00 31.4 -0.3 95 0.0
2020 11 23 6:00 Wet 286.2 0.0 0.00 31.1 -0.5 95.9 0.3
2020 11 23 7:00 Wet 287.6 0.0 0.00 30.1 -1.1 95.3 1.3
2020 11 23 8:00 Wet 349.6 0.0 0.00 30.0 -1.1 95.3 0.3
2020 11 23 9:00 Wet 305.4 0.0 0.00 35.5 1.9 86.7 0.7
2020 11 23 10:00 267.3 0.0 0.00 39.2 4.0 74.23 2.1
2020 11 23 11:00 266.3 0.0 0.00 39.6 4.2 70.49 1.3
2020 11 23 12:00 266.3 0.0 0.00 40.9 4.9 69.45 0.9
2020 11 23 13:00 266.2 0.0 0.00 41.0 5.0 70.91 1.0
2020 11 23 14:00 266.2 0.0 0.00 41.6 5.3 72.3 0.6
2020 11 23 15:00 266.6 0.0 0.00 42.0 5.6 71.67 1.8
2020 11 23 16:00 266.9 0.0 0.00 41.5 5.3 73.05 2.7
2020 11 23 17:00 Wet 426.5 0.1 1.52 40.5 4.7 78.01 1.0
2020 11 23 18:00 Wet 475.7 0.1 1.27 37.6 3.1 88.8 2.5
2020 11 23 19:00 Wet 332.4 0.0 0.00 36.9 2.7 90.6 4.0
2020 11 23 20:00 Wet 373.3 0.0 0.25 36.4 2.4 88.1 3.7
2020 11 23 21:00 Wet 298.2 0.0 0.00 36.8 2.7 89.8 3.2
2020 11 23 22:00 279.8 0.0 0.00 37.2 2.9 91.9 4.3
2020 11 23 23:00 275.3 0.0 0.00 37.8 3.2 92.1 5.0
2020 11 23 24:00 273.2 0.0 0.00 38.5 3.6 91.6 4.3
2020 11 24 1:00 Wet 286.3 0.0 0.00 39.3 4.1 91.1 5.6
2020 11 24 2:00 269.0 0.0 0.00 40.1 4.5 88.4 6.3
2020 11 24 3:00 Wet 316.8 0.0 0.00 40.7 4.8 87.3 6.2
2020 11 24 4:00 274.3 0.0 0.00 41.6 5.4 82.5 3.8
2020 11 24 5:00 271.7 0.0 0.00 42.3 5.7 79.4 5.2
2020 11 24 6:00 267.8 0.0 0.00 43.0 6.1 76.14 4.0
2020 11 24 7:00 267.6 0.0 0.00 44.4 6.9 71.26 5.6
2020 11 24 8:00 267.3 0.0 0.00 44.7 7.0 72.09 6.8
2020 11 24 9:00 266.9 0.0 0.00 45.3 7.4 72.06 5.8
2020 11 24 10:00 266.8 0.0 0.00 47.0 8.3 68.36 6.7
2020 11 24 11:00 266.2 0.0 0.00 48.3 9.1 63 9.1
2020 11 24 12:00 266.1 0.0 0.00 49.3 9.6 61 5.8
2020 11 24 13:00 265.3 0.0 0.00 51.9 11.1 54.48 7.4
2020 11 24 14:00 264.8 0.0 0.00 54.0 12.2 49.04 8.8
2020 11 24 15:00 264.8 0.0 0.00 55.3 12.9 48.63 7.2
2020 11 24 16:00 264.8 0.0 0.00 55.5 13.0 47.22 7.4
2020 11 24 17:00 Wet 329.4 0.0 0.25 53.4 11.9 54.69 4.7
2020 11 24 18:00 Wet 416.9 0.2 3.81 50.1 10.1 76.99 5.7
2020 11 24 19:00 Wet 466.5 0.1 2.29 47.4 8.5 89.7 4.5
2020 11 24 20:00 Wet 517.9 0.2 5.59 46.0 7.8 92.8 4.2
2020 11 24 21:00 Wet 534.5 0.3 7.62 45.2 7.3 95.7 5.4
2020 11 24 22:00 Wet 485.9 0.1 3.56 45.1 7.3 96 4.1
2020 11 24 23:00 Wet 524.1 0.2 3.81 44.7 7.1 96.8 5.2
2020 11 24 24:00 Wet 474.8 0.1 1.78 44.5 6.9 97.8 5.0
2020 11 25 1:00 Wet 361.5 0.0 0.25 44.6 7.0 98.2 4.6
2020 11 25 2:00 Wet 400.7 0.0 0.00 44.7 7.1 98.3 3.8
2020 11 25 3:00 Wet 335.2 0.0 0.25 44.8 7.1 98.5 4.8
2020 11 25 4:00 Wet 420.6 0.0 0.51 45.1 7.3 98.6 9.0
2020 11 25 5:00 Wet 300.4 0.0 0.00 45.9 7.7 98.1 6.0
2020 11 25 6:00 Wet 291.7 0.0 0.00 46.7 8.2 97 1.8
2020 11 25 7:00 Wet 319.3 0.0 0.00 46.3 7.9 97 1.2
2020 11 25 8:00 Wet 333.2 0.0 0.00 46.2 7.9 97.7 0.2
2020 11 25 9:00 Wet 303.6 0.0 0.00 46.8 8.2 97.9 1.1
2020 11 25 10:00 280.0 0.0 0.00 47.5 8.6 98.1 0.4
2020 11 25 11:00 Wet 380.1 0.2 4.32 48.2 9.0 97.8 0.5
2020 11 25 12:00 Wet 422.0 0.0 1.02 48.7 9.3 97.7 1.3
2020 11 25 13:00 Wet 344.8 0.0 0.00 50.1 10.1 96.9 5.4
2020 11 25 14:00 Wet 293.4 0.0 0.00 51.3 10.7 94.7 6.2
2020 11 25 15:00 Wet 358.6 0.0 0.25 50.6 10.3 95.3 7.2
2020 11 25 16:00 Wet 295.6 0.0 0.25 50.5 10.3 93.8 8.2
2020 11 25 17:00 273.6 0.0 0.00 49.3 9.6 90.8 9.1
2020 11 25 18:00 Wet 305.5 0.0 0.00 48.2 9.0 91.5 8.9
2020 11 25 19:00 274.8 0.0 0.00 45.6 7.5 93.2 10.6
2020 11 25 20:00 269.8 0.0 0.00 44.1 6.7 89.5 9.6
2020 11 25 21:00 269.4 0.0 0.00 43.6 6.4 88.2 7.2
2020 11 25 22:00 269.0 0.0 0.00 43.4 6.3 87.1 7.6
2020 11 25 23:00 269.1 0.0 0.00 43.0 6.1 87.9 5.8
2020 11 25 24:00 269.8 0.0 0.00 42.7 5.9 91.8 4.9
2020 11 26 1:00 269.9 0.0 0.00 42.5 5.8 92 5.1
2020 11 26 2:00 270.2 0.0 0.00 42.5 5.8 92.7 5.2
2020 11 26 3:00 270.0 0.0 0.00 42.3 5.7 91.8 5.4
2020 11 26 4:00 269.7 0.0 0.00 42.0 5.5 91.4 4.8
2020 11 26 5:00 269.0 0.0 0.00 42.0 5.5 84.4 4.6
2020 11 26 6:00 268.7 0.0 0.00 41.7 5.4 81.9 4.4
2020 11 26 7:00 268.3 0.0 0.00 41.5 5.3 79.95 1.5
2020 11 26 8:00 268.3 0.0 0.00 41.5 5.3 80.1 2.0
2020 11 26 9:00 267.8 0.0 0.00 41.7 5.4 78.01 4.0
2020 11 26 10:00 267.6 0.0 0.00 42.2 5.7 77.2 4.5
2020 11 26 11:00 267.0 0.0 0.00 42.8 6.0 76.4 4.3
2020 11 26 12:00 266.1 0.0 0.00 44.5 6.9 72.41 4.1
2020 11 26 13:00 265.7 0.0 0.00 46.7 8.2 69.15 4.5
2020 11 26 14:00 265.5 0.0 0.00 48.7 9.3 63.61 3.8
2020 11 26 15:00 265.8 0.0 0.00 50.0 10.0 58.13 2.8
2020 11 26 16:00 265.5 0.0 0.00 50.6 10.3 54.53 2.6
2020 11 26 17:00 266.3 0.0 0.00 48.5 9.2 58.96 0.5
2020 11 26 18:00 267.3 0.0 0.00 45.6 7.5 66.18 0.0
2020 11 26 19:00 267.6 0.0 0.00 43.2 6.2 71.39 0.9
2020 11 26 20:00 278.5 0.0 0.00 39.7 4.3 82.2 0.0
2020 11 26 21:00 Wet 285.9 0.0 0.00 38.6 3.7 84.4 0.0
2020 11 26 22:00 Wet 293.8 0.0 0.00 38.8 3.8 85.4 0.0
2020 11 26 23:00 Wet 351.2 0.0 0.00 35.5 2.0 92.2 0.0
2020 11 26 24:00 Wet 431.3 0.0 0.00 34.9 1.6 93.9 0.0
2020 11 27 1:00 Wet 484.8 0.0 0.00 34.9 1.6 96.2 0.0
2020 11 27 2:00 Wet 480.3 0.0 0.00 35.8 2.1 96.8 0.0
2020 11 27 3:00 Wet 473.5 0.0 0.00 37.6 3.1 97.3 0.2
2020 11 27 4:00 Wet 506.2 0.0 0.00 37.3 2.9 96.8 0.0
2020 11 27 5:00 Wet 508.1 0.0 0.00 37.1 2.9 97.7 0.0
2020 11 27 6:00 Wet 439.1 0.0 0.00 36.2 2.3 97.5 0.0
2020 11 27 7:00 Wet 385.7 0.0 0.00 37.8 3.2 98 0.0
2020 11 27 8:00 Wet 364.7 0.0 0.00 37.6 3.1 97.9 0.0
2020 11 27 9:00 Wet 320.9 0.0 0.00 39.3 4.1 98.2 2.3
2020 11 27 10:00 276.4 0.0 0.00 41.0 5.0 97.1 5.0
2020 11 27 11:00 268.8 0.0 0.00 44.6 7.0 86 7.9
2020 11 27 12:00 267.0 0.0 0.00 47.6 8.7 73.92 8.4
2020 11 27 13:00 266.2 0.0 0.00 51.3 10.7 61.3 8.8
2020 11 27 14:00 265.5 0.0 0.00 51.7 10.9 55.12 9.1
2020 11 27 15:00 265.4 0.0 0.00 51.5 10.8 50.75 7.9
2020 11 27 16:00 265.1 0.0 0.00 50.1 10.0 44.38 8.0
2020 11 27 17:00 264.9 0.0 0.00 47.9 8.8 44.11 4.1
2020 11 27 18:00 265.5 0.0 0.00 44.0 6.6 51.26 2.0
2020 11 27 19:00 265.9 0.0 0.00 41.4 5.2 57.77 0.2
2020 11 27 20:00 267.5 0.0 0.00 37.4 3.0 71.84 0.0
2020 11 27 21:00 270.1 0.0 0.00 35.4 1.9 78.22 0.0
2020 11 27 22:00 274.9 0.0 0.00 33.2 0.7 83.2 0.0
2020 11 27 23:00 282.7 0.0 0.00 32.0 0.0 84.2 0.0
2020 11 27 24:00 Wet 302.4 0.0 0.00 30.4 -0.9 87.7 0.0
2020 11 28 1:00 Wet 318.7 0.0 0.00 29.2 -1.6 90.2 0.0
2020 11 28 2:00 275.8 0.0 0.00 28.1 -2.1 92.5 0.0
2020 11 28 3:00 278.0 0.0 0.00 27.6 -2.4 93.4 0.0
2020 11 28 4:00 279.9 0.0 0.00 26.4 -3.1 93.8 0.0
2020 11 28 5:00 282.0 0.0 0.00 26.4 -3.1 94.7 0.0
2020 11 28 6:00 283.6 0.0 0.00 25.7 -3.5 94.6 0.0
2020 11 28 7:00 Wet 285.0 0.0 0.00 25.3 -3.7 94.9 0.0
2020 11 28 8:00 Wet 307.1 0.0 0.00 26.0 -3.4 94.9 0.0
2020 11 28 9:00 Wet 302.9 0.0 0.00 32.2 0.1 88.7 0.0
2020 11 28 10:00 266.6 0.0 0.00 37.4 3.0 77.46 0.9
2020 11 28 11:00 264.1 0.0 0.00 44.1 6.7 62.4 0.8
2020 11 28 12:00 263.4 0.0 0.00 48.7 9.3 51.05 2.0
2020 11 28 13:00 263.2 0.0 0.00 52.1 11.2 42.47 2.1
2020 11 28 14:00 262.9 0.0 0.00 53.9 12.2 36.73 2.8
2020 11 28 15:00 263.3 0.0 0.00 54.5 12.5 35.68 4.6
2020 11 28 16:00 263.4 0.0 0.00 53.9 12.1 36.53 6.1
2020 11 28 17:00 263.6 0.0 0.00 51.0 10.5 38.84 3.6
2020 11 28 18:00 264.8 0.0 0.00 47.6 8.7 43.79 0.0
2020 11 28 19:00 265.2 0.0 0.00 44.3 6.8 50.66 0.0
2020 11 28 20:00 265.3 0.0 0.00 43.0 6.1 52.5 0.2
2020 11 28 21:00 265.6 0.0 0.00 41.3 5.2 56.36 0.0
2020 11 28 22:00 267.5 0.0 0.00 36.0 2.3 70.98 0.0
2020 11 28 23:00 268.8 0.0 0.00 34.0 1.1 78.01 0.0
2020 11 28 24:00 268.1 0.0 0.00 35.5 1.9 72.66 0.0
2020 11 29 1:00 266.7 0.0 0.00 38.3 3.5 63.66 0.0
2020 11 29 2:00 268.3 0.0 0.00 35.9 2.1 70.78 0.0
2020 11 29 3:00 280.0 0.0 0.00 31.7 -0.2 84.1 0.0
2020 11 29 4:00 281.9 0.0 0.00 30.6 -0.8 89.2 0.0
2020 11 29 5:00 274.2 0.0 0.00 31.5 -0.3 90.5 0.0
2020 11 29 6:00 271.9 0.0 0.00 31.3 -0.4 90.8 0.7
2020 11 29 7:00 270.8 0.0 0.00 32.0 0.0 88.6 0.6
2020 11 29 8:00 272.6 0.0 0.00 31.5 -0.3 92.2 0.1
2020 11 29 9:00 268.8 0.0 0.00 33.4 0.8 91.5 0.6
2020 11 29 10:00 267.3 0.0 0.00 36.1 2.3 84.6 0.3
2020 11 29 11:00 266.9 0.0 0.00 39.3 4.1 79.29 1.2
2020 11 29 12:00 266.1 0.0 0.00 42.7 6.0 71.31 1.8
2020 11 29 13:00 265.2 0.0 0.00 46.9 8.3 53.35 2.8
2020 11 29 14:00 265.0 0.0 0.00 47.6 8.7 49.57 5.5
2020 11 29 15:00 265.6 0.0 0.00 46.7 8.2 56.85 6.9
2020 11 29 16:00 265.5 0.0 0.00 46.0 7.8 58.96 8.6
2020 11 29 17:00 265.6 0.0 0.00 44.8 7.1 60.09 9.5
2020 11 29 18:00 265.5 0.0 0.00 42.0 5.6 65.42 13.4
2020 11 29 19:00 265.6 0.0 0.00 39.5 4.2 62.62 13.8
2020 11 29 20:00 265.6 0.0 0.00 38.6 3.7 60.61 11.7
2020 11 29 21:00 265.6 0.0 0.00 37.8 3.2 57.29 13.2
2020 11 29 22:00 265.6 0.0 0.00 36.6 2.5 57.32 13.8
2020 11 29 23:00 265.1 0.0 0.00 35.4 1.9 55.81 13.8
2020 11 29 24:00 264.9 0.0 0.00 34.4 1.3 54.22 13.2
2020 11 30 1:00 265.0 0.0 0.00 33.2 0.7 54.32 12.3
2020 11 30 2:00 265.1 0.0 0.00 32.1 0.0 55.9 12.6
2020 11 30 3:00 265.7 0.0 0.00 29.0 -1.7 62.44 13.6
2020 11 30 4:00 265.7 0.0 0.00 27.4 -2.6 65.25 13.7
2020 11 30 5:00 265.7 0.0 0.00 27.0 -2.8 65.93 13.7
2020 11 30 6:00 265.7 0.0 0.00 27.4 -2.6 65.32 13.1
2020 11 30 7:00 265.7 0.0 0.00 27.6 -2.4 66.01 12.5
2020 11 30 8:00 265.7 0.0 0.00 27.3 -2.6 69.57 12.7
2020 11 30 9:00 265.7 0.0 0.00 27.9 -2.3 65.46 12.5
2020 11 30 10:00 265.2 0.0 0.00 29.2 -1.5 61.21 14.1
2020 11 30 11:00 265.0 0.0 0.00 30.2 -1.0 58.84 13.6
2020 11 30 12:00 265.0 0.0 0.00 31.6 -0.2 55.48 13.2
2020 11 30 13:00 264.9 0.0 0.00 32.9 0.5 52.61 12.9
2020 11 30 14:00 264.9 0.0 0.00 32.8 0.4 51.91 13.3
2020 11 30 15:00 264.9 0.0 0.00 33.1 0.6 49.24 12.8
2020 11 30 16:00 264.9 0.0 0.00 32.5 0.3 49.33 11.8
2020 11 30 17:00 265.0 0.0 0.00 31.2 -0.5 52.58 8.8
2020 11 30 18:00 265.6 0.0 0.00 28.9 -1.7 59.44 5.6
2020 11 30 19:00 265.7 0.0 0.00 27.9 -2.3 62.19 5.7
2020 11 30 20:00 265.9 0.0 0.00 26.8 -2.9 65.09 4.6
2020 11 30 21:00 266.4 0.0 0.00 25.5 -3.6 68.49 3.2
2020 11 30 22:00 266.6 0.0 0.00 24.7 -4.1 69.72 2.0
2020 11 30 23:00 266.9 0.0 0.00 23.9 -4.5 71.5 2.7
2020 11 30 24:00 267.3 0.0 0.00 23.3 -4.9 72.94 1.6
2020 12 01 1:00 267.8 0.0 0.00 22.4 -5.3 75.22 2.4
2020 12 01 2:00 267.9 0.0 0.00 21.9 -5.6 75.95 1.2
2020 12 01 3:00 269.7 0.0 0.00 20.0 -6.6 83.1 0.0
2020 12 01 4:00 271.7 0.0 0.00 18.7 -7.4 86.5 0.0
2020 12 01 5:00 273.7 0.0 0.00 19.3 -7.1 85.2 0.1
2020 12 01 6:00 275.3 0.0 0.00 18.2 -7.7 87.1 0.0
2020 12 01 7:00 276.8 0.0 0.00 18.1 -7.7 85.9 0.2
2020 12 01 8:00 277.9 0.0 0.00 19.1 -7.2 83.4 0.0
2020 12 01 9:00 274.7 0.0 0.00 21.9 -5.6 81 1.2
2020 12 01 10:00 265.8 0.0 0.00 27.1 -2.7 71.2 1.9
2020 12 01 11:00 264.4 0.0 0.00 31.4 -0.4 59 2.8
2020 12 01 12:00 263.6 0.0 0.00 34.8 1.6 47.04 2.9
2020 12 01 13:00 263.0 0.0 0.00 37.3 3.0 40.41 2.0
2020 12 01 14:00 263.2 0.0 0.00 39.2 4.0 35.89 3.0
2020 12 01 15:00 263.5 0.0 0.00 40.4 4.7 33.94 3.4
2020 12 01 16:00 263.5 0.0 0.00 40.9 5.0 32 2.9
2020 12 01 17:00 263.7 0.0 0.00 39.8 4.3 34.63 1.1
2020 12 01 18:00 264.5 0.0 0.00 35.5 2.0 41.56 0.0
2020 12 01 19:00 265.1 0.0 0.00 31.0 -0.5 51.53 0.0
2020 12 01 20:00 267.1 0.0 0.00 27.1 -2.7 68.94 0.5
2020 12 01 21:00 267.3 0.0 0.00 25.4 -3.7 70.1 0.5
2020 12 01 22:00 268.3 0.0 0.00 23.0 -5.0 79.09 0.5
2020 12 01 23:00 269.6 0.0 0.00 22.0 -5.6 82.3 0.0
2020 12 01 24:00 270.9 0.0 0.00 21.8 -5.7 81.6 0.0
2020 12 02 1:00 272.5 0.0 0.00 19.8 -6.8 89.1 0.0
2020 12 02 2:00 273.9 0.0 0.00 20.6 -6.3 84.7 0.2
2020 12 02 3:00 275.3 0.0 0.00 18.6 -7.4 88.2 0.0
2020 12 02 4:00 276.8 0.0 0.00 19.1 -7.2 90.1 0.0
2020 12 02 5:00 278.2 0.0 0.00 18.7 -7.4 88 0.0
2020 12 02 6:00 279.4 0.0 0.00 17.8 -7.9 91.2 0.0
2020 12 02 7:00 280.5 0.0 0.00 17.5 -8.1 90.9 0.0
2020 12 02 8:00 281.8 0.0 0.00 19.2 -7.1 92 0.0
2020 12 02 9:00 Wet 284.0 0.0 0.00 24.9 -3.9 86 0.4
2020 12 02 10:00 280.0 0.0 0.00 29.8 -1.2 75.92 3.2
2020 12 02 11:00 264.8 0.0 0.00 35.9 2.1 60.33 5.0
2020 12 02 12:00 263.7 0.0 0.00 40.5 4.7 47.07 4.2
2020 12 02 13:00 263.4 0.0 0.00 43.2 6.2 43.31 4.3
2020 12 02 14:00 263.0 0.0 0.00 45.6 7.6 36.36 5.8
2020 12 02 15:00 263.4 0.0 0.00 46.0 7.8 36.92 5.0
2020 12 02 16:00 263.4 0.0 0.00 45.9 7.7 36.31 3.6
2020 12 02 17:00 263.8 0.0 0.00 43.6 6.4 39.14 1.3
2020 12 02 18:00 264.7 0.0 0.00 39.3 4.0 47.87 1.0
2020 12 02 19:00 265.2 0.0 0.00 35.8 2.1 55.96 0.1
2020 12 02 20:00 265.7 0.0 0.00 33.3 0.7 61.23 0.0
2020 12 02 21:00 266.7 0.0 0.00 31.4 -0.4 67.71 0.0
2020 12 02 22:00 269.1 0.0 0.00 28.1 -2.2 79.39 0.0
2020 12 02 23:00 267.8 0.0 0.00 28.4 -2.0 77.25 0.2
2020 12 02 24:00 267.8 0.0 0.00 27.9 -2.3 80.7 0.2
2020 12 03 1:00 267.7 0.0 0.00 28.3 -2.0 82.3 1.5
2020 12 03 2:00 267.4 0.0 0.00 28.9 -1.7 82.2 1.2
2020 12 03 3:00 267.1 0.0 0.00 30.5 -0.8 79.33 1.0
2020 12 03 4:00 267.1 0.0 0.00 31.4 -0.3 79.93 0.6
2020 12 03 5:00 267.2 0.0 0.00 32.0 -0.0 78.94 2.2
2020 12 03 6:00 Wet 320.1 0.0 0.00 34.7 1.5 72.6 3.2
2020 12 03 7:00 273.8 0.0 0.00 33.9 1.1 80.8 3.7
2020 12 03 8:00 273.2 0.0 0.00 33.9 1.1 80.4 2.1
2020 12 03 9:00 268.8 0.0 0.00 36.1 2.3 80.8 1.9
2020 12 03 10:00 270.5 0.0 0.00 38.6 3.6 78.08 2.2
2020 12 03 11:00 269.5 0.0 0.00 40.8 4.9 78.12 2.1
2020 12 03 12:00 265.9 0.0 0.00 42.6 5.9 74.19 1.8
2020 12 03 13:00 267.3 0.0 0.00 43.2 6.2 68.25 3.8
2020 12 03 14:00 Wet 316.8 0.0 0.00 41.2 5.1 77.78 3.3
2020 12 03 15:00 Wet 316.8 0.0 0.00 41.4 5.2 79.28 1.3
2020 12 03 16:00 Wet 302.4 0.0 0.25 41.2 5.1 81.1 0.9
2020 12 03 17:00 277.1 0.0 0.00 39.5 4.2 85.8 1.5
2020 12 03 18:00 282.4 0.0 0.00 38.4 3.6 88.6 0.0
2020 12 03 19:00 Wet 297.3 0.0 0.00 37.7 3.2 91.8 0.9
2020 12 03 20:00 Wet 311.4 0.0 0.00 37.6 3.1 93.6 0.3
2020 12 03 21:00 Wet 312.6 0.0 0.00 36.9 2.7 94 0.7
2020 12 03 22:00 Wet 336.9 0.0 0.00 35.9 2.2 95.5 0.0
2020 12 03 23:00 Wet 336.7 0.0 0.00 36.4 2.5 96.7 0.1
2020 12 03 24:00 Wet 332.4 0.0 0.00 37.2 2.9 96.5 0.1
2020 12 04 1:00 Wet 328.2 0.0 0.00 37.7 3.2 96.1 0.7
2020 12 04 2:00 Wet 305.4 0.0 0.00 38.4 3.6 94.9 2.6
2020 12 04 3:00 277.5 0.0 0.00 38.5 3.6 93.4 3.6
2020 12 04 4:00 279.6 0.0 0.00 37.4 3.0 92.9 4.5
2020 12 04 5:00 271.2 0.0 0.00 37.6 3.1 90.1 3.4
2020 12 04 6:00 Wet 308.5 0.0 0.00 35.7 2.1 92.1 0.0
2020 12 04 7:00 Wet 384.3 0.0 0.00 34.0 1.1 94.5 0.2
2020 12 04 8:00 Wet 325.2 0.0 0.00 32.9 0.5 96.3 3.1
2020 12 04 9:00 Wet 285.3 0.0 0.00 35.2 1.8 95.1 3.3
2020 12 04 10:00 269.7 0.0 0.00 38.6 3.6 81.4 6.1
2020 12 04 11:00 266.4 0.0 0.00 41.0 5.0 71.98 7.0
2020 12 04 12:00 265.4 0.0 0.00 44.0 6.7 61.72 7.6
2020 12 04 13:00 264.8 0.0 0.00 46.2 7.9 51.35 9.5
2020 12 04 14:00 264.8 0.0 0.00 47.9 8.8 47.81 8.9
2020 12 04 15:00 264.8 0.0 0.00 49.0 9.5 44.24 8.7
2020 12 04 16:00 264.3 0.0 0.00 49.8 9.9 40.28 6.9
2020 12 04 17:00 264.9 0.0 0.00 47.0 8.3 50.43 1.7
2020 12 04 18:00 265.3 0.0 0.00 44.4 6.9 49.59 0.5
2020 12 04 19:00 265.6 0.0 0.00 41.3 5.2 53.31 0.3
2020 12 04 20:00 265.6 0.0 0.00 40.7 4.8 53.77 3.1
2020 12 04 21:00 265.6 0.0 0.00 39.4 4.1 56.62 0.8
2020 12 04 22:00 266.0 0.0 0.00 38.5 3.6 58.81 1.5
2020 12 04 23:00 266.0 0.0 0.00 37.3 2.9 61.8 1.1
2020 12 04 24:00 270.2 0.0 0.00 31.7 -0.2 77.05 0.0
2020 12 05 1:00 268.0 0.0 0.00 31.6 -0.2 77.19 0.0
2020 12 05 2:00 273.7 0.0 0.00 29.0 -1.7 84.7 0.0
2020 12 05 3:00 272.5 0.0 0.00 28.9 -1.7 84 0.0
2020 12 05 4:00 279.7 0.0 0.00 28.4 -2.0 86.8 0.0
2020 12 05 5:00 277.1 0.0 0.00 27.0 -2.8 86.8 0.0
2020 12 05 6:00 272.4 0.0 0.00 25.5 -3.6 90.4 0.0
2020 12 05 7:00 274.2 0.0 0.00 24.6 -4.1 92 0.0
2020 12 05 8:00 278.1 0.0 0.00 26.6 -3.0 93.9 0.1
2020 12 05 9:00 282.2 0.0 0.00 31.3 -0.4 85 0.9
2020 12 05 10:00 265.1 0.0 0.00 38.1 3.4 73.08 0.2
2020 12 05 11:00 263.7 0.0 0.00 44.0 6.7 58.59 0.5
2020 12 05 12:00 263.4 0.0 0.00 47.4 8.6 52.64 1.7
2020 12 05 13:00 263.1 0.0 0.00 50.5 10.3 46.94 1.6
2020 12 05 14:00 263.4 0.0 0.00 51.4 10.8 45.47 2.0
2020 12 05 15:00 263.4 0.0 0.00 54.4 12.4 39.97 0.8
2020 12 05 16:00 263.6 0.0 0.00 51.6 10.9 44.52 2.4
2020 12 05 17:00 264.7 0.0 0.00 48.2 9.0 50.18 1.3
2020 12 05 18:00 265.2 0.0 0.00 44.4 6.9 56.9 0.2
2020 12 05 19:00 265.8 0.0 0.00 41.1 5.0 63.94 1.6
2020 12 05 20:00 267.8 0.0 0.00 36.7 2.6 74.81 0.0
2020 12 05 21:00 269.7 0.0 0.00 35.1 1.7 79.46 0.0
2020 12 05 22:00 279.5 0.0 0.00 32.7 0.4 84.3 0.0
2020 12 05 23:00 Wet 286.5 0.0 0.00 32.1 0.1 85 0.0
2020 12 05 24:00 Wet 303.3 0.0 0.00 29.9 -1.2 88.1 0.0
2020 12 06 1:00 Wet 322.0 0.0 0.00 29.1 -1.6 90.3 1.4
2020 12 06 2:00 274.8 0.0 0.00 27.7 -2.4 92.9 0.4
2020 12 06 3:00 276.6 0.0 0.00 27.1 -2.7 93.3 0.2
2020 12 06 4:00 278.5 0.0 0.00 25.8 -3.4 93.1 0.1
2020 12 06 5:00 280.3 0.0 0.00 25.4 -3.7 94.6 0.0
2020 12 06 6:00 282.0 0.0 0.00 24.8 -4.0 94.4 0.2
2020 12 06 7:00 283.7 0.0 0.00 25.3 -3.7 94.6 1.2
2020 12 06 8:00 Wet 284.9 0.0 0.00 24.1 -4.4 94.5 0.0
2020 12 06 9:00 Wet 286.0 0.0 0.00 27.6 -2.5 95.6 0.0
2020 12 06 10:00 Wet 317.5 0.0 0.00 32.4 0.2 91.3 1.1
2020 12 06 11:00 266.8 0.0 0.00 36.6 2.5 76.83 2.6
2020 12 06 12:00 265.2 0.0 0.00 40.2 4.6 67.42 4.2
2020 12 06 13:00 265.2 0.0 0.00 39.8 4.3 65.95 2.3
2020 12 06 14:00 265.5 0.0 0.00 40.5 4.7 66.57 2.0
2020 12 06 15:00 265.5 0.0 0.00 40.8 4.9 66.35 3.9
2020 12 06 16:00 265.5 0.0 0.00 40.7 4.8 63.4 2.7
2020 12 06 17:00 265.9 0.0 0.00 39.6 4.2 65.46 1.5
2020 12 06 18:00 266.3 0.0 0.00 37.5 3.0 70.55 0.0
2020 12 06 19:00 266.4 0.0 0.00 36.5 2.5 74.43 0.0
2020 12 06 20:00 266.9 0.0 0.00 36.8 2.6 76.11 0.0
2020 12 06 21:00 267.0 0.0 0.00 36.8 2.7 76.49 0.0
2020 12 06 22:00 267.1 0.0 0.00 36.6 2.6 78.71 0.0
2020 12 06 23:00 267.0 0.0 0.00 37.2 2.9 75.85 1.6
2020 12 06 24:00 266.8 0.0 0.00 37.9 3.3 74.72 4.1
2020 12 07 1:00 267.0 0.0 0.00 37.3 3.0 76.53 2.7
2020 12 07 2:00 267.0 0.0 0.00 37.2 2.9 76.39 3.3
2020 12 07 3:00 266.7 0.0 0.00 37.4 3.0 74.09 6.9
2020 12 07 4:00 266.3 0.0 0.00 37.3 3.0 69.06 5.9
2020 12 07 5:00 266.3 0.0 0.00 37.1 2.8 70.18 5.1
2020 12 07 6:00 266.3 0.0 0.00 36.9 2.7 70.01 8.6
2020 12 07 7:00 266.3 0.0 0.00 36.5 2.5 70.67 7.0
2020 12 07 8:00 266.3 0.0 0.00 36.4 2.4 71.4 6.7
2020 12 07 9:00 266.3 0.0 0.00 36.5 2.5 71.03 6.6
2020 12 07 10:00 266.0 0.0 0.00 37.2 2.9 68.11 6.0
2020 12 07 11:00 265.6 0.0 0.00 37.9 3.3 66.51 3.4
2020 12 07 12:00 265.6 0.0 0.00 38.3 3.5 66.43 3.6
2020 12 07 13:00 265.6 0.0 0.00 38.8 3.8 67.59 4.8
2020 12 07 14:00 265.6 0.0 0.00 38.8 3.8 67.95 5.4
2020 12 07 15:00 265.6 0.0 0.00 38.9 3.9 67.96 2.1
2020 12 07 16:00 265.6 0.0 0.00 39.2 4.0 68.04 2.0
2020 12 07 17:00 266.2 0.0 0.00 38.6 3.7 68.99 1.0
2020 12 07 18:00 266.8 0.0 0.00 36.9 2.7 73.34 1.3
2020 12 07 19:00 275.6 0.0 0.00 33.7 1.0 81 0.1
2020 12 07 20:00 281.8 0.0 0.00 32.1 0.0 85.8 0.0
2020 12 07 21:00 Wet 294.0 0.0 0.00 29.8 -1.2 89.4 0.0
2020 12 07 22:00 280.9 0.0 0.00 31.1 -0.5 92.4 0.1
2020 12 07 23:00 268.6 0.0 0.00 33.1 0.6 87.3 0.8
2020 12 07 24:00 270.3 0.0 0.00 32.2 0.1 87.2 0.7
2020 12 08 1:00 270.0 0.0 0.00 32.3 0.1 88.3 0.1
2020 12 08 2:00 275.0 0.0 0.00 31.4 -0.3 92.4 0.7
2020 12 08 3:00 268.6 0.0 0.00 32.8 0.4 90.6 0.9
2020 12 08 4:00 269.0 0.0 0.00 32.9 0.5 90.4 0.1
2020 12 08 5:00 268.9 0.0 0.00 33.3 0.7 89.9 0.1
2020 12 08 6:00 268.9 0.0 0.00 33.6 0.9 88.6 0.1
2020 12 08 7:00 269.1 0.0 0.00 33.5 0.9 89.1 0.0
2020 12 08 8:00 268.8 0.0 0.00 33.3 0.7 89.6 0.5
2020 12 08 9:00 267.5 0.0 0.00 34.0 1.1 83.2 1.7
2020 12 08 10:00 265.5 0.0 0.00 36.6 2.5 75.13 1.7
2020 12 08 11:00 264.9 0.0 0.00 39.2 4.0 66.17 3.4
2020 12 08 12:00 264.8 0.0 0.00 41.1 5.0 62.53 4.2
2020 12 08 13:00 264.8 0.0 0.00 42.5 5.8 61.64 4.6
2020 12 08 14:00 264.8 0.0 0.00 44.3 6.8 58.66 3.1
2020 12 08 15:00 264.8 0.0 0.00 46.0 7.8 55.69 3.1
2020 12 08 16:00 264.8 0.0 0.00 46.5 8.0 55.73 4.4
2020 12 08 17:00 265.6 0.0 0.00 44.6 7.0 60.13 2.8
2020 12 08 18:00 266.7 0.0 0.00 41.7 5.4 65.91 0.1
2020 12 08 19:00 267.6 0.0 0.00 39.5 4.2 71.64 1.1
2020 12 08 20:00 269.1 0.0 0.00 38.4 3.5 75.32 0.0
2020 12 08 21:00 275.8 0.0 0.00 35.5 1.9 81.5 0.0
2020 12 08 22:00 Wet 285.6 0.0 0.00 33.8 1.0 85.8 0.0
2020 12 08 23:00 Wet 295.9 0.0 0.00 33.0 0.5 87.8 0.0
2020 12 08 24:00 Wet 285.7 0.0 0.00 33.2 0.7 84 0.0
2020 12 09 1:00 Wet 290.5 0.0 0.00 30.6 -0.8 89.8 0.0
2020 12 09 2:00 280.2 0.0 0.00 32.6 0.3 87.9 0.0
2020 12 09 3:00 269.8 0.0 0.00 34.5 1.4 85 0.0
2020 12 09 4:00 273.8 0.0 0.00 35.0 1.7 82.2 0.0
2020 12 09 5:00 271.2 0.0 0.00 34.2 1.2 81.9 0.0
2020 12 09 6:00 268.3 0.0 0.00 38.2 3.5 71.88 0.5
2020 12 09 7:00 268.2 0.0 0.00 37.2 2.9 73.4 0.0
2020 12 09 8:00 267.5 0.0 0.00 37.6 3.1 72.51 0.0
2020 12 09 9:00 265.0 0.0 0.00 43.3 6.3 62.76 1.6
2020 12 09 10:00 264.6 0.0 0.00 49.5 9.8 49.28 6.0
2020 12 09 11:00 263.7 0.0 0.00 53.8 12.1 41.96 6.1
2020 12 09 12:00 262.9 0.0 0.00 58.2 14.5 36.22 5.3
2020 12 09 13:00 262.4 0.0 0.00 61.8 16.6 31.74 4.5
2020 12 09 14:00 262.0 0.0 0.00 64.2 17.9 27.92 5.6
2020 12 09 15:00 262.0 0.0 0.00 65.0 18.4 27.08 5.9
2020 12 09 16:00 262.0 0.0 0.00 64.7 18.2 27.65 4.3
2020 12 09 17:00 262.1 0.0 0.00 62.1 16.7 29.58 1.2
2020 12 09 18:00 262.8 0.0 0.00 57.5 14.2 35.1 0.0
2020 12 09 19:00 263.9 0.0 0.00 51.0 10.6 46.35 0.0
2020 12 09 20:00 264.9 0.0 0.00 46.2 7.9 58.2 0.0
2020 12 09 21:00 265.4 0.0 0.00 43.7 6.5 62.12 0.2
2020 12 09 22:00 266.7 0.0 0.00 39.6 4.2 73.01 0.0
2020 12 09 23:00 267.1 0.0 0.00 38.7 3.7 74.25 0.1
2020 12 09 24:00 268.6 0.0 0.00 36.2 2.3 79.62 0.0
2020 12 10 1:00 269.3 0.0 0.00 35.7 2.0 81 0.0
2020 12 10 2:00 271.2 0.0 0.00 34.4 1.3 82.9 0.0
2020 12 10 3:00 272.9 0.0 0.00 33.1 0.6 85.7 0.0
2020 12 10 4:00 275.0 0.0 0.00 31.6 -0.2 87.8 0.0
2020 12 10 5:00 Wet 284.4 0.0 0.00 30.9 -0.6 89.4 0.0
2020 12 10 6:00 Wet 300.1 0.0 0.00 30.3 -1.0 91.1 0.0
2020 12 10 7:00 Wet 316.9 0.0 0.00 30.0 -1.1 91.2 0.0
2020 12 10 8:00 Wet 326.4 0.0 0.00 28.9 -1.7 93.4 0.0
2020 12 10 9:00 268.8 0.0 0.00 35.0 1.7 88.1 0.0
2020 12 10 10:00 265.2 0.0 0.00 41.2 5.1 75.03 1.0
2020 12 10 11:00 264.3 0.0 0.00 47.6 8.7 64.5 1.9
2020 12 10 12:00 263.1 0.0 0.00 54.8 12.7 49.6 1.6
2020 12 10 13:00 262.3 0.0 0.00 60.1 15.6 40.95 0.9
2020 12 10 14:00 262.3 0.0 0.00 62.7 17.1 38.13 3.1
2020 12 10 15:00 262.7 0.0 0.00 64.0 17.8 37.69 3.3
2020 12 10 16:00 262.3 0.0 0.00 64.6 18.1 31.37 2.5
2020 12 10 17:00 262.5 0.0 0.00 62.4 16.9 30.33 0.7
2020 12 10 18:00 263.2 0.0 0.00 56.7 13.7 37.97 0.0
2020 12 10 19:00 264.6 0.0 0.00 49.2 9.5 52.12 0.3
2020 12 10 20:00 265.1 0.0 0.00 46.8 8.2 56.84 0.0
2020 12 10 21:00 265.9 0.0 0.00 44.4 6.9 62.72 0.0
2020 12 10 22:00 267.2 0.0 0.00 40.1 4.5 73.33 0.0
2020 12 10 23:00 267.7 0.0 0.00 39.1 4.0 75.79 0.0
2020 12 10 24:00 267.8 0.0 0.00 39.3 4.1 75.44 0.1
2020 12 11 1:00 265.8 0.0 0.00 46.7 8.2 56.57 0.8
2020 12 11 2:00 265.2 0.0 0.00 49.8 9.9 51.43 1.8
2020 12 11 3:00 265.3 0.0 0.00 49.9 10.0 51.29 0.8
2020 12 11 4:00 265.0 0.0 0.00 49.6 9.8 51.64 0.4
2020 12 11 5:00 265.4 0.0 0.00 47.5 8.6 56.07 1.8
2020 12 11 6:00 266.5 0.0 0.00 42.6 5.9 67.6 0.6
2020 12 11 7:00 266.5 0.0 0.00 41.9 5.5 70.65 0.2
2020 12 11 8:00 266.4 0.0 0.00 43.1 6.1 72.2 1.5
2020 12 11 9:00 266.0 0.0 0.00 44.1 6.7 73.33 2.1
2020 12 11 10:00 265.5 0.0 0.00 47.7 8.7 68.23 1.2
2020 12 11 11:00 265.0 0.0 0.00 52.4 11.3 59.67 0.8
2020 12 11 12:00 279.8 0.0 0.00 54.0 12.2 61.29 0.5
2020 12 11 13:00 Wet 347.4 0.0 0.25 53.0 11.7 69.6 1.3
2020 12 11 14:00 Wet 371.2 0.0 0.25 51.3 10.7 83.8 2.6
2020 12 11 15:00 Wet 300.0 0.0 0.00 50.5 10.3 88.4 3.0
2020 12 11 16:00 Wet 470.9 0.1 2.03 50.6 10.3 92.7 3.3
2020 12 11 17:00 Wet 486.7 0.1 2.29 50.7 10.4 96.4 3.1
2020 12 11 18:00 Wet 461.6 0.1 2.03 51.6 10.9 97.4 5.7
2020 12 11 19:00 Wet 457.9 0.2 5.84 53.0 11.7 96.3 5.7
2020 12 11 20:00 Wet 409.5 0.1 1.27 53.1 11.7 96.3 4.3
2020 12 11 21:00 Wet 347.4 0.0 0.00 53.4 11.9 95.4 3.6
2020 12 11 22:00 Wet 404.9 0.0 0.76 53.0 11.7 95.9 3.5
2020 12 11 23:00 Wet 479.0 0.1 3.56 52.8 11.6 97 4.0
2020 12 11 24:00 Wet 401.4 0.0 0.25 52.7 11.5 97.3 3.5
2020 12 12 1:00 Wet 330.1 0.0 0.00 52.3 11.3 93.3 6.4
2020 12 12 2:00 272.9 0.0 0.25 47.6 8.7 86.5 9.9
2020 12 12 3:00 268.5 0.0 0.00 44.0 6.7 81.4 10.4
2020 12 12 4:00 268.2 0.0 0.00 42.6 5.9 80.8 9.7
2020 12 12 5:00 268.1 0.0 0.00 41.7 5.4 81.6 9.3
2020 12 12 6:00 267.6 0.0 0.00 41.2 5.1 77.71 10.0
2020 12 12 7:00 267.6 0.0 0.00 40.6 4.8 76.99 10.9
2020 12 12 8:00 267.6 0.0 0.00 40.2 4.5 76.37 8.7
2020 12 12 9:00 267.6 0.0 0.00 39.8 4.3 80.1 9.0
2020 12 12 10:00 267.6 0.0 0.00 39.7 4.3 83.1 7.8
2020 12 12 11:00 267.6 0.0 0.00 39.9 4.4 83.9 8.8
2020 12 12 12:00 267.6 0.0 0.00 40.0 4.4 82.8 10.7
2020 12 12 13:00 267.6 0.0 0.00 39.9 4.4 83.6 9.7
2020 12 12 14:00 267.7 0.0 0.00 39.7 4.3 84.1 9.5
2020 12 12 15:00 268.1 0.0 0.00 39.0 3.9 84.8 8.5
2020 12 12 16:00 Wet 287.4 0.0 0.00 37.8 3.2 89.6 8.5
2020 12 12 17:00 268.8 0.0 0.00 37.1 2.9 86.1 8.4
2020 12 12 18:00 268.0 0.0 0.00 36.7 2.6 81.8 8.5
2020 12 12 19:00 268.3 0.0 0.00 35.9 2.2 83.3 8.5
2020 12 12 20:00 268.3 0.0 0.00 35.2 1.8 83.3 8.0
2020 12 12 21:00 268.3 0.0 0.00 35.0 1.7 83.4 6.7
2020 12 12 22:00 268.3 0.0 0.00 34.6 1.4 84.5 6.1
2020 12 12 23:00 268.3 0.0 0.00 34.4 1.4 85.2 5.0
2020 12 12 24:00 268.3 0.0 0.00 34.3 1.3 85.5 4.4
2020 12 13 1:00 268.3 0.0 0.00 34.2 1.2 84.9 4.0
2020 12 13 2:00 268.4 0.0 0.00 34.1 1.2 84.8 3.7
2020 12 13 3:00 268.4 0.0 0.00 34.1 1.1 86.2 5.3
2020 12 13 4:00 268.4 0.0 0.00 34.0 1.1 85.7 4.7
2020 12 13 5:00 268.4 0.0 0.00 33.7 0.9 85.9 4.2
2020 12 13 6:00 268.4 0.0 0.00 33.6 0.9 85.3 3.8
2020 12 13 7:00 268.4 0.0 0.00 33.5 0.8 84.4 3.3
2020 12 13 8:00 268.4 0.0 0.00 33.4 0.8 85 2.1
2020 12 13 9:00 267.9 0.0 0.00 33.8 1.0 84.2 1.3
2020 12 13 10:00 267.2 0.0 0.00 35.0 1.7 80.6 1.0
2020 12 13 11:00 267.0 0.0 0.00 35.7 2.1 77.66 1.9
2020 12 13 12:00 267.0 0.0 0.00 35.6 2.0 77.06 2.8
2020 12 13 13:00 267.2 0.0 0.00 35.6 2.0 77.69 3.1
2020 12 13 14:00 267.0 0.0 0.00 36.1 2.3 74.5 2.4
2020 12 13 15:00 267.0 0.0 0.00 36.1 2.3 74.66 3.4
2020 12 13 16:00 267.0 0.0 0.00 36.0 2.2 74.18 4.2
2020 12 13 17:00 267.1 0.0 0.00 35.7 2.0 75.17 4.0
2020 12 13 18:00 267.5 0.0 0.00 35.2 1.8 76.5 4.7
2020 12 13 19:00 267.7 0.0 0.00 34.8 1.6 78.05 4.0
2020 12 13 20:00 267.7 0.0 0.00 34.6 1.4 78.54 5.7
2020 12 13 21:00 267.7 0.0 0.00 34.1 1.1 79.6 7.6
2020 12 13 22:00 267.2 0.0 0.00 34.0 1.1 74.8 7.5
2020 12 13 23:00 267.0 0.0 0.00 32.7 0.4 70.75 8.3
2020 12 13 24:00 267.0 0.0 0.00 30.7 -0.7 72.96 10.2
2020 12 14 1:00 267.0 0.0 0.00 28.2 -2.1 73.27 11.2
2020 12 14 2:00 267.0 0.0 0.00 27.4 -2.6 74.83 13.6
2020 12 14 3:00 267.2 0.0 0.00 26.1 -3.3 77.44 8.2
2020 12 14 4:00 267.1 0.0 0.00 26.6 -3.0 76.31 5.6
2020 12 14 5:00 268.2 0.0 0.00 25.6 -3.5 77.78 2.8
2020 12 14 6:00 268.8 0.0 0.00 24.8 -4.0 81 3.2
2020 12 14 7:00 269.7 0.0 0.00 23.9 -4.5 83.8 3.6
2020 12 14 8:00 269.0 0.0 0.00 23.6 -4.7 85.2 4.7
2020 12 14 9:00 267.2 0.0 0.00 25.4 -3.7 82.1 7.6
2020 12 14 10:00 266.6 0.0 0.00 27.5 -2.5 74.88 8.8
2020 12 14 11:00 265.9 0.0 0.00 29.8 -1.2 65.1 7.4
2020 12 14 12:00 265.4 0.0 0.00 31.4 -0.4 58.26 6.1
2020 12 14 13:00 265.0 0.0 0.00 33.3 0.7 52.75 6.3
2020 12 14 14:00 264.9 0.0 0.00 34.2 1.2 50.9 6.5
2020 12 14 15:00 265.0 0.0 0.00 35.3 1.8 47.9 5.9
2020 12 14 16:00 265.3 0.0 0.00 34.6 1.4 49.35 4.6
2020 12 14 17:00 265.7 0.0 0.00 31.8 -0.1 56.06 4.8
2020 12 14 18:00 266.3 0.0 0.00 28.3 -2.0 64.32 3.1
2020 12 14 19:00 267.0 0.0 0.00 26.6 -3.0 70.45 1.1
2020 12 14 20:00 267.9 0.0 0.00 25.4 -3.7 74.69 0.1
2020 12 14 21:00 268.7 0.0 0.00 23.8 -4.5 80.5 0.4
2020 12 14 22:00 268.9 0.0 0.00 23.6 -4.7 82.1 2.2
2020 12 14 23:00 268.9 0.0 0.00 22.4 -5.3 83.5 0.9
2020 12 14 24:00 270.9 0.0 0.00 21.1 -6.0 87.9 0.1
2020 12 15 1:00 272.9 0.0 0.00 20.8 -6.2 89.1 0.5
2020 12 15 2:00 274.6 0.0 0.00 21.3 -6.0 85.7 0.6
2020 12 15 3:00 275.4 0.0 0.00 21.1 -6.0 84.2 0.9
2020 12 15 4:00 276.2 0.0 0.00 20.9 -6.2 84.4 0.4
2020 12 15 5:00 277.2 0.0 0.00 21.3 -5.9 84.7 2.3
2020 12 15 6:00 277.4 0.0 0.00 21.8 -5.7 85.5 3.9
2020 12 15 7:00 276.9 0.0 0.00 22.4 -5.4 85.5 3.6
2020 12 15 8:00 275.7 0.0 0.00 22.7 -5.1 85 4.1
2020 12 15 9:00 273.8 0.0 0.00 23.4 -4.8 85.4 4.7
2020 12 15 10:00 269.4 0.0 0.00 24.7 -4.0 83.8 4.8
2020 12 15 11:00 266.8 0.0 0.00 26.7 -3.0 80.4 4.2
2020 12 15 12:00 266.3 0.0 0.00 28.8 -1.8 75.54 4.4
2020 12 15 13:00 266.3 0.0 0.00 30.7 -0.7 70.01 7.0
2020 12 15 14:00 266.3 0.0 0.00 31.1 -0.5 67.53 6.3
2020 12 15 15:00 266.3 0.0 0.00 31.7 -0.2 67.17 7.1
2020 12 15 16:00 266.4 0.0 0.00 31.0 -0.5 70.97 7.3
2020 12 15 17:00 266.9 0.0 0.00 30.5 -0.9 71.6 7.8
2020 12 15 18:00 267.0 0.0 0.00 30.1 -1.1 72.25 6.0
2020 12 15 19:00 267.0 0.0 0.00 30.1 -1.1 73.19 5.2
2020 12 15 20:00 267.0 0.0 0.00 30.1 -1.0 74.33 4.1
2020 12 15 21:00 267.0 0.0 0.00 30.3 -1.0 74.4 3.7
2020 12 15 22:00 267.0 0.0 0.00 30.1 -1.0 74.69 4.3
2020 12 15 23:00 267.0 0.0 0.00 29.9 -1.2 75.44 3.8
2020 12 15 24:00 267.0 0.0 0.00 29.5 -1.4 75.98 4.4
2020 12 16 1:00 267.0 0.0 0.00 29.2 -1.6 73.64 4.8
2020 12 16 2:00 267.0 0.0 0.00 28.8 -1.8 73.16 4.4
2020 12 16 3:00 267.0 0.0 0.00 28.6 -1.9 73.45 3.5
2020 12 16 4:00 267.0 0.0 0.00 28.3 -2.1 75.47 3.7
2020 12 16 5:00 267.7 0.0 0.00 27.8 -2.3 79.17 3.4
2020 12 16 6:00 267.7 0.0 0.00 27.5 -2.5 80.9 3.2
2020 12 16 7:00 267.8 0.0 0.00 27.2 -2.7 80.7 4.4
2020 12 16 8:00 267.8 0.0 0.00 26.8 -2.9 80.6 5.6
2020 12 16 9:00 267.5 0.0 0.00 26.8 -2.9 79.9 5.3
2020 12 16 10:00 266.8 0.0 0.00 28.2 -2.1 74.85 6.4
2020 12 16 11:00 265.9 0.0 0.00 30.6 -0.8 62.97 7.0
2020 12 16 12:00 265.6 0.0 0.00 30.9 -0.6 60.34 7.0
2020 12 16 13:00 265.3 0.0 0.00 32.2 0.1 55.86 8.2
2020 12 16 14:00 265.0 0.0 0.00 33.6 0.9 51.82 9.7
2020 12 16 15:00 265.0 0.0 0.00 34.3 1.3 49.14 9.2
2020 12 16 16:00 265.2 0.0 0.00 33.6 0.9 50.48 8.7
2020 12 16 17:00 265.6 0.0 0.00 31.5 -0.3 55.16 5.0
2020 12 16 18:00 266.3 0.0 0.00 28.3 -2.0 64.82 3.4
2020 12 16 19:00 266.8 0.0 0.00 26.4 -3.1 69.79 1.4
2020 12 16 20:00 268.0 0.0 0.00 25.0 -3.9 74.08 0.1
2020 12 16 21:00 269.4 0.0 0.00 23.3 -4.8 79.25 0.0
2020 12 16 22:00 270.9 0.0 0.00 21.9 -5.6 83.4 0.0
2020 12 16 23:00 272.4 0.0 0.00 21.5 -5.8 85.6 0.5
2020 12 16 24:00 273.7 0.0 0.00 20.2 -6.6 87.5 0.0
2020 12 17 1:00 275.5 0.0 0.00 20.5 -6.4 88.4 0.0
2020 12 17 2:00 277.0 0.0 0.00 19.8 -6.8 86.8 0.0
2020 12 17 3:00 278.4 0.0 0.00 18.9 -7.3 89 0.1
2020 12 17 4:00 279.7 0.0 0.00 19.1 -7.1 87.3 0.0
2020 12 17 5:00 281.1 0.0 0.00 18.0 -7.8 88.5 0.0
2020 12 17 6:00 281.9 0.0 0.00 17.5 -8.1 88.8 0.0
2020 12 17 7:00 282.9 0.0 0.00 16.9 -8.4 89.7 0.0
2020 12 17 8:00 283.8 0.0 0.00 17.2 -8.2 90.6 0.0
2020 12 17 9:00 Wet 284.3 0.0 0.00 20.8 -6.2 91.7 0.0
2020 12 17 10:00 Wet 284.8 0.0 0.00 24.6 -4.1 89.8 0.1
2020 12 17 11:00 283.4 0.0 0.00 27.2 -2.7 86.1 1.9
2020 12 17 12:00 Wet 294.6 0.0 0.00 29.6 -1.3 78.5 1.8
2020 12 17 13:00 270.9 0.0 0.00 31.7 -0.2 67.9 3.8
2020 12 17 14:00 265.8 0.0 0.00 32.4 0.2 64.34 5.1
2020 12 17 15:00 265.8 0.0 0.00 32.8 0.4 63.61 5.2
2020 12 17 16:00 266.3 0.0 0.00 32.7 0.4 64.79 4.0
2020 12 17 17:00 266.9 0.0 0.00 31.6 -0.2 67.79 1.3
2020 12 17 18:00 267.7 0.0 0.00 30.0 -1.1 71.65 0.1
2020 12 17 19:00 268.1 0.0 0.00 28.1 -2.2 76.4 1.3
2020 12 17 20:00 270.8 0.0 0.00 27.0 -2.8 79.05 0.4
2020 12 17 21:00 270.3 0.0 0.00 24.9 -3.9 83.8 0.6
2020 12 17 22:00 271.2 0.0 0.00 25.4 -3.7 82.7 1.1
2020 12 17 23:00 272.6 0.0 0.00 24.5 -4.2 85.4 2.1
2020 12 17 24:00 273.8 0.0 0.00 24.8 -4.0 85.9 2.8
2020 12 18 1:00 275.1 0.0 0.00 23.8 -4.6 87.2 0.4
2020 12 18 2:00 276.9 0.0 0.00 23.2 -4.9 89.1 1.2
2020 12 18 3:00 278.6 0.0 0.00 23.1 -5.0 89 1.3
2020 12 18 4:00 279.9 0.0 0.00 22.1 -5.5 90.2 1.0
2020 12 18 5:00 281.6 0.0 0.00 21.7 -5.7 91.3 0.7
2020 12 18 6:00 282.5 0.0 0.00 21.6 -5.8 91.9 0.7
2020 12 18 7:00 283.9 0.0 0.00 22.7 -5.2 92.3 3.5
2020 12 18 8:00 Wet 284.5 0.0 0.00 23.1 -5.0 92.4 2.7
2020 12 18 9:00 Wet 284.8 0.0 0.00 25.3 -3.7 91.6 3.0
2020 12 18 10:00 Wet 284.5 0.0 0.00 27.9 -2.3 90.4 3.3
2020 12 18 11:00 Wet 321.4 0.0 0.00 31.5 -0.3 87.2 4.9
2020 12 18 12:00 Wet 288.9 0.0 0.00 35.2 1.8 77.9 6.0
2020 12 18 13:00 266.3 0.0 0.00 39.0 3.9 68.69 7.1
2020 12 18 14:00 265.8 0.0 0.00 42.6 5.9 60.69 8.0
2020 12 18 15:00 265.5 0.0 0.00 43.9 6.6 58.57 6.9
2020 12 18 16:00 265.6 0.0 0.00 44.2 6.8 57.92 7.2
2020 12 18 17:00 266.2 0.0 0.00 43.1 6.2 59.91 7.2
2020 12 18 18:00 266.2 0.0 0.00 41.7 5.4 62.74 6.0
2020 12 18 19:00 266.3 0.0 0.00 41.2 5.1 64.91 5.4
2020 12 18 20:00 266.3 0.0 0.00 42.0 5.6 64.94 7.1
2020 12 18 21:00 266.2 0.0 0.00 42.7 6.0 64.81 7.2
2020 12 18 22:00 266.4 0.0 0.00 42.6 5.9 66.66 6.0
2020 12 18 23:00 266.2 0.0 0.00 42.3 5.7 69.38 5.5
2020 12 18 24:00 266.2 0.0 0.00 42.4 5.8 68.32 5.4
2020 12 19 1:00 266.2 0.0 0.00 43.4 6.3 64.88 8.4
2020 12 19 2:00 266.2 0.0 0.00 43.8 6.5 64.19 8.3
2020 12 19 3:00 266.2 0.0 0.00 43.8 6.6 64.79 7.5
2020 12 19 4:00 266.2 0.0 0.00 43.9 6.6 65.4 6.4
2020 12 19 5:00 266.2 0.0 0.00 44.1 6.7 65.37 6.3
2020 12 19 6:00 266.2 0.0 0.00 43.7 6.5 66.22 7.1
2020 12 19 7:00 266.2 0.0 0.00 43.3 6.3 67.85 6.1
2020 12 19 8:00 266.4 0.0 0.00 42.6 5.9 69.92 5.0
2020 12 19 9:00 266.3 0.0 0.00 42.5 5.8 71.4 3.9
2020 12 19 10:00 265.5 0.0 0.00 44.4 6.9 65.66 7.5
2020 12 19 11:00 265.4 0.0 0.00 44.5 6.9 63.43 8.0
2020 12 19 12:00 265.4 0.0 0.00 44.3 6.9 63.04 9.4
2020 12 19 13:00 265.4 0.0 0.00 44.6 7.0 62.72 8.7
2020 12 19 14:00 265.6 0.0 0.00 43.0 6.1 66.48 9.7
2020 12 19 15:00 266.2 0.0 0.00 38.5 3.6 76.5 9.5
2020 12 19 16:00 266.9 0.0 0.00 36.5 2.5 82.1 7.8
2020 12 19 17:00 266.9 0.0 0.00 35.8 2.1 83.5 7.7
2020 12 19 18:00 267.4 0.0 0.00 35.5 2.0 84.6 7.3
2020 12 19 19:00 267.4 0.0 0.00 35.3 1.8 83.5 8.1
2020 12 19 20:00 267.0 0.0 0.00 34.8 1.6 80.1 6.8
2020 12 19 21:00 267.0 0.0 0.00 34.2 1.2 78.46 4.1
2020 12 19 22:00 267.0 0.0 0.00 33.5 0.9 76.08 4.4
2020 12 19 23:00 268.7 0.0 0.00 32.3 0.2 77.11 1.9
2020 12 19 24:00 274.6 0.0 0.00 29.9 -1.2 82 0.9
2020 12 20 1:00 272.9 0.0 0.00 26.4 -3.1 89.8 0.0
2020 12 20 2:00 275.9 0.0 0.00 25.0 -3.9 92.6 0.0
2020 12 20 3:00 279.1 0.0 0.00 24.8 -4.0 94 0.0
2020 12 20 4:00 281.3 0.0 0.00 23.2 -4.9 93.6 0.1
2020 12 20 5:00 283.1 0.0 0.00 21.8 -5.7 93.3 0.3
2020 12 20 6:00 Wet 284.6 0.0 0.00 21.4 -5.9 93.6 0.1
2020 12 20 7:00 Wet 285.9 0.0 0.00 23.2 -4.9 95 0.3
2020 12 20 8:00 Wet 287.1 0.0 0.00 23.0 -5.0 95 0.2
2020 12 20 9:00 Wet 289.8 0.0 0.00 23.6 -4.7 95.2 0.6
2020 12 20 10:00 Wet 340.2 0.0 0.00 28.6 -1.9 95.2 3.5
2020 12 20 11:00 271.6 0.0 0.00 31.5 -0.3 89.5 5.3
2020 12 20 12:00 266.9 0.0 0.00 36.4 2.5 79.01 5.5
2020 12 20 13:00 265.4 0.0 0.00 41.9 5.5 64.44 6.2
2020 12 20 14:00 265.4 0.0 0.00 43.6 6.5 60.33 7.4
2020 12 20 15:00 265.5 0.0 0.00 45.8 7.7 55.15 6.6
2020 12 20 16:00 265.4 0.0 0.00 46.9 8.3 53.7 4.3
2020 12 20 17:00 265.6 0.0 0.00 46.2 7.9 55.12 0.4
2020 12 20 18:00 267.0 0.0 0.00 42.3 5.7 63.72 0.0
2020 12 20 19:00 269.2 0.0 0.00 38.0 3.4 74.02 0.6
2020 12 20 20:00 267.9 0.0 0.00 37.3 2.9 77.07 1.8
2020 12 20 21:00 267.7 0.0 0.00 38.6 3.7 73.14 1.3
2020 12 20 22:00 267.7 0.0 0.00 38.1 3.4 74.71 0.2
2020 12 20 23:00 267.7 0.0 0.00 38.6 3.7 73.75 0.7
2020 12 20 24:00 267.6 0.0 0.00 39.2 4.0 71.52 0.8
2020 12 21 1:00 267.4 0.0 0.00 39.3 4.1 69.31 0.5
2020 12 21 2:00 267.0 0.0 0.00 39.3 4.0 68.94 2.4
2020 12 21 3:00 267.0 0.0 0.00 39.7 4.3 66.72 3.9
2020 12 21 4:00 267.0 0.0 0.00 39.4 4.1 66.28 5.4
2020 12 21 5:00 266.8 0.0 0.00 40.4 4.7 63.12 5.1
2020 12 21 6:00 266.3 0.0 0.00 42.0 5.6 59.09 6.4
2020 12 21 7:00 265.8 0.0 0.00 43.4 6.3 55.97 9.7
2020 12 21 8:00 265.6 0.0 0.00 42.8 6.0 57.25 9.8
2020 12 21 9:00 265.2 0.0 0.00 44.3 6.8 53.95 10.4
2020 12 21 10:00 264.8 0.0 0.00 47.4 8.5 48.35 11.2
2020 12 21 11:00 264.4 0.0 0.00 49.6 9.8 43.38 13.6
2020 12 21 12:00 263.6 0.0 0.00 51.0 10.5 39.83 13.1
2020 12 21 13:00 263.2 0.0 0.00 53.1 11.7 33.61 13.9
2020 12 21 14:00 262.7 0.0 0.00 54.4 12.5 28.65 14.3
2020 12 21 15:00 262.1 0.0 0.00 55.3 12.9 24.4 16.0
2020 12 21 16:00 262.1 0.0 0.00 55.3 12.9 23.76 14.6
2020 12 21 17:00 262.0 0.0 0.00 54.1 12.3 21.38 13.9
2020 12 21 18:00 262.1 0.0 0.00 51.9 11.0 22.85 10.4
2020 12 21 19:00 262.1 0.0 0.00 49.8 9.9 25.73 8.1
2020 12 21 20:00 262.1 0.0 0.00 48.2 9.0 28.85 8.3
2020 12 21 21:00 262.1 0.0 0.00 47.8 8.8 29.79 10.2
2020 12 21 22:00 262.4 0.0 0.00 46.5 8.1 31.39 9.5
2020 12 21 23:00 262.8 0.0 0.00 45.6 7.6 33.19 10.1
2020 12 21 24:00 263.0 0.0 0.00 43.0 6.1 38.55 7.2
2020 12 22 1:00 263.5 0.0 0.00 40.5 4.7 43.97 4.8
2020 12 22 2:00 263.9 0.0 0.00 38.5 3.6 49.28 4.5
2020 12 22 3:00 264.7 0.0 0.00 36.3 2.4 54.57 4.2
2020 12 22 4:00 265.2 0.0 0.00 33.9 1.1 60.23 1.2
2020 12 22 5:00 266.5 0.0 0.00 31.5 -0.3 66.49 0.0
2020 12 22 6:00 269.6 0.0 0.00 28.3 -2.1 75.29 0.0
2020 12 22 7:00 269.1 0.0 0.00 26.9 -2.8 78.48 0.1
2020 12 22 8:00 268.0 0.0 0.00 26.2 -3.2 80.7 0.0
2020 12 22 9:00 264.2 0.0 0.00 31.4 -0.3 72.03 0.1
2020 12 22 10:00 263.7 0.0 0.00 37.6 3.1 60.15 3.3
2020 12 22 11:00 263.4 0.0 0.00 42.9 6.1 49.01 5.4
2020 12 22 12:00 262.8 0.0 0.00 46.5 8.1 41.89 5.5
2020 12 22 13:00 262.5 0.0 0.00 49.3 9.6 36.71 6.7
2020 12 22 14:00 262.2 0.0 0.00 51.8 11.0 33.53 7.3
2020 12 22 15:00 262.1 0.0 0.00 53.9 12.2 30.85 6.7
2020 12 22 16:00 262.1 0.0 0.00 54.5 12.5 26.98 6.4
2020 12 22 17:00 262.4 0.0 0.00 51.5 10.8 31.81 5.1
2020 12 22 18:00 262.9 0.0 0.00 48.5 9.2 38.84 5.9
2020 12 22 19:00 263.4 0.0 0.00 47.4 8.5 40.48 5.2
2020 12 22 20:00 263.5 0.0 0.00 46.2 7.9 39.47 3.6
2020 12 22 21:00 262.9 0.0 0.00 48.1 8.9 31.54 8.2
2020 12 22 22:00 262.8 0.0 0.00 47.9 8.8 34.43 9.0
2020 12 22 23:00 262.9 0.0 0.00 47.3 8.5 40.06 9.6
2020 12 22 24:00 263.5 0.0 0.00 47.4 8.6 42.59 10.0
2020 12 23 1:00 263.5 0.0 0.00 47.7 8.7 41.82 9.2
2020 12 23 2:00 263.5 0.0 0.00 47.6 8.7 42.84 7.7
2020 12 23 3:00 263.5 0.0 0.00 48.7 9.3 45.76 7.2
2020 12 23 4:00 263.5 0.0 0.00 50.8 10.5 50.13 10.6
2020 12 23 5:00 263.4 0.0 0.00 52.2 11.2 49.91 11.9
2020 12 23 6:00 263.7 0.0 0.00 52.3 11.3 51.59 11.5
2020 12 23 7:00 264.1 0.0 0.00 52.3 11.3 53.8 12.9
2020 12 23 8:00 264.1 0.0 0.00 52.2 11.2 55.74 12.5
2020 12 23 9:00 264.0 0.0 0.00 53.0 11.6 56.05 12.0
2020 12 23 10:00 263.6 0.0 0.00 56.5 13.6 56.85 13.1
2020 12 23 11:00 263.8 0.0 0.00 59.1 15.0 56.78 14.3
2020 12 23 12:00 264.2 0.0 0.00 59.9 15.5 57.59 14.5
2020 12 23 13:00 264.4 0.0 0.00 60.5 15.9 57.93 14.5
2020 12 23 14:00 Wet 305.3 0.1 2.29 58.5 14.7 68.6 12.8
2020 12 23 15:00 Wet 284.0 0.0 0.25 53.0 11.7 83.7 5.9
2020 12 23 16:00 265.5 0.0 0.00 53.6 12.0 56.03 11.3
2020 12 23 17:00 264.8 0.0 0.00 49.9 9.9 55.29 13.0
2020 12 23 18:00 264.8 0.0 0.00 43.8 6.6 56.15 13.8
2020 12 23 19:00 264.9 0.0 0.00 38.4 3.6 53.26 16.3
2020 12 23 20:00 264.9 0.0 0.00 33.3 0.7 53.06 15.9
2020 12 23 21:00 265.0 0.0 0.00 29.7 -1.3 51.55 17.3
2020 12 23 22:00 264.6 0.0 0.00 27.4 -2.6 47.44 17.4
2020 12 23 23:00 264.4 0.0 0.00 24.0 -4.4 50.66 19.3
2020 12 23 24:00 264.7 0.0 0.00 23.7 -4.6 56.38 13.6
2020 12 24 1:00 264.9 0.0 0.00 24.1 -4.4 59.55 15.6
2020 12 24 2:00 264.8 0.0 0.00 22.2 -5.4 57.28 15.2
2020 12 24 3:00 264.8 0.0 0.00 20.8 -6.2 56.26 13.2
2020 12 24 4:00 265.1 0.0 0.00 19.9 -6.7 61.22 9.6
2020 12 24 5:00 265.1 0.0 0.00 19.2 -7.1 59.52 8.6
2020 12 24 6:00 265.1 0.0 0.00 18.5 -7.5 61.96 9.8
2020 12 24 7:00 265.1 0.0 0.00 18.3 -7.6 65.56 10.8
2020 12 24 8:00 265.0 0.0 0.00 16.1 -8.9 59.12 13.9
2020 12 24 9:00 264.5 0.0 0.00 15.7 -9.1 59.33 12.7
2020 12 24 10:00 264.4 0.0 0.00 15.8 -9.0 58.03 13.9
2020 12 24 11:00 263.8 0.0 0.00 16.7 -8.5 53.68 13.9
2020 12 24 12:00 263.8 0.0 0.00 17.8 -7.9 52.52 13.2
2020 12 24 13:00 263.7 0.0 0.00 19.2 -7.1 49.86 13.4
2020 12 24 14:00 263.7 0.0 0.00 20.3 -6.5 46.14 13.8
2020 12 24 15:00 263.7 0.0 0.00 20.6 -6.3 42.98 15.5
2020 12 24 16:00 263.7 0.0 0.00 20.9 -6.2 39.52 13.7
2020 12 24 17:00 263.7 0.0 0.00 20.0 -6.7 36.24 11.7
2020 12 24 18:00 263.7 0.0 0.00 18.9 -7.3 35.98 9.1
2020 12 24 19:00 263.8 0.0 0.00 17.8 -7.9 36.99 7.0
2020 12 24 20:00 263.8 0.0 0.00 16.9 -8.4 38.36 7.2
2020 12 24 21:00 263.8 0.0 0.00 16.2 -8.8 38.74 8.2
2020 12 24 22:00 263.8 0.0 0.00 15.5 -9.2 38.58 9.5
2020 12 24 23:00 263.8 0.0 0.00 14.3 -9.8 42.83 11.8
2020 12 24 24:00 263.8 0.0 0.00 12.8 -10.7 48.01 11.5
2020 12 25 1:00 264.2 0.0 0.00 11.5 -11.4 54.58 9.3
2020 12 25 2:00 264.5 0.0 0.00 10.4 -12.0 58.36 8.1
2020 12 25 3:00 264.9 0.0 0.00 9.6 -12.4 63.45 8.8
2020 12 25 4:00 265.2 0.0 0.00 8.9 -12.8 64.01 10.3
2020 12 25 5:00 265.2 0.0 0.00 8.3 -13.2 64.42 10.8
2020 12 25 6:00 265.3 0.0 0.00 7.8 -13.5 63.85 11.2
2020 12 25 7:00 265.3 0.0 0.00 7.3 -13.7 64.7 9.6
2020 12 25 8:00 265.2 0.0 0.00 7.1 -13.9 66.02 7.9
2020 12 25 9:00 264.4 0.0 0.00 8.5 -13.0 62.62 9.0
2020 12 25 10:00 263.8 0.0 0.00 11.3 -11.5 56.28 10.2
2020 12 25 11:00 263.7 0.0 0.00 13.5 -10.3 52.04 8.4
2020 12 25 12:00 263.2 0.0 0.00 15.8 -9.0 48.15 7.8
2020 12 25 13:00 263.1 0.0 0.00 19.0 -7.2 42.72 8.5
2020 12 25 14:00 263.0 0.0 0.00 21.5 -5.8 38.01 8.4
2020 12 25 15:00 263.0 0.0 0.00 23.8 -4.6 33.96 8.2
2020 12 25 16:00 263.0 0.0 0.00 25.6 -3.5 30.94 5.8
2020 12 25 17:00 263.0 0.0 0.00 25.1 -3.8 30.91 4.2
2020 12 25 18:00 263.5 0.0 0.00 23.0 -5.0 33.78 3.2
2020 12 25 19:00 263.7 0.0 0.00 22.2 -5.5 35.41 1.6
2020 12 25 20:00 263.7 0.0 0.00 21.4 -5.9 37.87 1.5
2020 12 25 21:00 263.8 0.0 0.00 20.6 -6.3 38.77 1.0
2020 12 25 22:00 263.9 0.0 0.00 19.4 -7.0 45.28 0.0
2020 12 25 23:00 264.1 0.0 0.00 20.6 -6.3 43.89 0.3
2020 12 25 24:00 263.8 0.0 0.00 22.7 -5.2 38.81 0.0
2020 12 26 1:00 263.8 0.0 0.00 23.1 -5.0 40.82 0.0
2020 12 26 2:00 264.0 0.0 0.00 23.0 -5.0 44.63 0.0
2020 12 26 3:00 265.3 0.0 0.00 19.0 -7.2 61.98 0.0
2020 12 26 4:00 266.7 0.0 0.00 16.2 -8.8 75.34 0.0
2020 12 26 5:00 267.6 0.0 0.00 15.5 -9.2 79.53 0.0
2020 12 26 6:00 267.9 0.0 0.00 15.7 -9.0 75.67 0.0
2020 12 26 7:00 267.6 0.0 0.00 16.1 -8.8 74.82 0.4
2020 12 26 8:00 267.9 0.0 0.00 15.2 -9.3 81.5 0.8
2020 12 26 9:00 264.3 0.0 0.00 19.8 -6.8 76.8 0.2
2020 12 26 10:00 264.4 0.0 0.00 26.7 -2.9 65.84 1.6
2020 12 26 11:00 263.0 0.0 0.00 31.9 -0.0 57.7 1.2
2020 12 26 12:00 262.2 0.0 0.00 38.3 3.5 47.88 1.1
2020 12 26 13:00 262.2 0.0 0.00 41.8 5.4 43.02 2.3
2020 12 26 14:00 262.6 0.0 0.00 43.0 6.1 41.97 3.7
2020 12 26 15:00 262.9 0.0 0.00 43.5 6.4 42.44 5.4
2020 12 26 16:00 263.4 0.0 0.00 42.7 6.0 43.37 5.2
2020 12 26 17:00 263.7 0.0 0.00 40.4 4.6 47.17 4.5
2020 12 26 18:00 264.7 0.0 0.00 37.5 3.1 53.06 2.9
2020 12 26 19:00 264.9 0.0 0.00 35.4 1.9 57.75 3.1
2020 12 26 20:00 265.2 0.0 0.00 33.7 0.9 61.76 2.8
2020 12 26 21:00 265.7 0.0 0.00 33.4 0.8 63.27 2.1
2020 12 26 22:00 265.9 0.0 0.00 32.6 0.3 65.52 1.9
2020 12 26 23:00 268.1 0.0 0.00 29.6 -1.4 73.75 0.0
2020 12 26 24:00 268.4 0.0 0.00 28.9 -1.7 76.28 0.1
2020 12 27 1:00 268.2 0.0 0.00 27.6 -2.4 79.04 0.8
2020 12 27 2:00 269.0 0.0 0.00 26.6 -3.0 82.2 1.3
2020 12 27 3:00 269.6 0.0 0.00 26.6 -3.0 83.1 0.9
2020 12 27 4:00 269.3 0.0 0.00 26.5 -3.1 83.7 2.2
2020 12 27 5:00 268.5 0.0 0.00 28.5 -2.0 80.3 2.3
2020 12 27 6:00 266.3 0.0 0.00 36.1 2.3 63.3 3.6
2020 12 27 7:00 265.7 0.0 0.00 40.0 4.5 58.13 4.5
2020 12 27 8:00 265.6 0.0 0.00 40.0 4.5 59.51 3.2
2020 12 27 9:00 265.1 0.0 0.00 43.4 6.4 57.97 3.7
2020 12 27 10:00 264.9 0.0 0.00 47.6 8.7 52.94 6.7
2020 12 27 11:00 264.5 0.0 0.00 49.9 9.9 51.41 7.2
2020 12 27 12:00 264.1 0.0 0.00 52.1 11.2 50.72 7.4
2020 12 27 13:00 263.8 0.0 0.00 54.8 12.7 50.12 11.5
2020 12 27 14:00 263.7 0.0 0.00 56.2 13.4 49.62 11.4
2020 12 27 15:00 263.6 0.0 0.00 57.2 14.0 47.19 10.7
2020 12 27 16:00 264.0 0.0 0.00 57.0 13.9 48.32 10.8
2020 12 27 17:00 264.0 0.0 0.00 55.7 13.2 48.16 7.1
2020 12 27 18:00 263.4 0.0 0.00 54.9 12.7 41.22 12.0
2020 12 27 19:00 263.4 0.0 0.00 49.5 9.7 41.79 11.0
2020 12 27 20:00 263.8 0.0 0.00 43.4 6.3 49.24 12.8
2020 12 27 21:00 264.4 0.0 0.00 39.7 4.3 55.52 11.2
2020 12 27 22:00 264.9 0.0 0.00 37.4 3.0 61.59 9.2
2020 12 27 23:00 264.9 0.0 0.00 35.6 2.0 66.78 9.3
2020 12 27 24:00 265.7 0.0 0.00 33.4 0.8 71.55 4.5
2020 12 28 1:00 266.7 0.0 0.00 31.7 -0.2 76.36 3.4
2020 12 28 2:00 266.2 0.0 0.00 32.8 0.4 75.97 3.7
2020 12 28 3:00 265.7 0.0 0.00 33.5 0.8 74.4 5.5
2020 12 28 4:00 265.8 0.0 0.00 33.4 0.8 74.82 4.6
2020 12 28 5:00 265.7 0.0 0.00 33.6 0.9 71.5 8.9
2020 12 28 6:00 265.6 0.0 0.00 33.2 0.7 69.02 9.5
2020 12 28 7:00 265.7 0.0 0.00 32.9 0.5 69.69 6.6
2020 12 28 8:00 265.7 0.0 0.00 32.2 0.1 69.86 6.7
2020 12 28 9:00 265.7 0.0 0.00 31.4 -0.3 69.15 7.4
2020 12 28 10:00 265.7 0.0 0.00 31.3 -0.4 68.16 7.5
2020 12 28 11:00 265.1 0.0 0.00 32.2 0.1 65.41 7.2
2020 12 28 12:00 264.9 0.0 0.00 33.3 0.7 60.2 7.5
2020 12 28 13:00 264.6 0.0 0.00 34.7 1.5 56.38 7.3
2020 12 28 14:00 264.2 0.0 0.00 36.4 2.5 51.77 7.0
2020 12 28 15:00 264.5 0.0 0.00 36.4 2.5 51.29 7.0
2020 12 28 16:00 264.8 0.0 0.00 36.8 2.7 50.66 5.9
2020 12 28 17:00 264.9 0.0 0.00 34.8 1.6 54.28 4.0
2020 12 28 18:00 265.0 0.0 0.00 31.6 -0.2 61.17 2.3
2020 12 28 19:00 265.8 0.0 0.00 29.5 -1.4 65.88 0.5
2020 12 28 20:00 266.2 0.0 0.00 27.0 -2.8 72.46 0.0
2020 12 28 21:00 268.0 0.0 0.00 25.5 -3.6 77.4 0.1
2020 12 28 22:00 267.1 0.0 0.00 25.5 -3.6 77.04 2.0
2020 12 28 23:00 267.8 0.0 0.00 23.9 -4.5 79.69 0.7
2020 12 28 24:00 268.5 0.0 0.00 23.8 -4.6 80 0.5
2020 12 29 1:00 266.4 0.0 0.00 25.1 -3.9 77.14 2.4
2020 12 29 2:00 266.4 0.0 0.00 25.0 -3.9 76.6 2.5
2020 12 29 3:00 266.4 0.0 0.00 24.7 -4.1 76.92 2.9
2020 12 29 4:00 266.4 0.0 0.00 24.5 -4.2 77.65 3.4
2020 12 29 5:00 266.4 0.0 0.00 23.8 -4.5 78.02 3.6
2020 12 29 6:00 266.4 0.0 0.00 23.5 -4.7 80.2 4.7
2020 12 29 7:00 266.8 0.0 0.00 23.7 -4.6 81.9 5.4
2020 12 29 8:00 266.6 0.0 0.00 24.3 -4.3 82.4 5.2
2020 12 29 9:00 266.4 0.0 0.00 25.7 -3.5 80.5 6.9
2020 12 29 10:00 265.9 0.0 0.00 27.0 -2.8 76.84 6.5
2020 12 29 11:00 265.7 0.0 0.00 28.0 -2.2 73.43 6.4
2020 12 29 12:00 265.6 0.0 0.00 28.4 -2.0 71.59 8.3
2020 12 29 13:00 265.4 0.0 0.00 28.6 -1.9 70 10.8
2020 12 29 14:00 265.5 0.0 0.00 28.9 -1.7 71.02 10.1
2020 12 29 15:00 265.5 0.0 0.00 29.8 -1.2 70.29 8.8
2020 12 29 16:00 265.1 0.0 0.00 31.0 -0.6 67.02 9.1
2020 12 29 17:00 265.3 0.0 0.00 31.3 -0.4 68.48 8.9
2020 12 29 18:00 265.5 0.0 0.00 31.8 -0.1 68.88 9.4
2020 12 29 19:00 265.6 0.0 0.00 32.9 0.5 68.9 8.8
2020 12 29 20:00 265.6 0.0 0.00 33.9 1.1 70.49 7.4
2020 12 29 21:00 265.7 0.0 0.00 35.0 1.6 70.59 7.0
2020 12 29 22:00 265.6 0.0 0.00 37.2 2.9 68.6 8.9
2020 12 29 23:00 265.6 0.0 0.00 38.3 3.5 69.69 5.9
2020 12 29 24:00 265.6 0.0 0.00 39.1 3.9 72.69 3.2
2020 12 30 1:00 Wet 285.9 0.0 0.00 39.3 4.0 78.67 5.6
2020 12 30 2:00 Wet 496.2 0.1 1.27 39.3 4.1 91.5 4.1
2020 12 30 3:00 Wet 447.3 0.0 0.25 39.0 3.9 95.7 2.9
2020 12 30 4:00 Wet 414.0 0.0 0.25 39.2 4.0 97.7 3.1
2020 12 30 5:00 Wet 419.0 0.0 1.02 43.5 6.4 97.7 5.2
2020 12 30 6:00 Wet 364.4 0.0 0.25 45.1 7.3 94.9 4.0
2020 12 30 7:00 Wet 463.4 0.0 0.51 41.7 5.4 94.5 9.3
2020 12 30 8:00 Wet 499.9 0.1 1.52 36.5 2.5 93.4 10.8
2020 12 30 9:00 Wet 470.0 0.0 0.51 35.3 1.8 92.6 6.4
2020 12 30 10:00 Wet 478.6 0.1 1.27 34.8 1.5 92.3 8.7
2020 12 30 11:00 Wet 343.1 0.0 0.00 33.9 1.0 91.4 7.3
2020 12 30 12:00 Wet 287.2 0.0 0.00 33.7 0.9 88.7 9.0
2020 12 30 13:00 269.2 0.0 0.00 33.8 1.0 82.8 8.1
2020 12 30 14:00 267.7 0.0 0.00 33.5 0.8 80.4 6.5
2020 12 30 15:00 267.6 0.0 0.00 33.3 0.7 79.22 5.9
2020 12 30 16:00 267.3 0.0 0.00 33.6 0.9 78.45 6.1
2020 12 30 17:00 267.1 0.0 0.00 33.6 0.9 76.99 6.2
2020 12 30 18:00 267.1 0.0 0.00 32.9 0.5 75.12 7.3
2020 12 30 19:00 267.1 0.0 0.00 31.6 -0.2 75.08 6.9
2020 12 30 20:00 267.3 0.0 0.00 30.4 -0.9 76.59 6.6
2020 12 30 21:00 267.3 0.0 0.00 29.4 -1.4 77.25 6.3
2020 12 30 22:00 267.1 0.0 0.00 28.5 -1.9 75.01 6.0
2020 12 30 23:00 267.5 0.0 0.00 27.0 -2.8 76.85 3.7
2020 12 30 24:00 267.8 0.0 0.00 25.5 -3.6 78.47 3.1
2020 12 31 1:00 267.5 0.0 0.00 24.9 -4.0 76.67 4.7
2020 12 31 2:00 267.3 0.0 0.00 24.5 -4.2 76.34 4.3
2020 12 31 3:00 267.8 0.0 0.00 23.2 -4.9 78.83 3.5
2020 12 31 4:00 268.6 0.0 0.00 21.5 -5.8 81.7 2.5
2020 12 31 5:00 269.5 0.0 0.00 20.7 -6.3 82.5 1.1
2020 12 31 6:00 271.1 0.0 0.00 20.2 -6.5 84.5 0.9
2020 12 31 7:00 272.5 0.0 0.00 19.6 -6.9 87.3 0.5
2020 12 31 8:00 274.0 0.0 0.00 19.1 -7.2 88.4 0.7
2020 12 31 9:00 274.8 0.0 0.00 20.2 -6.6 91 0.8
2020 12 31 10:00 271.0 0.0 0.00 23.6 -4.7 84 2.8
2020 12 31 11:00 266.2 0.0 0.00 26.2 -3.2 77.18 6.3
2020 12 31 12:00 265.9 0.0 0.00 27.6 -2.4 75.12 5.7
2020 12 31 13:00 265.7 0.0 0.00 29.0 -1.7 72.64 5.2
2020 12 31 14:00 265.6 0.0 0.00 31.0 -0.6 69.69 5.4
2020 12 31 15:00 265.6 0.0 0.00 30.9 -0.6 69.23 5.6
2020 12 31 16:00 266.3 0.0 0.00 30.1 -1.0 72.03 5.6
2020 12 31 17:00 266.8 0.0 0.00 29.3 -1.5 75.07 5.3
2020 12 31 18:00 267.0 0.0 0.00 28.1 -2.2 78.05 5.6
2020 12 31 19:00 267.1 0.0 0.00 27.6 -2.5 80.5 6.1
2020 12 31 20:00 267.1 0.0 0.00 27.0 -2.8 82.1 6.6
2020 12 31 21:00 267.3 0.0 0.00 26.8 -2.9 83.8 6.5
2020 12 31 22:00 267.1 0.0 0.00 26.8 -2.9 83.8 6.2
2020 12 31 23:00 267.1 0.0 0.00 26.8 -2.9 84 6.3
2020 12 31 24:00 Wet 284.6 0.0 0.00 27.3 -2.6 86 6.5
2021 01 01 1:00 Wet 319.6 0.0 0.00 27.5 -2.5 87.7 6.8
2021 01 01 2:00 Wet 337.4 0.0 0.00 27.8 -2.3 88.8 7.4
2021 01 01 3:00 Wet 338.8 0.0 0.00 28.2 -2.1 88.9 9.0
2021 01 01 4:00 Wet 342.6 0.0 0.00 29.0 -1.6 88.4 7.6
2021 01 01 5:00 Wet 345.7 0.0 0.00 30.1 -1.1 88.8 6.6
2021 01 01 6:00 Wet 365.9 0.0 0.00 30.4 -0.9 90.9 4.2
2021 01 01 7:00 Wet 418.5 0.0 0.00 30.9 -0.6 93.3 3.7
2021 01 01 8:00 Wet 375.8 0.0 0.00 31.3 -0.4 92.3 0.6
2021 01 01 9:00 Wet 480.7 0.0 0.25 31.3 -0.4 94.1 0.0
2021 01 01 10:00 Wet 549.3 0.0 1.02 31.2 -0.4 95.5 0.0
2021 01 01 11:00 Wet 646.9 0.3 7.62 31.3 -0.4 95.9 0.0
2021 01 01 12:00 Wet 793.0 0.0 1.02 31.6 -0.2 95.6 0.0
2021 01 01 13:00 Wet 880.0 0.0 0.51 31.9 -0.1 95 0.5
2021 01 01 14:00 Wet 833.0 0.0 1.02 31.9 -0.1 95.2 0.6
2021 01 01 15:00 Wet 857.0 0.0 0.00 31.3 -0.4 96.3 2.8
2021 01 01 16:00 Wet 916.0 0.0 0.00 31.2 -0.4 97.2 4.9
2021 01 01 17:00 Wet 862.0 0.0 0.51 31.4 -0.3 97.3 5.8
2021 01 01 18:00 Wet 861.0 0.0 0.00 31.6 -0.2 95.7 5.5
2021 01 01 19:00 Wet 731.3 0.0 0.51 31.6 -0.2 94.1 6.2
2021 01 01 20:00 Wet 417.9 0.0 0.00 30.7 -0.7 90.9 8.7
2021 01 01 21:00 Wet 320.7 0.0 0.00 29.7 -1.3 89.5 0.1
2021 01 01 22:00 Wet 318.8 0.0 0.00 29.1 -1.6 89.6 0.0
2021 01 01 23:00 Wet 318.7 0.0 0.00 29.0 -1.7 91.3 0.0
2021 01 01 24:00 Wet 318.7 0.0 0.00 29.0 -1.6 91.4 0.0
2021 01 02 1:00 Wet 318.7 0.0 0.00 29.1 -1.6 92 0.0
2021 01 02 2:00 Wet 318.7 0.0 0.00 29.1 -1.6 92.8 0.0
2021 01 02 3:00 Wet 319.1 0.0 0.00 29.2 -1.6 93.3 0.0
2021 01 02 4:00 Wet 318.8 0.0 0.00 29.1 -1.6 93.1 0.0
2021 01 02 5:00 Wet 319.1 0.0 0.00 29.2 -1.6 93 0.0
2021 01 02 6:00 Wet 319.3 0.0 0.00 29.2 -1.6 93.5 0.0
2021 01 02 7:00 Wet 319.3 0.0 0.00 29.0 -1.6 94.9 0.0
2021 01 02 8:00 Wet 319.8 0.0 0.00 29.0 -1.7 96.3 0.0
2021 01 02 9:00 Wet 320.5 0.0 0.00 29.1 -1.6 96.9 0.0
2021 01 02 10:00 Wet 325.1 0.0 0.00 29.5 -1.4 96.7 0.0
2021 01 02 11:00 Wet 378.0 0.0 0.25 30.0 -1.1 95.9 0.0
2021 01 02 12:00 Wet 631.4 0.0 0.25 30.5 -0.8 94.6 0.0
2021 01 02 13:00 Wet 345.5 0.0 0.25 31.0 -0.6 94.5 0.0
2021 01 02 14:00 Wet 450.2 0.0 0.25 30.8 -0.7 94.3 0.0
2021 01 02 15:00 Wet 504.9 0.0 0.00 30.9 -0.6 94.6 0.0
2021 01 02 16:00 Wet 325.1 0.0 0.51 30.8 -0.6 94.5 0.0
2021 01 02 17:00 Wet 324.4 0.0 0.00 30.6 -0.8 94.7 0.0
2021 01 02 18:00 Wet 308.5 0.0 0.00 30.5 -0.9 95.5 0.0
2021 01 02 19:00 Wet 464.0 0.0 0.00 30.5 -0.9 95.8 0.0
2021 01 02 20:00 Wet 343.7 0.0 0.00 30.5 -0.9 96.2 0.0
2021 01 02 21:00 Wet 339.4 0.0 0.00 30.5 -0.9 96.4 0.0
2021 01 02 22:00 Wet 338.4 0.0 0.00 30.3 -1.0 96.5 0.0
2021 01 02 23:00 Wet 336.6 0.0 0.00 30.0 -1.1 96.7 0.0
2021 01 02 24:00 Wet 336.4 0.0 0.00 29.9 -1.2 97 0.0
2021 01 03 1:00 Wet 336.1 0.0 0.00 29.7 -1.3 97 0.0
2021 01 03 2:00 Wet 335.6 0.0 0.00 29.5 -1.4 96.6 0.0
2021 01 03 3:00 Wet 335.7 0.0 0.00 29.7 -1.3 95.6 0.0
2021 01 03 4:00 Wet 335.4 0.0 0.00 29.7 -1.3 91.8 0.0
2021 01 03 5:00 Wet 333.0 0.0 0.00 28.1 -2.2 88.5 0.0
2021 01 03 6:00 Wet 332.1 0.0 0.00 26.2 -3.2 89.7 0.0
2021 01 03 7:00 Wet 331.6 0.0 0.00 25.1 -3.8 90.9 0.0
2021 01 03 8:00 Wet 331.6 0.0 0.00 24.7 -4.0 91.4 0.0
2021 01 03 9:00 Wet 331.9 0.0 0.00 25.6 -3.6 90.8 0.0
2021 01 03 10:00 Wet 333.1 0.0 0.00 26.6 -3.0 90.6 0.0
2021 01 03 11:00 Wet 341.3 0.0 0.00 27.4 -2.5 89.8 0.0
2021 01 03 12:00 Wet 582.4 0.0 0.00 28.7 -1.9 90.2 0.0
2021 01 03 13:00 Wet 554.0 0.0 0.00 29.3 -1.5 90.8 0.0
2021 01 03 14:00 Wet 691.6 0.0 0.25 30.2 -1.0 90.5 2.8
2021 01 03 15:00 Wet 735.6 0.0 0.00 30.4 -0.9 91.6 3.3
2021 01 03 16:00 Wet 759.0 0.0 0.51 30.4 -0.9 92.1 1.5
2021 01 03 17:00 Wet 566.7 0.0 0.00 30.5 -0.9 93 2.7
2021 01 03 18:00 Wet 346.9 0.0 0.00 30.3 -0.9 94.3 2.7
2021 01 03 19:00 Wet 323.9 0.0 0.00 30.3 -0.9 95 2.8
2021 01 03 20:00 Wet 321.5 0.0 0.00 29.9 -1.2 94.9 2.9
2021 01 03 21:00 Wet 320.1 0.0 0.00 29.6 -1.3 95.1 2.8
2021 01 03 22:00 Wet 319.5 0.0 0.00 29.5 -1.4 96.1 3.6
2021 01 03 23:00 Wet 319.3 0.0 0.00 29.4 -1.5 97 3.3
2021 01 03 24:00 Wet 319.8 0.0 0.00 29.7 -1.3 97.3 1.1
2021 01 04 1:00 Wet 321.3 0.0 0.00 29.9 -1.2 97.7 1.6
2021 01 04 2:00 Wet 322.7 0.0 0.00 30.1 -1.1 98.1 1.8
2021 01 04 3:00 Wet 323.5 0.0 0.00 30.2 -1.0 98.4 2.2
2021 01 04 4:00 Wet 322.8 0.0 0.00 30.1 -1.1 98.6 2.4
2021 01 04 5:00 Wet 321.8 0.0 0.00 30.0 -1.1 98.8 2.3
2021 01 04 6:00 Wet 321.7 0.0 0.00 30.0 -1.1 98.9 2.7
2021 01 04 7:00 Wet 321.6 0.0 0.00 29.9 -1.2 99 2.7
2021 01 04 8:00 Wet 321.4 0.0 0.00 29.9 -1.2 99.1 2.9
2021 01 04 9:00 Wet 358.2 0.0 0.00 30.2 -1.0 99.2 2.4
2021 01 04 10:00 Wet 651.1 0.0 0.00 30.8 -0.6 99.2 1.1
2021 01 04 11:00 Wet 446.8 0.0 0.00 31.5 -0.3 99.3 3.1
2021 01 04 12:00 279.6 0.0 0.00 32.0 -0.0 99.3 2.7
2021 01 04 13:00 275.5 0.0 0.00 32.5 0.3 99.3 3.1
2021 01 04 14:00 271.7 0.0 0.00 33.3 0.7 99.3 3.9
2021 01 04 15:00 269.4 0.0 0.00 34.3 1.3 99.2 3.0
2021 01 04 16:00 269.4 0.0 0.00 35.0 1.6 98.7 2.4
2021 01 04 17:00 269.7 0.0 0.00 34.8 1.6 97.1 4.8
2021 01 04 18:00 270.1 0.0 0.00 34.3 1.3 94.7 6.7
2021 01 04 19:00 269.9 0.0 0.00 33.6 0.9 93.2 10.6
2021 01 04 20:00 269.7 0.0 0.00 32.8 0.4 91.7 11.6
2021 01 04 21:00 269.7 0.0 0.00 32.8 0.5 91.6 8.9
2021 01 04 22:00 269.7 0.0 0.00 33.3 0.7 91.1 7.5
2021 01 04 23:00 269.7 0.0 0.00 33.7 1.0 90.3 6.9
2021 01 04 24:00 269.7 0.0 0.00 33.8 1.0 89.9 7.1
2021 01 05 1:00 276.4 0.0 0.00 33.0 0.6 91 5.2
2021 01 05 2:00 Wet 313.1 0.0 0.00 31.4 -0.3 93.3 2.6
2021 01 05 3:00 278.1 0.0 0.00 30.5 -0.8 94.1 2.4
2021 01 05 4:00 280.8 0.0 0.00 30.1 -1.0 93.8 4.0
2021 01 05 5:00 282.2 0.0 0.00 29.3 -1.5 93.3 1.7
2021 01 05 6:00 Wet 284.2 0.0 0.00 28.6 -1.9 94.4 2.1
2021 01 05 7:00 Wet 285.6 0.0 0.00 27.4 -2.5 94.7 0.5
2021 01 05 8:00 Wet 287.0 0.0 0.00 26.3 -3.2 95.5 0.2
2021 01 05 9:00 Wet 373.6 0.0 0.00 28.9 -1.7 95.8 0.4
2021 01 05 10:00 274.5 0.0 0.00 31.7 -0.2 91.9 3.9
2021 01 05 11:00 267.0 0.0 0.00 35.8 2.1 80.6 4.0
2021 01 05 12:00 265.9 0.0 0.00 39.6 4.2 73.78 3.3
2021 01 05 13:00 265.5 0.0 0.00 43.3 6.3 65.97 2.6
2021 01 05 14:00 264.9 0.0 0.00 46.6 8.1 55.72 2.5
2021 01 05 15:00 265.1 0.0 0.00 47.6 8.6 51.67 2.9
2021 01 05 16:00 265.4 0.0 0.00 47.0 8.3 53.98 3.2
2021 01 05 17:00 266.0 0.0 0.00 46.0 7.8 54.84 1.0
2021 01 05 18:00 267.2 0.0 0.00 41.8 5.5 63.18 0.0
2021 01 05 19:00 268.5 0.0 0.00 37.9 3.3 72.93 0.1
2021 01 05 20:00 Wet 288.2 0.0 0.00 33.6 0.9 85.4 0.0
2021 01 05 21:00 Wet 299.0 0.0 0.00 32.8 0.4 87.3 0.0
2021 01 05 22:00 Wet 306.5 0.0 0.00 31.1 -0.5 89.8 0.0
2021 01 05 23:00 Wet 327.0 0.0 0.00 30.1 -1.1 91.6 0.1
2021 01 05 24:00 Wet 341.5 0.0 0.00 29.4 -1.4 92.4 0.2
2021 01 06 1:00 Wet 343.9 0.0 0.00 31.9 -0.1 91.2 0.7
2021 01 06 2:00 Wet 357.9 0.0 0.00 30.8 -0.7 91.2 1.0
2021 01 06 3:00 Wet 352.2 0.0 0.00 30.5 -0.8 91.2 2.4
2021 01 06 4:00 Wet 309.6 0.0 0.00 31.9 -0.1 89.8 1.2
2021 01 06 5:00 Wet 288.0 0.0 0.00 31.8 -0.1 90.9 0.4
2021 01 06 6:00 276.2 0.0 0.00 32.3 0.2 90.3 3.4
2021 01 06 7:00 272.5 0.0 0.00 32.1 0.1 91 5.1
2021 01 06 8:00 272.5 0.0 0.00 31.6 -0.2 92.5 4.5
2021 01 06 9:00 270.0 0.0 0.00 32.2 0.1 91.8 6.6
2021 01 06 10:00 269.1 0.0 0.00 33.4 0.8 89.9 5.8
2021 01 06 11:00 267.9 0.0 0.00 35.8 2.1 85.4 6.5
2021 01 06 12:00 266.6 0.0 0.00 40.2 4.5 73.32 8.1
2021 01 06 13:00 266.2 0.0 0.00 42.1 5.6 66.24 8.9
2021 01 06 14:00 266.2 0.0 0.00 42.0 5.6 65.7 8.3
2021 01 06 15:00 266.2 0.0 0.00 41.8 5.4 63.64 8.3
2021 01 06 16:00 266.2 0.0 0.00 41.5 5.3 63 6.8
2021 01 06 17:00 266.8 0.0 0.00 39.1 4.0 70.36 6.1
2021 01 06 18:00 267.1 0.0 0.00 37.4 3.0 74.92 7.0
2021 01 06 19:00 267.4 0.0 0.00 36.9 2.7 76.96 6.5
2021 01 06 20:00 267.6 0.0 0.00 36.3 2.4 78.73 6.9
2021 01 06 21:00 267.7 0.0 0.00 35.5 2.0 80.1 5.2
2021 01 06 22:00 267.7 0.0 0.00 34.7 1.5 81.1 6.6
2021 01 06 23:00 267.7 0.0 0.00 33.7 0.9 82.3 5.8
2021 01 06 24:00 267.8 0.0 0.00 33.2 0.6 82.7 5.4
2021 01 07 1:00 268.3 0.0 0.00 32.8 0.5 83 4.6
2021 01 07 2:00 268.6 0.0 0.00 32.1 0.0 84.3 3.3
2021 01 07 3:00 268.7 0.0 0.00 31.4 -0.3 86.4 5.0
2021 01 07 4:00 268.4 0.0 0.00 31.2 -0.4 86 5.2
2021 01 07 5:00 268.4 0.0 0.00 31.1 -0.5 84.9 5.7
2021 01 07 6:00 268.4 0.0 0.00 31.0 -0.6 83.7 5.4
2021 01 07 7:00 267.9 0.0 0.00 31.0 -0.6 81.5 6.6
2021 01 07 8:00 267.7 0.0 0.00 31.0 -0.6 80.2 6.5
2021 01 07 9:00 267.7 0.0 0.00 31.0 -0.5 79.66 6.4
2021 01 07 10:00 267.7 0.0 0.00 31.5 -0.3 78.5 4.9
2021 01 07 11:00 267.2 0.0 0.00 32.4 0.2 75.62 5.6
2021 01 07 12:00 266.8 0.0 0.00 33.9 1.1 71.29 7.1
2021 01 07 13:00 266.3 0.0 0.00 34.9 1.6 68.77 7.4
2021 01 07 14:00 266.4 0.0 0.00 34.9 1.6 68.98 7.3
2021 01 07 15:00 266.3 0.0 0.00 35.2 1.8 67.26 8.1
2021 01 07 16:00 266.7 0.0 0.00 34.9 1.6 68.95 9.5
2021 01 07 17:00 267.0 0.0 0.00 34.4 1.3 68.51 8.4
2021 01 07 18:00 267.0 0.0 0.00 33.9 1.1 68.28 5.8
2021 01 07 19:00 267.0 0.0 0.00 33.4 0.8 70.03 5.9
2021 01 07 20:00 267.0 0.0 0.00 32.5 0.3 70.75 5.6
2021 01 07 21:00 267.0 0.0 0.00 32.1 0.0 71.95 4.2
2021 01 07 22:00 267.0 0.0 0.00 32.1 0.1 73.71 4.7
2021 01 07 23:00 267.0 0.0 0.00 32.2 0.1 75.92 4.8
2021 01 07 24:00 267.3 0.0 0.00 32.0 -0.0 78.31 5.3
2021 01 08 1:00 267.7 0.0 0.00 31.7 -0.2 80.2 5.1
2021 01 08 2:00 267.7 0.0 0.00 31.4 -0.4 81.3 5.2
2021 01 08 3:00 267.7 0.0 0.00 31.1 -0.5 82.5 6.0
2021 01 08 4:00 267.7 0.0 0.00 31.0 -0.6 82.9 5.6
2021 01 08 5:00 267.7 0.0 0.00 30.8 -0.6 82.7 5.1
2021 01 08 6:00 267.7 0.0 0.00 30.6 -0.8 82.4 4.9
2021 01 08 7:00 267.7 0.0 0.00 30.4 -0.9 82.7 5.2
2021 01 08 8:00 267.7 0.0 0.00 30.4 -0.9 82.5 5.0
2021 01 08 9:00 267.7 0.0 0.00 30.5 -0.8 82.4 5.7
2021 01 08 10:00 267.7 0.0 0.00 31.1 -0.5 80.6 5.7
2021 01 08 11:00 267.5 0.0 0.00 31.7 -0.1 79.42 6.9
2021 01 08 12:00 267.0 0.0 0.00 32.4 0.2 77.26 7.8
2021 01 08 13:00 267.2 0.0 0.00 32.4 0.2 77.29 7.5
2021 01 08 14:00 267.3 0.0 0.00 32.5 0.3 77.48 7.0
2021 01 08 15:00 267.0 0.0 0.00 32.8 0.5 75.01 7.0
2021 01 08 16:00 267.0 0.0 0.00 32.7 0.4 74.71 6.6
2021 01 08 17:00 267.5 0.0 0.00 32.1 0.1 75.95 5.4
2021 01 08 18:00 267.7 0.0 0.00 31.6 -0.2 78.43 5.3
2021 01 08 19:00 267.7 0.0 0.00 31.2 -0.4 79.97 4.5
2021 01 08 20:00 267.7 0.0 0.00 30.9 -0.6 80.3 5.0
2021 01 08 21:00 267.7 0.0 0.00 30.7 -0.7 78.87 5.1
2021 01 08 22:00 267.7 0.0 0.00 30.5 -0.8 78.17 6.3
2021 01 08 23:00 267.7 0.0 0.00 30.4 -0.9 78.14 4.6
2021 01 08 24:00 267.7 0.0 0.00 30.2 -1.0 77.19 4.7
2021 01 09 1:00 267.7 0.0 0.00 30.0 -1.1 75.95 5.0
2021 01 09 2:00 267.7 0.0 0.00 29.8 -1.2 76.62 4.2
2021 01 09 3:00 267.7 0.0 0.00 29.5 -1.4 77.35 3.3
2021 01 09 4:00 267.7 0.0 0.00 29.2 -1.6 79.01 3.7
2021 01 09 5:00 267.7 0.0 0.00 29.0 -1.7 80.4 3.8
2021 01 09 6:00 267.7 0.0 0.00 28.8 -1.8 80.1 3.7
2021 01 09 7:00 267.6 0.0 0.00 28.6 -1.9 78.28 3.6
2021 01 09 8:00 267.0 0.0 0.00 28.5 -1.9 70.18 4.5
2021 01 09 9:00 267.0 0.0 0.00 28.5 -2.0 69.3 4.6
2021 01 09 10:00 266.8 0.0 0.00 28.5 -1.9 68.44 4.8
2021 01 09 11:00 266.3 0.0 0.00 28.7 -1.8 65.54 4.7
2021 01 09 12:00 266.3 0.0 0.00 28.8 -1.8 67.43 4.5
2021 01 09 13:00 266.3 0.0 0.00 28.9 -1.7 68.05 4.9
2021 01 09 14:00 266.3 0.0 0.00 28.7 -1.8 69.62 6.2
2021 01 09 15:00 266.4 0.0 0.00 28.6 -1.9 70.1 5.1
2021 01 09 16:00 266.7 0.0 0.00 28.2 -2.1 71.76 4.7
2021 01 09 17:00 267.0 0.0 0.00 28.1 -2.2 72.19 4.1
2021 01 09 18:00 267.0 0.0 0.00 27.7 -2.4 72.69 3.2
2021 01 09 19:00 267.0 0.0 0.00 27.4 -2.5 74 3.6
2021 01 09 20:00 267.1 0.0 0.00 27.2 -2.7 74.54 4.1
2021 01 09 21:00 267.1 0.0 0.00 27.0 -2.8 73.77 3.5
2021 01 09 22:00 267.1 0.0 0.00 26.9 -2.8 74.31 2.4
2021 01 09 23:00 267.1 0.0 0.00 26.7 -3.0 74.28 3.8
2021 01 09 24:00 267.1 0.0 0.00 26.5 -3.1 74.53 3.1
2021 01 10 1:00 267.1 0.0 0.00 26.4 -3.1 74.95 2.6
2021 01 10 2:00 267.1 0.0 0.00 26.3 -3.2 75.84 2.9
2021 01 10 3:00 267.1 0.0 0.00 26.0 -3.3 75.62 3.8
2021 01 10 4:00 267.1 0.0 0.00 26.0 -3.4 75.38 3.5
2021 01 10 5:00 267.1 0.0 0.00 25.8 -3.4 74.07 3.9
2021 01 10 6:00 267.1 0.0 0.00 25.6 -3.5 73.44 4.1
2021 01 10 7:00 267.1 0.0 0.00 25.4 -3.6 73.44 4.1
2021 01 10 8:00 267.1 0.0 0.00 25.3 -3.7 73.81 5.0
2021 01 10 9:00 267.1 0.0 0.00 25.3 -3.7 73.19 4.5
2021 01 10 10:00 266.8 0.0 0.00 25.6 -3.5 71.65 5.1
2021 01 10 11:00 266.4 0.0 0.00 25.9 -3.4 70.36 5.4
2021 01 10 12:00 266.4 0.0 0.00 26.3 -3.2 68.88 5.1
2021 01 10 13:00 266.4 0.0 0.00 26.7 -3.0 68.19 5.2
2021 01 10 14:00 266.3 0.0 0.00 27.3 -2.6 66.49 5.7
2021 01 10 15:00 266.3 0.0 0.00 27.7 -2.4 66.76 6.9
2021 01 10 16:00 266.3 0.0 0.00 27.6 -2.5 69.03 7.5
2021 01 10 17:00 266.3 0.0 0.00 27.2 -2.7 68.74 5.4
2021 01 10 18:00 266.4 0.0 0.00 26.8 -2.9 69.99 5.7
2021 01 10 19:00 266.5 0.0 0.00 26.8 -2.9 71.22 5.2
2021 01 10 20:00 267.1 0.0 0.00 26.3 -3.2 75.29 6.3
2021 01 10 21:00 267.1 0.0 0.00 26.0 -3.3 77.27 6.6
2021 01 10 22:00 267.1 0.0 0.00 25.6 -3.5 78.03 5.5
2021 01 10 23:00 267.1 0.0 0.00 25.1 -3.9 80.5 5.7
2021 01 10 24:00 267.1 0.0 0.00 24.8 -4.0 81.8 4.8
2021 01 11 1:00 267.1 0.0 0.00 24.9 -3.9 80.9 4.0
2021 01 11 2:00 267.1 0.0 0.00 25.2 -3.8 79.82 2.8
2021 01 11 3:00 267.1 0.0 0.00 25.5 -3.6 79.04 2.3
2021 01 11 4:00 267.1 0.0 0.00 26.0 -3.3 78.63 3.1
2021 01 11 5:00 267.1 0.0 0.00 26.4 -3.1 77.9 2.8
2021 01 11 6:00 267.1 0.0 0.00 26.8 -2.9 76.92 1.7
2021 01 11 7:00 267.1 0.0 0.00 27.1 -2.7 76.76 1.5
2021 01 11 8:00 267.1 0.0 0.00 27.5 -2.5 74.8 2.7
2021 01 11 9:00 266.9 0.0 0.00 28.4 -2.0 72.84 3.2
2021 01 11 10:00 266.4 0.0 0.00 29.5 -1.4 71.41 5.0
2021 01 11 11:00 266.3 0.0 0.00 30.3 -1.0 71.14 5.8
2021 01 11 12:00 266.3 0.0 0.00 30.9 -0.6 70.79 6.3
2021 01 11 13:00 266.1 0.0 0.00 32.0 -0.0 69.3 6.5
2021 01 11 14:00 265.8 0.0 0.00 33.1 0.6 67.14 5.6
2021 01 11 15:00 265.8 0.0 0.00 34.1 1.1 64.08 4.7
2021 01 11 16:00 266.2 0.0 0.00 34.8 1.6 62.39 6.1
2021 01 11 17:00 266.4 0.0 0.00 33.5 0.8 65.16 4.6
2021 01 11 18:00 267.9 0.0 0.00 30.9 -0.6 71.24 0.8
2021 01 11 19:00 269.3 0.0 0.00 29.0 -1.7 76.25 0.6
2021 01 11 20:00 271.1 0.0 0.00 27.1 -2.7 80.5 2.0
2021 01 11 21:00 272.4 0.0 0.00 26.5 -3.0 81.9 2.4
2021 01 11 22:00 271.8 0.0 0.00 26.4 -3.1 82.1 3.4
2021 01 11 23:00 269.8 0.0 0.00 26.5 -3.0 81.7 3.2
2021 01 11 24:00 270.7 0.0 0.00 26.5 -3.1 81.7 2.4
2021 01 12 1:00 270.5 0.0 0.00 27.0 -2.8 80.7 3.0
2021 01 12 2:00 270.7 0.0 0.00 26.8 -2.9 81.9 2.1
2021 01 12 3:00 271.3 0.0 0.00 26.6 -3.0 83.2 2.0
2021 01 12 4:00 272.6 0.0 0.00 26.5 -3.0 84 1.4
2021 01 12 5:00 274.3 0.0 0.00 26.2 -3.2 85.8 0.6
2021 01 12 6:00 276.0 0.0 0.00 26.5 -3.1 85.5 0.4
2021 01 12 7:00 277.3 0.0 0.00 27.0 -2.8 84 1.0
2021 01 12 8:00 278.5 0.0 0.00 28.1 -2.2 82 3.1
2021 01 12 9:00 273.0 0.0 0.00 31.6 -0.2 77.35 5.0
2021 01 12 10:00 266.1 0.0 0.00 35.9 2.2 69.83 5.4
2021 01 12 11:00 265.5 0.0 0.00 39.2 4.0 61.78 7.4
2021 01 12 12:00 264.9 0.0 0.00 42.1 5.6 54.9 8.3
2021 01 12 13:00 264.8 0.0 0.00 46.3 7.9 47.73 8.3
2021 01 12 14:00 264.4 0.0 0.00 49.1 9.5 42.59 8.7
2021 01 12 15:00 264.1 0.0 0.00 50.9 10.5 38.76 8.5
2021 01 12 16:00 264.1 0.0 0.00 51.2 10.6 38.08 7.4
2021 01 12 17:00 264.3 0.0 0.00 49.4 9.7 40.89 4.9
2021 01 12 18:00 264.9 0.0 0.00 46.3 7.9 44.98 1.6
2021 01 12 19:00 265.5 0.0 0.00 44.2 6.8 48.37 0.4
2021 01 12 20:00 265.6 0.0 0.00 42.1 5.6 51.58 0.5
2021 01 12 21:00 266.3 0.0 0.00 40.1 4.5 55.37 0.1
2021 01 12 22:00 266.3 0.0 0.00 38.9 3.9 57.57 1.1
2021 01 12 23:00 265.9 0.0 0.00 39.5 4.2 57.11 4.2
2021 01 12 24:00 265.8 0.0 0.00 39.5 4.2 57.48 3.4
2021 01 13 1:00 266.2 0.0 0.00 39.2 4.0 59.23 3.3
2021 01 13 2:00 266.3 0.0 0.00 38.8 3.8 60.43 3.7
2021 01 13 3:00 266.3 0.0 0.00 37.8 3.2 62.02 4.2
2021 01 13 4:00 266.3 0.0 0.00 37.3 2.9 61.84 4.7
2021 01 13 5:00 266.3 0.0 0.00 36.5 2.5 62.74 3.0
2021 01 13 6:00 266.6 0.0 0.00 35.4 1.9 64.32 1.1
2021 01 13 7:00 266.6 0.0 0.00 35.1 1.7 65.36 3.1
2021 01 13 8:00 266.2 0.0 0.00 35.9 2.1 64.56 4.6
2021 01 13 9:00 265.4 0.0 0.00 37.1 2.8 63.09 5.0
2021 01 13 10:00 264.8 0.0 0.00 41.5 5.3 55.73 7.2
2021 01 13 11:00 264.0 0.0 0.00 46.1 7.8 47.14 7.5
2021 01 13 12:00 263.4 0.0 0.00 49.0 9.5 40.91 8.6
2021 01 13 13:00 263.1 0.0 0.00 51.1 10.6 37.08 8.9
2021 01 13 14:00 263.4 0.0 0.00 51.2 10.7 36.72 7.5
2021 01 13 15:00 263.4 0.0 0.00 51.6 10.9 36.51 7.5
2021 01 13 16:00 263.4 0.0 0.00 51.5 10.9 36.51 6.7
2021 01 13 17:00 263.4 0.0 0.00 50.6 10.3 38.29 5.2
2021 01 13 18:00 263.8 0.0 0.00 48.0 8.9 40.81 3.3
2021 01 13 19:00 264.7 0.0 0.00 45.2 7.3 43.62 2.0
2021 01 13 20:00 264.9 0.0 0.00 43.4 6.3 45.66 3.0
2021 01 13 21:00 264.9 0.0 0.00 42.5 5.8 49.94 3.4
2021 01 13 22:00 264.9 0.0 0.00 41.1 5.1 53.41 2.2
2021 01 13 23:00 265.3 0.0 0.00 39.6 4.2 56.42 2.5
2021 01 13 24:00 265.6 0.0 0.00 38.8 3.8 58.07 2.7
2021 01 14 1:00 265.4 0.0 0.00 39.1 4.0 57.54 3.8
2021 01 14 2:00 265.6 0.0 0.00 38.9 3.8 57.47 3.4
2021 01 14 3:00 265.6 0.0 0.00 38.9 3.8 57 2.1
2021 01 14 4:00 265.6 0.0 0.00 38.3 3.5 57.75 1.0
2021 01 14 5:00 265.6 0.0 0.00 37.9 3.3 58.89 1.6
2021 01 14 6:00 265.6 0.0 0.00 37.5 3.1 60.02 2.6
2021 01 14 7:00 265.6 0.0 0.00 38.2 3.5 60.57 2.2
2021 01 14 8:00 265.6 0.0 0.00 39.6 4.2 60.92 2.3
2021 01 14 9:00 Wet 322.9 0.0 0.00 40.1 4.5 67.33 2.1
2021 01 14 10:00 Wet 286.0 0.0 0.00 40.8 4.9 72.63 4.5
2021 01 14 11:00 265.9 0.0 0.00 43.9 6.6 66.53 6.6
2021 01 14 12:00 265.8 0.0 0.00 45.3 7.4 66.59 13.5
2021 01 14 13:00 282.3 0.0 0.00 43.0 6.1 75.08 14.0
2021 01 14 14:00 Wet 361.2 0.0 0.51 41.6 5.3 77.94 12.3
2021 01 14 15:00 Wet 406.8 0.0 0.76 39.3 4.0 85.6 9.9
2021 01 14 16:00 Wet 344.4 0.0 0.25 39.0 3.9 84.3 9.8
2021 01 14 17:00 278.2 0.0 0.00 38.9 3.8 83.1 8.0
2021 01 14 18:00 268.4 0.0 0.00 38.4 3.5 78.03 7.8
2021 01 14 19:00 267.2 0.0 0.00 38.0 3.3 74.14 10.3
2021 01 14 20:00 267.5 0.0 0.00 36.2 2.3 77.71 9.2
2021 01 14 21:00 267.0 0.0 0.00 35.7 2.1 71.94 10.4
2021 01 14 22:00 267.0 0.0 0.00 35.3 1.9 71.8 8.7
2021 01 14 23:00 267.0 0.0 0.00 34.5 1.4 72.87 11.2
2021 01 14 24:00 267.2 0.0 0.00 33.4 0.8 78.68 7.7
2021 01 15 1:00 267.6 0.0 0.00 32.8 0.4 79.07 7.0
2021 01 15 2:00 267.1 0.0 0.00 32.6 0.3 72.74 5.9
2021 01 15 3:00 267.0 0.0 0.00 33.0 0.6 68.71 8.2
2021 01 15 4:00 266.8 0.0 0.00 33.4 0.8 70.72 9.8
2021 01 15 5:00 266.8 0.0 0.00 33.1 0.6 72.21 10.4
2021 01 15 6:00 266.9 0.0 0.00 32.7 0.4 73.35 10.6
2021 01 15 7:00 267.0 0.0 0.00 32.4 0.2 73.51 9.9
2021 01 15 8:00 267.0 0.0 0.00 32.2 0.1 74.54 9.3
2021 01 15 9:00 267.0 0.0 0.00 31.6 -0.2 80.3 9.8
2021 01 15 10:00 267.0 0.0 0.00 31.3 -0.4 85.2 9.9
2021 01 15 11:00 267.6 0.0 0.00 31.2 -0.5 90.3 9.3
2021 01 15 12:00 271.6 0.0 0.25 31.4 -0.4 92.9 9.5
2021 01 15 13:00 268.9 0.0 0.00 32.4 0.2 88.9 9.2
2021 01 15 14:00 267.7 0.0 0.00 32.0 0.0 90.2 8.1
2021 01 15 15:00 271.8 0.0 0.25 31.8 -0.1 92.1 6.0
2021 01 15 16:00 279.6 0.0 0.25 31.0 -0.5 95.6 5.1
2021 01 15 17:00 Wet 293.5 0.0 0.00 30.9 -0.6 96.7 3.3
2021 01 15 18:00 Wet 320.7 0.0 0.00 31.1 -0.5 97.2 5.0
2021 01 15 19:00 Wet 289.8 0.0 0.00 31.4 -0.3 96 7.8
2021 01 15 20:00 272.9 0.0 0.00 31.8 -0.1 91.6 9.3
2021 01 15 21:00 270.7 0.0 0.00 31.8 -0.1 89.5 8.8
2021 01 15 22:00 268.9 0.0 0.25 32.0 0.0 87.5 9.4
2021 01 15 23:00 268.6 0.0 0.00 32.1 0.0 86.6 8.7
2021 01 15 24:00 269.2 0.0 0.00 31.6 -0.2 87.4 7.7
2021 01 16 1:00 269.4 0.0 0.00 31.1 -0.5 87.1 7.8
2021 01 16 2:00 269.2 0.0 0.00 31.3 -0.4 88.1 8.1
2021 01 16 3:00 269.5 0.0 0.00 31.3 -0.4 87.4 7.0
2021 01 16 4:00 272.7 0.0 0.00 30.6 -0.8 89.1 5.8
2021 01 16 5:00 269.3 0.0 0.00 31.3 -0.4 89.8 6.8
2021 01 16 6:00 269.5 0.0 0.00 32.4 0.2 90.6 7.9
2021 01 16 7:00 269.8 0.0 0.25 32.7 0.4 89.6 6.9
2021 01 16 8:00 268.6 0.0 0.00 32.8 0.5 84.8 9.4
2021 01 16 9:00 268.4 0.0 0.00 32.7 0.4 84.8 8.7
2021 01 16 10:00 268.4 0.0 0.00 32.3 0.2 85.7 10.8
2021 01 16 11:00 268.4 0.0 0.00 32.2 0.1 84.9 10.2
2021 01 16 12:00 268.1 0.0 0.00 32.5 0.3 84 9.3
2021 01 16 13:00 267.7 0.0 0.00 32.6 0.4 82.2 10.7
2021 01 16 14:00 267.7 0.0 0.00 33.0 0.5 80.1 10.1
2021 01 16 15:00 267.7 0.0 0.00 33.2 0.7 79.65 7.9
2021 01 16 16:00 267.7 0.0 0.00 33.2 0.7 79.64 8.1
2021 01 16 17:00 267.7 0.0 0.00 33.2 0.7 79.39 7.5
2021 01 16 18:00 267.7 0.0 0.00 32.9 0.5 80.3 7.6
2021 01 16 19:00 267.7 0.0 0.00 32.6 0.3 80.7 5.6
2021 01 16 20:00 267.7 0.0 0.00 32.4 0.2 80.9 5.8
2021 01 16 21:00 267.7 0.0 0.00 32.1 0.1 81.6 6.1
2021 01 16 22:00 268.1 0.0 0.00 31.6 -0.2 85 5.9
2021 01 16 23:00 268.3 0.0 0.00 31.5 -0.3 84.8 3.8
2021 01 16 24:00 268.0 0.0 0.00 31.5 -0.3 83.6 5.3
2021 01 17 1:00 267.7 0.0 0.00 31.4 -0.3 79.33 7.5
2021 01 17 2:00 267.7 0.0 0.00 31.2 -0.5 76.33 7.6
2021 01 17 3:00 267.7 0.0 0.00 30.9 -0.6 76.77 5.2
2021 01 17 4:00 267.7 0.0 0.00 30.8 -0.7 76.52 7.2
2021 01 17 5:00 268.9 0.0 0.00 28.8 -1.8 83.2 10.6
2021 01 17 6:00 267.7 0.0 0.00 28.0 -2.2 80.9 8.6
2021 01 17 7:00 267.7 0.0 0.00 27.8 -2.3 80 8.2
2021 01 17 8:00 267.7 0.0 0.00 27.8 -2.3 79.77 7.3
2021 01 17 9:00 267.6 0.0 0.00 27.9 -2.3 78.05 9.4
2021 01 17 10:00 267.0 0.0 0.00 28.3 -2.0 75.51 8.5
2021 01 17 11:00 266.4 0.0 0.00 29.8 -1.2 72.54 9.7
2021 01 17 12:00 266.2 0.0 0.00 31.9 -0.0 66.89 11.4
2021 01 17 13:00 265.8 0.0 0.00 33.4 0.8 64.05 11.3
2021 01 17 14:00 266.0 0.0 0.00 33.1 0.6 66.98 10.7
2021 01 17 15:00 267.2 0.0 0.00 31.8 -0.1 82 9.0
2021 01 17 16:00 268.2 0.0 0.00 31.7 -0.2 85.1 7.1
2021 01 17 17:00 268.6 0.0 0.00 31.4 -0.3 89.1 5.2
2021 01 17 18:00 268.5 0.0 0.00 31.7 -0.1 87.3 6.4
2021 01 17 19:00 268.0 0.0 0.00 32.2 0.1 83.6 6.1
2021 01 17 20:00 267.8 0.0 0.00 32.3 0.2 82.3 6.2
2021 01 17 21:00 268.2 0.0 0.00 32.1 0.0 83.2 3.7
2021 01 17 22:00 268.2 0.0 0.00 32.1 0.1 83.6 2.6
2021 01 17 23:00 268.0 0.0 0.00 32.3 0.2 82 3.8
2021 01 17 24:00 267.6 0.0 0.00 32.8 0.4 75.63 5.7
2021 01 18 1:00 267.6 0.0 0.00 32.7 0.4 75.44 2.5
2021 01 18 2:00 267.7 0.0 0.00 32.3 0.2 77.85 1.6
2021 01 18 3:00 267.9 0.0 0.00 31.6 -0.2 80.3 3.0
2021 01 18 4:00 268.7 0.0 0.00 30.1 -1.1 81.7 4.1
2021 01 18 5:00 272.0 0.0 0.00 28.1 -2.2 84.2 2.4
2021 01 18 6:00 271.8 0.0 0.00 27.2 -2.6 84.8 0.2
2021 01 18 7:00 274.5 0.0 0.00 26.5 -3.1 86.5 0.3
2021 01 18 8:00 276.1 0.0 0.00 24.5 -4.2 90.1 0.0
2021 01 18 9:00 Wet 291.7 0.0 0.00 27.6 -2.5 89.9 0.7
2021 01 18 10:00 266.1 0.0 0.00 33.4 0.8 73.42 2.9
2021 01 18 11:00 265.5 0.0 0.00 36.5 2.5 64.69 3.4
2021 01 18 12:00 265.1 0.0 0.00 38.6 3.7 54.55 6.4
2021 01 18 13:00 264.9 0.0 0.00 39.5 4.2 51.1 5.3
2021 01 18 14:00 264.9 0.0 0.00 39.9 4.4 50.22 3.0
2021 01 18 15:00 264.9 0.0 0.00 39.9 4.4 54.27 2.4
2021 01 18 16:00 Wet 287.2 0.0 0.00 38.4 3.6 67 3.8
2021 01 18 17:00 Wet 484.0 0.0 1.02 35.4 1.9 84.1 1.1
2021 01 18 18:00 Wet 373.0 0.0 0.00 34.4 1.4 90.2 1.2
2021 01 18 19:00 Wet 447.0 0.0 0.51 33.9 1.1 92.4 1.1
2021 01 18 20:00 Wet 377.7 0.0 0.00 33.4 0.8 94.2 3.9
2021 01 18 21:00 Wet 356.1 0.0 0.00 33.1 0.6 95.1 1.3
2021 01 18 22:00 Wet 333.5 0.0 0.00 32.8 0.5 95.5 3.2
2021 01 18 23:00 Wet 334.0 0.0 0.00 32.2 0.1 95.4 0.9
2021 01 18 24:00 Wet 359.1 0.0 0.00 31.3 -0.4 95.9 0.0
2021 01 19 1:00 280.8 0.0 0.00 30.8 -0.7 96.4 0.1
2021 01 19 2:00 Wet 289.9 0.0 0.00 30.8 -0.7 96.9 2.0
2021 01 19 3:00 281.6 0.0 0.00 29.5 -1.4 96.7 0.0
2021 01 19 4:00 283.8 0.0 0.00 28.2 -2.1 96.7 0.0
2021 01 19 5:00 Wet 286.1 0.0 0.00 27.3 -2.6 96.7 0.0
2021 01 19 6:00 Wet 287.8 0.0 0.00 26.3 -3.2 97.1 0.0
2021 01 19 7:00 Wet 288.8 0.0 0.00 25.8 -3.5 97.3 0.0
2021 01 19 8:00 Wet 289.5 0.0 0.00 24.8 -4.0 97.4 0.0
2021 01 19 9:00 Wet 290.2 0.0 0.00 25.1 -3.8 97.4 0.0
2021 01 19 10:00 Wet 289.9 0.0 0.00 25.9 -3.4 97.5 0.0
2021 01 19 11:00 Wet 350.5 0.0 0.00 28.7 -1.8 98 0.6
2021 01 19 12:00 279.2 0.0 0.00 32.7 0.4 95.3 7.1
2021 01 19 13:00 269.0 0.0 0.00 32.8 0.4 88.5 8.7
2021 01 19 14:00 268.2 0.0 0.00 33.1 0.6 88.4 9.0
2021 01 19 15:00 267.3 0.0 0.00 35.6 2.0 79.51 9.3
2021 01 19 16:00 266.9 0.0 0.00 37.3 2.9 69.64 7.7
2021 01 19 17:00 266.9 0.0 0.00 37.8 3.2 66.64 5.4
2021 01 19 18:00 267.2 0.0 0.00 36.2 2.3 68.56 4.5
2021 01 19 19:00 266.4 0.0 0.00 38.0 3.3 58.34 7.9
2021 01 19 20:00 266.3 0.0 0.00 38.0 3.3 59.2 6.7
2021 01 19 21:00 266.3 0.0 0.00 37.0 2.8 61.75 7.6
2021 01 19 22:00 266.3 0.0 0.00 36.2 2.3 62.72 11.2
2021 01 19 23:00 266.3 0.0 0.00 33.2 0.7 60.81 11.9
2021 01 19 24:00 266.3 0.0 0.00 30.6 -0.8 56.37 10.4
2021 01 20 1:00 266.4 0.0 0.00 28.5 -2.0 60.36 7.0
2021 01 20 2:00 266.6 0.0 0.00 27.0 -2.8 66.33 5.8
2021 01 20 3:00 267.1 0.0 0.00 25.7 -3.5 69.08 4.6
2021 01 20 4:00 267.3 0.0 0.00 24.7 -4.1 68.83 2.7
2021 01 20 5:00 267.5 0.0 0.00 23.7 -4.6 69.17 1.4
2021 01 20 6:00 269.0 0.0 0.00 20.9 -6.1 78.93 0.8
2021 01 20 7:00 270.8 0.0 0.00 20.6 -6.3 81 0.3
2021 01 20 8:00 272.7 0.0 0.00 19.5 -6.9 86 0.2
2021 01 20 9:00 267.9 0.0 0.00 23.7 -4.6 78.38 2.1
2021 01 20 10:00 265.2 0.0 0.00 28.9 -1.7 63.73 5.8
2021 01 20 11:00 265.0 0.0 0.00 33.3 0.7 53.82 6.8
2021 01 20 12:00 264.9 0.0 0.00 36.7 2.6 51.01 7.9
2021 01 20 13:00 264.7 0.0 0.00 39.1 3.9 48.62 7.3
2021 01 20 14:00 264.7 0.0 0.00 42.2 5.7 45.84 8.1
2021 01 20 15:00 264.8 0.0 0.00 44.9 7.2 43.23 8.3
2021 01 20 16:00 264.6 0.0 0.00 45.6 7.6 41.35 8.0
2021 01 20 17:00 264.8 0.0 0.00 45.3 7.4 43.09 5.8
2021 01 20 18:00 264.8 0.0 0.00 45.5 7.5 41.77 7.2
2021 01 20 19:00 264.8 0.0 0.00 45.5 7.5 41.64 6.0
2021 01 20 20:00 264.3 0.0 0.00 45.5 7.5 40.42 9.3
2021 01 20 21:00 264.8 0.0 0.00 44.0 6.7 43.4 7.3
2021 01 20 22:00 264.9 0.0 0.00 43.0 6.1 46.17 6.1
2021 01 20 23:00 264.9 0.0 0.00 41.0 5.0 50.11 3.2
2021 01 20 24:00 265.3 0.0 0.00 40.0 4.4 53.48 2.4
2021 01 21 1:00 265.6 0.0 0.00 40.1 4.5 60.3 5.2
2021 01 21 2:00 265.6 0.0 0.00 40.2 4.5 62.68 6.6
2021 01 21 3:00 265.8 0.0 0.00 38.9 3.8 65.51 6.0
2021 01 21 4:00 266.3 0.0 0.00 37.2 2.9 69.97 5.3
2021 01 21 5:00 266.9 0.0 0.00 35.4 1.9 74.25 4.6
2021 01 21 6:00 267.4 0.0 0.00 34.3 1.3 76.77 4.1
2021 01 21 7:00 267.7 0.0 0.00 33.8 1.0 78.38 4.2
2021 01 21 8:00 269.3 0.0 0.00 32.7 0.4 81.5 3.0
2021 01 21 9:00 266.7 0.0 0.00 34.2 1.2 79.74 3.8
2021 01 21 10:00 265.2 0.0 0.00 38.7 3.7 68.32 5.1
2021 01 21 11:00 264.8 0.0 0.00 42.7 6.0 56.94 5.9
2021 01 21 12:00 263.9 0.0 0.00 46.6 8.1 46.1 6.0
2021 01 21 13:00 263.0 0.0 0.00 49.6 9.8 36.07 6.8
2021 01 21 14:00 262.7 0.0 0.00 51.0 10.6 30.96 7.1
2021 01 21 15:00 262.7 0.0 0.00 52.2 11.2 28.78 7.7
2021 01 21 16:00 262.6 0.0 0.00 52.4 11.4 28.05 6.5
2021 01 21 17:00 262.8 0.0 0.00 51.2 10.7 31.5 3.8
2021 01 21 18:00 263.7 0.0 0.00 48.1 9.0 37.86 0.5
2021 01 21 19:00 264.7 0.0 0.00 42.7 5.9 46.92 0.0
2021 01 21 20:00 265.1 0.0 0.00 39.6 4.2 52.65 1.2
2021 01 21 21:00 265.4 0.0 0.00 37.6 3.1 56.5 1.3
2021 01 21 22:00 265.4 0.0 0.00 36.2 2.3 57.86 1.9
2021 01 21 23:00 265.3 0.0 0.00 35.5 1.9 57.78 5.4
2021 01 21 24:00 265.0 0.0 0.00 35.8 2.1 54.21 7.7
2021 01 22 1:00 265.6 0.0 0.00 32.8 0.4 61.04 4.2
2021 01 22 2:00 265.9 0.0 0.00 31.2 -0.4 64.89 3.0
2021 01 22 3:00 266.3 0.0 0.00 29.8 -1.2 67.79 3.0
2021 01 22 4:00 266.4 0.0 0.00 28.8 -1.8 69.53 3.9
2021 01 22 5:00 266.1 0.0 0.00 28.7 -1.8 66.11 5.4
2021 01 22 6:00 265.7 0.0 0.00 28.6 -1.9 60.88 7.2
2021 01 22 7:00 265.7 0.0 0.00 27.4 -2.6 59.69 6.8
2021 01 22 8:00 265.6 0.0 0.00 26.6 -3.0 62.53 5.2
2021 01 22 9:00 265.0 0.0 0.00 27.7 -2.4 57.77 5.9
2021 01 22 10:00 264.0 0.0 0.00 29.1 -1.6 42.2 8.0
2021 01 22 11:00 263.6 0.0 0.00 29.2 -1.5 39.98 8.2
2021 01 22 12:00 263.3 0.0 0.00 30.5 -0.8 34.66 7.3
2021 01 22 13:00 262.9 0.0 0.00 31.9 -0.0 31.58 6.6
2021 01 22 14:00 262.9 0.0 0.00 33.1 0.6 28.71 5.7
2021 01 22 15:00 262.9 0.0 0.00 34.0 1.1 25.6 6.2
2021 01 22 16:00 262.9 0.0 0.00 33.4 0.8 24.36 6.0
2021 01 22 17:00 262.9 0.0 0.00 32.1 0.1 23.99 5.1
2021 01 22 18:00 263.3 0.0 0.00 28.5 -2.0 30.68 4.2
2021 01 22 19:00 263.7 0.0 0.00 26.0 -3.3 34.6 4.4
2021 01 22 20:00 263.7 0.0 0.00 24.6 -4.1 40.7 3.9
2021 01 22 21:00 263.9 0.0 0.00 23.2 -4.9 44.22 3.0
2021 01 22 22:00 264.3 0.0 0.00 22.0 -5.6 46.86 1.4
2021 01 22 23:00 264.4 0.0 0.00 21.0 -6.1 48.57 2.1
2021 01 22 24:00 264.5 0.0 0.00 20.1 -6.6 50.38 2.3
2021 01 23 1:00 264.8 0.0 0.00 18.8 -7.3 53.7 1.6
2021 01 23 2:00 265.1 0.0 0.00 18.3 -7.6 53.66 0.9
2021 01 23 3:00 265.1 0.0 0.00 17.6 -8.0 56.07 0.0
2021 01 23 4:00 265.1 0.0 0.00 17.0 -8.3 61.16 1.8
2021 01 23 5:00 265.2 0.0 0.00 16.3 -8.7 65.61 2.6
2021 01 23 6:00 265.8 0.0 0.00 15.6 -9.1 68.99 0.8
2021 01 23 7:00 265.8 0.0 0.00 15.4 -9.2 70.42 1.5
2021 01 23 8:00 265.5 0.0 0.00 15.9 -8.9 71.19 1.3
2021 01 23 9:00 264.6 0.0 0.00 18.6 -7.4 68.05 4.1
2021 01 23 10:00 263.8 0.0 0.00 22.5 -5.3 59.3 5.3
2021 01 23 11:00 263.3 0.0 0.00 25.8 -3.5 47.97 6.3
2021 01 23 12:00 262.9 0.0 0.00 28.8 -1.8 42.12 6.6
2021 01 23 13:00 262.6 0.0 0.00 32.1 0.1 34.93 6.8
2021 01 23 14:00 262.2 0.0 0.00 35.9 2.2 27.79 8.4
2021 01 23 15:00 262.2 0.0 0.00 37.5 3.0 25.27 8.1
2021 01 23 16:00 262.2 0.0 0.00 36.7 2.6 27.89 8.3
2021 01 23 17:00 262.8 0.0 0.00 35.6 2.0 32.71 7.4
2021 01 23 18:00 262.9 0.0 0.00 34.7 1.5 35.78 6.4
2021 01 23 19:00 263.4 0.0 0.00 34.2 1.2 38.34 5.1
2021 01 23 20:00 263.6 0.0 0.00 34.4 1.3 39.89 6.2
2021 01 23 21:00 263.5 0.0 0.00 34.7 1.5 39.36 6.8
2021 01 23 22:00 263.6 0.0 0.00 34.7 1.5 41.4 7.7
2021 01 23 23:00 263.7 0.0 0.00 34.4 1.3 46.47 7.4
2021 01 23 24:00 263.6 0.0 0.00 34.8 1.6 45.49 6.1
2021 01 24 1:00 263.6 0.0 0.00 35.2 1.8 45.53 4.7
2021 01 24 2:00 263.7 0.0 0.00 35.0 1.7 47.95 1.7
2021 01 24 3:00 264.2 0.0 0.00 35.0 1.7 49.08 0.4
2021 01 24 4:00 264.3 0.0 0.00 34.8 1.5 50.52 0.3
2021 01 24 5:00 264.7 0.0 0.00 34.9 1.6 58.82 1.6
2021 01 24 6:00 265.3 0.0 0.00 34.6 1.5 72.03 2.3
2021 01 24 7:00 265.3 0.0 0.00 34.5 1.4 69.99 1.4
2021 01 24 8:00 264.9 0.0 0.00 34.5 1.4 65.34 0.1
2021 01 24 9:00 264.9 0.0 0.00 34.8 1.6 63.39 1.1
2021 01 24 10:00 264.9 0.0 0.00 35.7 2.1 67.73 0.7
2021 01 24 11:00 264.9 0.0 0.00 37.0 2.8 68.77 0.1
2021 01 24 12:00 264.9 0.0 0.00 37.9 3.3 68.37 0.4
2021 01 24 13:00 264.9 0.0 0.00 39.3 4.0 66.42 1.6
2021 01 24 14:00 264.9 0.0 0.00 40.3 4.6 66.4 2.3
2021 01 24 15:00 264.9 0.0 0.00 40.9 5.0 66.67 3.4
2021 01 24 16:00 264.9 0.0 0.00 40.8 4.9 64.43 4.0
2021 01 24 17:00 264.9 0.0 0.00 40.1 4.5 63.04 3.0
2021 01 24 18:00 265.1 0.0 0.00 39.4 4.1 64.96 0.4
2021 01 24 19:00 265.6 0.0 0.00 38.3 3.5 67.85 0.1
2021 01 24 20:00 265.6 0.0 0.00 37.6 3.1 69.38 3.0
2021 01 24 21:00 265.6 0.0 0.00 37.2 2.9 69.78 3.1
2021 01 24 22:00 265.6 0.0 0.00 36.9 2.7 71.5 3.4
2021 01 24 23:00 265.6 0.0 0.00 36.6 2.6 73.01 4.5
2021 01 24 24:00 265.6 0.0 0.00 36.4 2.5 74.35 4.3
2021 01 25 1:00 266.0 0.0 0.00 36.1 2.3 78.39 5.5
2021 01 25 2:00 273.7 0.0 0.00 35.8 2.1 82 6.2
2021 01 25 3:00 Wet 382.2 0.0 0.00 35.1 1.7 85.2 6.7
2021 01 25 4:00 Wet 346.5 0.0 0.00 34.7 1.5 85.3 7.6
2021 01 25 5:00 Wet 460.9 0.1 1.52 34.2 1.2 87.3 7.9
2021 01 25 6:00 Wet 525.1 0.2 3.81 33.1 0.6 93.4 7.1
2021 01 25 7:00 Wet 517.2 0.2 4.06 32.5 0.3 95.4 6.8
2021 01 25 8:00 Wet 545.2 0.2 4.83 32.5 0.3 95.5 4.8
2021 01 25 9:00 Wet 543.2 0.2 4.06 32.3 0.2 96 7.0
2021 01 25 10:00 Wet 446.4 0.0 1.02 32.3 0.2 96 9.6
2021 01 25 11:00 Wet 290.4 0.0 0.00 33.1 0.6 94.2 9.0
2021 01 25 12:00 272.5 0.0 0.00 33.6 0.9 93.1 10.0
2021 01 25 13:00 269.2 0.0 0.00 33.8 1.0 92.9 9.4
2021 01 25 14:00 Wet 310.2 0.0 0.00 34.1 1.1 93.4 7.1
2021 01 25 15:00 Wet 471.7 0.0 0.00 33.8 1.0 95.2 6.9
2021 01 25 16:00 Wet 496.3 0.0 0.51 33.2 0.7 95.6 8.3
2021 01 25 17:00 Wet 470.4 0.0 0.00 32.8 0.4 96.1 7.8
2021 01 25 18:00 Wet 494.3 0.0 0.25 32.8 0.4 96.4 4.7
2021 01 25 19:00 Wet 479.8 0.0 0.25 32.7 0.4 96.8 5.0
2021 01 25 20:00 Wet 503.7 0.0 0.25 32.5 0.3 96.7 5.5
2021 01 25 21:00 Wet 443.2 0.0 0.00 32.3 0.1 96.6 5.1
2021 01 25 22:00 Wet 429.1 0.0 0.00 32.1 0.1 96.5 3.3
2021 01 25 23:00 Wet 481.8 0.0 0.00 32.1 0.1 96.9 1.2
2021 01 25 24:00 Wet 449.0 0.0 0.25 32.2 0.1 97.2 0.1
2021 01 26 1:00 Wet 383.1 0.0 0.00 32.2 0.1 97.3 0.4
2021 01 26 2:00 Wet 345.7 0.0 0.00 32.3 0.2 97.4 1.1
2021 01 26 3:00 Wet 312.8 0.0 0.00 32.3 0.2 97.4 0.8
2021 01 26 4:00 Wet 405.0 0.0 0.00 32.5 0.3 97.5 3.5
2021 01 26 5:00 Wet 319.1 0.0 0.00 32.3 0.2 97.7 4.4
2021 01 26 6:00 Wet 297.5 0.0 0.00 32.2 0.1 98 5.0
2021 01 26 7:00 Wet 293.5 0.0 0.00 32.2 0.1 98 6.5
2021 01 26 8:00 Wet 286.2 0.0 0.25 31.9 -0.0 97.8 7.6
2021 01 26 9:00 273.2 0.0 0.00 32.3 0.1 94 7.2
2021 01 26 10:00 269.3 0.0 0.00 31.6 -0.2 90.6 8.6
2021 01 26 11:00 268.6 0.0 0.00 31.5 -0.3 86.9 10.1
2021 01 26 12:00 268.4 0.0 0.00 30.5 -0.8 85 10.9
2021 01 26 13:00 268.4 0.0 0.00 30.0 -1.1 84.2 10.2
2021 01 26 14:00 268.1 0.0 0.00 29.7 -1.3 82.5 10.5
2021 01 26 15:00 268.2 0.0 0.00 29.3 -1.5 82.3 8.2
2021 01 26 16:00 268.0 0.0 0.00 29.4 -1.4 80 7.6
2021 01 26 17:00 268.2 0.0 0.00 29.2 -1.5 80.8 7.1
2021 01 26 18:00 268.4 0.0 0.00 28.6 -1.9 81.7 5.9
2021 01 26 19:00 268.1 0.0 0.00 28.1 -2.2 81.6 4.8
2021 01 26 20:00 267.7 0.0 0.00 27.8 -2.3 80.1 5.7
2021 01 26 21:00 267.7 0.0 0.00 27.3 -2.6 82.3 4.1
2021 01 26 22:00 267.7 0.0 0.00 27.2 -2.7 82.5 3.2
2021 01 26 23:00 267.7 0.0 0.00 27.2 -2.7 82.9 3.7
2021 01 26 24:00 267.7 0.0 0.00 27.3 -2.6 82.4 3.5
2021 01 27 1:00 267.7 0.0 0.00 27.2 -2.7 83.1 5.0
2021 01 27 2:00 267.7 0.0 0.00 26.8 -2.9 84.9 6.2
2021 01 27 3:00 267.7 0.0 0.00 26.8 -2.9 84.7 5.1
2021 01 27 4:00 267.7 0.0 0.00 27.1 -2.7 83.1 4.6
2021 01 27 5:00 267.7 0.0 0.00 26.9 -2.8 83.3 3.7
2021 01 27 6:00 267.7 0.0 0.00 26.8 -2.9 84.2 4.1
2021 01 27 7:00 268.5 0.0 0.00 26.7 -3.0 86 5.5
2021 01 27 8:00 272.0 0.0 0.00 25.9 -3.4 90.7 5.6
2021 01 27 9:00 275.1 0.0 0.00 25.8 -3.5 92.4 4.8
2021 01 27 10:00 275.0 0.0 0.00 25.6 -3.6 93.5 4.1
2021 01 27 11:00 273.2 0.0 0.00 25.4 -3.7 94.4 5.4
2021 01 27 12:00 269.7 0.0 0.00 25.6 -3.6 94.2 6.0
2021 01 27 13:00 273.7 0.0 0.00 27.3 -2.6 90.3 6.5
2021 01 27 14:00 269.6 0.0 0.00 27.3 -2.6 85.8 6.5
2021 01 27 15:00 271.9 0.0 0.00 28.4 -2.0 82.2 6.6
2021 01 27 16:00 280.6 0.0 0.00 27.8 -2.3 85.3 6.4
2021 01 27 17:00 277.2 0.0 0.00 27.3 -2.6 82.6 5.3
2021 01 27 18:00 275.5 0.0 0.00 24.7 -4.1 86 2.8
2021 01 27 19:00 275.2 0.0 0.00 22.6 -5.2 89.7 2.7
2021 01 27 20:00 275.3 0.0 0.00 22.6 -5.2 89.3 5.4
2021 01 27 21:00 274.9 0.0 0.00 22.3 -5.4 89.1 5.1
2021 01 27 22:00 274.6 0.0 0.00 22.4 -5.4 89.3 3.5
2021 01 27 23:00 274.6 0.0 0.00 22.4 -5.3 89.4 5.2
2021 01 27 24:00 274.6 0.0 0.00 21.8 -5.7 87.8 4.1
2021 01 28 1:00 273.9 0.0 0.00 19.0 -7.2 87.4 2.2
2021 01 28 2:00 273.8 0.0 0.00 16.4 -8.7 90.6 0.2
2021 01 28 3:00 273.9 0.0 0.00 14.8 -9.5 91.4 1.3
2021 01 28 4:00 274.0 0.0 0.00 13.2 -10.5 90.7 3.0
2021 01 28 5:00 273.8 0.0 0.00 9.4 -12.5 87.9 1.4
2021 01 28 6:00 274.1 0.0 0.00 9.5 -12.5 89 2.5
2021 01 28 7:00 274.1 0.0 0.00 8.2 -13.2 87.6 2.6
2021 01 28 8:00 273.9 0.0 0.00 7.5 -13.6 87.1 0.6
2021 01 28 9:00 273.4 0.0 0.00 9.0 -12.8 86.6 0.5
2021 01 28 10:00 271.7 0.0 0.00 15.5 -9.1 86 1.5
2021 01 28 11:00 Wet 375.9 0.0 0.00 22.4 -5.3 77.8 0.8
2021 01 28 12:00 Wet 481.3 0.0 0.76 24.4 -4.2 67.22 0.6
2021 01 28 13:00 271.8 0.1 1.27 24.4 -4.2 57.23 2.8
2021 01 28 14:00 266.0 0.0 1.02 25.7 -3.5 58.73 4.0
2021 01 28 15:00 265.6 0.0 0.25 27.9 -2.3 55.96 4.6
2021 01 28 16:00 265.6 0.0 0.00 28.1 -2.2 55.37 5.5
2021 01 28 17:00 265.6 0.0 0.00 27.8 -2.3 54.94 5.2
2021 01 28 18:00 265.7 0.0 0.00 26.0 -3.4 58.8 3.8
2021 01 28 19:00 266.0 0.0 0.00 23.8 -4.5 64.45 3.6
2021 01 28 20:00 266.4 0.0 0.00 22.3 -5.4 68.2 3.6
2021 01 28 21:00 266.4 0.0 0.00 21.9 -5.6 71.57 4.5
2021 01 28 22:00 267.1 0.0 0.00 20.7 -6.3 74.42 2.8
2021 01 28 23:00 266.7 0.0 0.00 20.3 -6.5 72.24 3.5
2021 01 28 24:00 266.6 0.0 0.00 20.1 -6.6 70.88 3.1
2021 01 29 1:00 266.8 0.0 0.00 19.2 -7.1 72.4 3.0
2021 01 29 2:00 266.8 0.0 0.00 18.4 -7.6 73.64 3.4
2021 01 29 3:00 266.5 0.0 0.00 18.1 -7.7 73.25 3.7
2021 01 29 4:00 266.6 0.0 0.00 17.7 -8.0 73.56 3.2
2021 01 29 5:00 267.1 0.0 0.00 16.9 -8.4 75.96 3.4
2021 01 29 6:00 267.1 0.0 0.00 17.2 -8.2 75.74 3.4
2021 01 29 7:00 267.2 0.0 0.00 16.7 -8.5 77 3.0
2021 01 29 8:00 266.8 0.0 0.00 16.6 -8.6 78.15 3.3
2021 01 29 9:00 265.7 0.0 0.00 19.6 -6.9 73.51 4.3
2021 01 29 10:00 265.1 0.0 0.00 24.2 -4.4 67.1 4.8
2021 01 29 11:00 264.9 0.0 0.00 29.6 -1.3 60.68 5.1
2021 01 29 12:00 264.5 0.0 0.00 33.7 0.9 55.59 5.7
2021 01 29 13:00 264.8 0.0 0.00 35.0 1.7 55.72 6.7
2021 01 29 14:00 264.9 0.0 0.00 37.2 2.9 53.78 7.2
2021 01 29 15:00 264.9 0.0 0.00 39.1 3.9 52.31 6.5
2021 01 29 16:00 265.2 0.0 0.00 39.2 4.0 55.71 5.8
2021 01 29 17:00 265.6 0.0 0.00 37.2 2.9 60.32 5.8
2021 01 29 18:00 266.2 0.0 0.00 35.1 1.7 65.29 7.2
2021 01 29 19:00 266.3 0.0 0.00 33.6 0.9 69.18 5.7
2021 01 29 20:00 266.6 0.0 0.00 32.6 0.3 72.15 5.0
2021 01 29 21:00 267.0 0.0 0.00 32.2 0.1 74.21 5.5
2021 01 29 22:00 267.0 0.0 0.00 32.3 0.2 75.18 5.6
2021 01 29 23:00 267.0 0.0 0.00 32.3 0.2 76.53 4.3
2021 01 29 24:00 267.0 0.0 0.00 32.7 0.4 77.16 5.1
2021 01 30 1:00 267.0 0.0 0.00 32.8 0.5 78.64 4.8
2021 01 30 2:00 267.0 0.0 0.00 32.9 0.5 79.97 4.4
2021 01 30 3:00 267.0 0.0 0.00 33.2 0.6 78.24 4.1
2021 01 30 4:00 267.0 0.0 0.00 33.4 0.8 76.01 5.7
2021 01 30 5:00 267.0 0.0 0.00 33.7 0.9 73.16 4.4
2021 01 30 6:00 266.8 0.0 0.00 33.9 1.1 71.65 5.6
2021 01 30 7:00 Wet 295.8 0.0 0.00 34.1 1.2 72.32 6.2
2021 01 30 8:00 Wet 302.5 0.0 0.00 34.3 1.3 78.2 6.1
2021 01 30 9:00 Wet 367.8 0.0 0.25 34.2 1.2 86.2 6.0
2021 01 30 10:00 Wet 476.8 0.1 1.27 34.7 1.5 93.4 6.4
2021 01 30 11:00 Wet 526.4 0.1 3.30 35.6 2.0 95.7 3.2
2021 01 30 12:00 Wet 503.9 0.1 3.56 37.3 2.9 96.8 5.2
2021 01 30 13:00 Wet 512.4 0.2 4.06 38.1 3.4 96.5 6.2
2021 01 30 14:00 Wet 504.9 0.1 3.30 38.7 3.7 96.6 7.4
2021 01 30 15:00 Wet 500.9 0.1 3.05 39.4 4.1 96.2 7.4
2021 01 30 16:00 Wet 527.8 0.2 4.83 39.5 4.2 96.1 8.0
2021 01 30 17:00 Wet 515.7 0.1 3.30 39.6 4.2 96.6 6.5
2021 01 30 18:00 Wet 506.7 0.1 2.79 39.8 4.3 97 5.9
2021 01 30 19:00 Wet 491.1 0.1 2.03 40.4 4.7 97 7.1
2021 01 30 20:00 Wet 513.9 0.1 3.30 40.7 4.8 96.5 6.0
2021 01 30 21:00 Wet 498.7 0.1 1.27 40.7 4.8 97.1 4.4
2021 01 30 22:00 Wet 387.7 0.0 0.00 40.6 4.8 98 4.8
2021 01 30 23:00 Wet 430.2 0.0 0.25 40.9 4.9 98.4 1.5
2021 01 30 24:00 Wet 378.4 0.0 0.00 40.7 4.8 98.5 0.9
2021 01 31 1:00 Wet 321.1 0.0 0.00 41.5 5.3 98.4 9.3
2021 01 31 2:00 277.9 0.0 0.25 38.3 3.5 95.6 13.5
2021 01 31 3:00 272.6 0.0 0.00 35.5 1.9 94.4 13.9
2021 01 31 4:00 269.6 0.0 0.00 35.0 1.7 91 14.2
2021 01 31 5:00 269.0 0.0 0.00 34.6 1.5 88 13.8
2021 01 31 6:00 269.0 0.0 0.00 34.3 1.3 85.9 14.0
2021 01 31 7:00 273.7 0.0 0.00 33.7 0.9 86.5 15.0
2021 01 31 8:00 269.1 0.0 0.00 32.8 0.4 87.4 14.5
2021 01 31 9:00 269.0 0.0 0.00 32.5 0.3 87.4 13.2
2021 01 31 10:00 268.8 0.0 0.00 32.8 0.4 85.2 13.8
2021 01 31 11:00 268.4 0.0 0.00 33.1 0.6 84.2 14.3
2021 01 31 12:00 268.4 0.0 0.00 33.3 0.7 83.2 15.8
2021 01 31 13:00 268.3 0.0 0.00 33.3 0.7 81.5 14.2
2021 01 31 14:00 268.3 0.0 0.00 33.2 0.7 81.4 13.9
2021 01 31 15:00 268.3 0.0 0.00 33.0 0.6 83.6 13.3
2021 01 31 16:00 270.4 0.0 0.00 32.4 0.2 87.9 13.4
2021 01 31 17:00 271.8 0.0 0.00 32.0 0.0 90.1 11.7
2021 01 31 18:00 270.9 0.0 0.00 31.8 -0.1 89 10.9
2021 01 31 19:00 269.3 0.0 0.00 31.5 -0.3 89.4 10.3
2021 01 31 20:00 269.1 0.0 0.00 31.4 -0.3 86.9 10.4
2021 01 31 21:00 268.4 0.0 0.00 31.6 -0.2 83.3 10.7
2021 01 31 22:00 268.4 0.0 0.00 31.4 -0.3 80.2 11.5
2021 01 31 23:00 268.4 0.0 0.00 31.4 -0.3 79.35 11.8
2021 01 31 24:00 268.3 0.0 0.00 31.5 -0.3 79.02 12.4
2021 02 01 1:00 268.3 0.0 0.00 31.4 -0.3 80.6 12.2
2021 02 01 2:00 268.4 0.0 0.00 31.1 -0.5 82 11.5
2021 02 01 3:00 268.4 0.0 0.00 30.8 -0.6 81.5 12.5
2021 02 01 4:00 268.3 0.0 0.00 30.8 -0.7 80 10.8
2021 02 01 5:00 268.3 0.0 0.00 31.0 -0.5 80.2 10.1
2021 02 01 6:00 268.1 0.0 0.00 31.2 -0.4 79.21 10.4
2021 02 01 7:00 268.3 0.0 0.00 31.0 -0.5 77.43 11.8
2021 02 01 8:00 267.7 0.0 0.00 30.9 -0.6 77.2 11.2
2021 02 01 9:00 267.7 0.0 0.00 30.9 -0.6 78.15 10.8
2021 02 01 10:00 267.7 0.0 0.00 30.9 -0.6 78.65 10.5
2021 02 01 11:00 267.7 0.0 0.00 31.4 -0.4 77.23 10.4
2021 02 01 12:00 267.7 0.0 0.00 31.6 -0.2 76.89 9.5
2021 02 01 13:00 267.7 0.0 0.00 31.6 -0.2 75.63 11.2
2021 02 01 14:00 267.7 0.0 0.00 31.0 -0.6 76.48 11.9
2021 02 01 15:00 267.7 0.0 0.00 30.1 -1.1 78.83 10.9
2021 02 01 16:00 267.7 0.0 0.00 29.8 -1.2 78.98 10.3
2021 02 01 17:00 267.7 0.0 0.00 29.4 -1.4 79.1 8.8
2021 02 01 18:00 267.7 0.0 0.00 28.6 -1.9 82.3 8.2
2021 02 01 19:00 267.7 0.0 0.00 28.5 -1.9 81.9 7.8
2021 02 01 20:00 267.7 0.0 0.00 28.2 -2.1 81.5 8.5
2021 02 01 21:00 267.7 0.0 0.00 28.1 -2.2 79.9 7.2
2021 02 01 22:00 267.7 0.0 0.00 28.1 -2.1 80.6 5.5
2021 02 01 23:00 267.7 0.0 0.00 28.3 -2.0 80.7 4.9
2021 02 01 24:00 267.7 0.0 0.00 28.5 -2.0 80.9 4.6
2021 02 02 1:00 267.7 0.0 0.00 28.6 -1.9 79.02 5.1
2021 02 02 2:00 267.7 0.0 0.00 28.6 -1.9 77.65 4.5
2021 02 02 3:00 267.7 0.0 0.00 28.8 -1.8 75.46 4.7
2021 02 02 4:00 267.3 0.0 0.00 29.0 -1.7 73.17 4.9
2021 02 02 5:00 267.1 0.0 0.00 28.8 -1.8 71.86 4.6
2021 02 02 6:00 267.4 0.0 0.00 28.1 -2.2 74.4 4.2
2021 02 02 7:00 268.8 0.0 0.00 26.0 -3.3 82.2 4.4
2021 02 02 8:00 268.9 0.0 0.00 25.1 -3.9 84.6 4.0
2021 02 02 9:00 267.2 0.0 0.00 27.0 -2.8 80.2 5.7
2021 02 02 10:00 266.6 0.0 0.00 29.2 -1.6 75.02 5.8
2021 02 02 11:00 266.1 0.0 0.00 31.9 -0.1 69.04 4.9
2021 02 02 12:00 265.5 0.0 0.00 34.3 1.3 62.6 4.2
2021 02 02 13:00 265.1 0.0 0.00 35.5 1.9 61.2 3.6
2021 02 02 14:00 265.0 0.0 0.00 36.8 2.7 59.14 3.4
2021 02 02 15:00 265.3 0.0 0.00 39.0 3.9 54.19 2.8
2021 02 02 16:00 265.5 0.0 0.00 39.4 4.1 53.56 2.6
2021 02 02 17:00 265.7 0.0 0.00 38.5 3.6 57.32 3.1
2021 02 02 18:00 266.4 0.0 0.00 34.6 1.5 66.21 3.5
2021 02 02 19:00 267.1 0.0 0.00 32.3 0.2 71.41 1.1
2021 02 02 20:00 268.0 0.0 0.00 30.7 -0.7 76.08 0.6
2021 02 02 21:00 269.5 0.0 0.00 29.4 -1.4 80.5 2.7
2021 02 02 22:00 277.9 0.0 0.00 27.5 -2.5 85.3 1.2
2021 02 02 23:00 Wet 299.5 0.0 0.00 26.3 -3.2 87.9 1.5
2021 02 02 24:00 281.8 0.0 0.00 25.2 -3.8 90.6 2.2
2021 02 03 1:00 274.6 0.0 0.00 24.7 -4.0 93.9 3.8
2021 02 03 2:00 274.6 0.0 0.00 24.4 -4.2 95.2 3.5
2021 02 03 3:00 274.6 0.0 0.00 24.5 -4.2 95.7 3.2
2021 02 03 4:00 274.5 0.0 0.00 24.6 -4.1 95.3 3.9
2021 02 03 5:00 273.9 0.0 0.00 24.3 -4.3 95.1 3.6
2021 02 03 6:00 273.9 0.0 0.00 24.2 -4.3 95.8 3.7
2021 02 03 7:00 273.9 0.0 0.00 24.6 -4.1 95.5 4.5
2021 02 03 8:00 273.1 0.0 0.00 24.8 -4.0 94.6 4.1
2021 02 03 9:00 271.1 0.0 0.00 25.4 -3.7 93.4 5.0
2021 02 03 10:00 267.6 0.0 0.00 27.8 -2.4 86.9 6.0
2021 02 03 11:00 266.1 0.0 0.00 32.2 0.1 74.39 6.0
2021 02 03 12:00 265.4 0.0 0.00 36.6 2.6 66 5.0
2021 02 03 13:00 265.2 0.0 0.00 40.2 4.6 59.6 6.7
2021 02 03 14:00 264.8 0.0 0.00 43.5 6.4 52.31 6.8
2021 02 03 15:00 264.8 0.0 0.00 45.9 7.7 46.73 6.6
2021 02 03 16:00 264.8 0.0 0.00 46.7 8.2 45.98 6.7
2021 02 03 17:00 264.8 0.0 0.00 45.5 7.5 50.25 7.1
2021 02 03 18:00 265.5 0.0 0.00 42.3 5.7 57.53 6.0
2021 02 03 19:00 266.0 0.0 0.00 39.9 4.4 63.81 5.2
2021 02 03 20:00 266.4 0.0 0.00 37.7 3.2 69.96 4.4
2021 02 03 21:00 267.0 0.0 0.00 36.7 2.6 70.55 4.2
2021 02 03 22:00 266.8 0.0 0.00 36.5 2.5 69.99 4.9
2021 02 03 23:00 266.3 0.0 0.00 36.5 2.5 69.92 5.0
2021 02 03 24:00 266.6 0.0 0.00 36.6 2.5 70.45 4.6
2021 02 04 1:00 266.7 0.0 0.00 36.8 2.7 72.01 4.7
2021 02 04 2:00 266.5 0.0 0.00 37.0 2.8 72.4 4.6
2021 02 04 3:00 266.3 0.0 0.00 37.5 3.0 70.15 6.3
2021 02 04 4:00 266.3 0.0 0.00 38.2 3.4 65.5 5.7
2021 02 04 5:00 Wet 296.0 0.0 0.25 38.8 3.8 63.78 5.5
2021 02 04 6:00 Wet 471.1 0.1 1.78 37.4 3.0 78.39 5.2
2021 02 04 7:00 Wet 372.5 0.0 0.51 36.9 2.7 84.5 5.3
2021 02 04 8:00 Wet 449.9 0.0 0.76 36.2 2.4 89.7 5.4
2021 02 04 9:00 Wet 379.6 0.0 0.25 35.7 2.1 93.7 5.8
2021 02 04 10:00 Wet 358.6 0.0 0.25 37.0 2.8 93 5.6
2021 02 04 11:00 Wet 371.1 0.0 0.25 37.9 3.3 93.3 4.3
2021 02 04 12:00 Wet 426.9 0.0 0.76 38.8 3.8 95.9 2.5
2021 02 04 13:00 Wet 399.0 0.0 0.76 40.4 4.7 97 5.5
2021 02 04 14:00 Wet 381.1 0.0 0.51 40.9 4.9 89.1 12.9
2021 02 04 15:00 Wet 401.0 0.0 0.51 35.3 1.8 88 17.3
2021 02 04 16:00 280.8 0.0 0.00 32.2 0.1 86.5 15.6
2021 02 04 17:00 268.2 0.0 0.00 30.9 -0.6 79.81 16.0
2021 02 04 18:00 267.7 0.0 0.00 29.5 -1.4 76.44 16.7
2021 02 04 19:00 267.1 0.0 0.00 28.9 -1.7 69.66 17.0
2021 02 04 20:00 266.9 0.0 0.00 28.3 -2.0 68.15 16.0
2021 02 04 21:00 266.9 0.0 0.00 26.6 -3.0 67.19 13.9
2021 02 04 22:00 266.7 0.0 0.00 25.8 -3.4 65.23 15.1
2021 02 04 23:00 266.4 0.0 0.00 24.8 -4.0 64.34 14.1
2021 02 04 24:00 266.4 0.0 0.00 23.8 -4.6 59.13 12.9
2021 02 05 1:00 266.4 0.0 0.00 23.4 -4.8 63.47 9.0
2021 02 05 2:00 266.7 0.0 0.00 22.6 -5.2 67.87 4.1
2021 02 05 3:00 267.1 0.0 0.00 21.6 -5.8 71.05 3.5
2021 02 05 4:00 266.8 0.0 0.00 22.8 -5.1 70.27 5.3
2021 02 05 5:00 266.4 0.0 0.00 24.5 -4.2 67.98 4.5
2021 02 05 6:00 266.7 0.0 0.00 24.7 -4.1 68.92 4.8
2021 02 05 7:00 267.1 0.0 0.00 24.0 -4.5 71.33 4.9
2021 02 05 8:00 266.6 0.0 0.00 25.9 -3.4 66.21 8.1
2021 02 05 9:00 265.7 0.0 0.00 29.7 -1.3 58.66 10.5
2021 02 05 10:00 265.6 0.0 0.00 31.4 -0.3 55.71 13.9
2021 02 05 11:00 265.2 0.0 0.00 32.3 0.2 51.03 15.4
2021 02 05 12:00 264.9 0.0 0.00 32.5 0.3 47.91 14.0
2021 02 05 13:00 264.9 0.0 0.00 34.5 1.4 49.5 12.3
2021 02 05 14:00 264.9 0.0 0.00 36.8 2.7 47.55 11.5
2021 02 05 15:00 264.9 0.0 0.00 37.5 3.1 46.22 13.0
2021 02 05 16:00 264.9 0.0 0.00 37.2 2.9 49.49 10.3
2021 02 05 17:00 264.9 0.0 0.00 36.6 2.6 49.77 11.1
2021 02 05 18:00 265.5 0.0 0.00 34.0 1.1 54.87 6.9
2021 02 05 19:00 265.6 0.0 0.00 31.3 -0.4 59.4 3.9
2021 02 05 20:00 266.1 0.0 0.00 30.2 -1.0 63.55 2.9
2021 02 05 21:00 266.3 0.0 0.00 28.5 -1.9 66.49 5.6
2021 02 05 22:00 266.4 0.0 0.00 27.1 -2.7 63.8 6.9
2021 02 05 23:00 266.4 0.0 0.00 25.5 -3.6 61.87 5.5
2021 02 05 24:00 266.2 0.0 0.00 23.9 -4.5 61.26 5.7
2021 02 06 1:00 266.2 0.0 0.00 22.1 -5.5 62.17 4.6
2021 02 06 2:00 266.0 0.0 0.00 20.7 -6.3 62.16 4.2
2021 02 06 3:00 265.8 0.0 0.00 19.4 -7.0 61.11 3.2
2021 02 06 4:00 266.0 0.0 0.00 18.1 -7.7 64.42 1.8
2021 02 06 5:00 266.8 0.0 0.00 17.1 -8.3 66.82 0.1
2021 02 06 6:00 267.0 0.0 0.00 16.7 -8.5 70.42 0.6
2021 02 06 7:00 266.5 0.0 0.00 16.9 -8.4 63.82 1.5
2021 02 06 8:00 266.2 0.0 0.00 17.0 -8.4 64.9 3.4
2021 02 06 9:00 265.7 0.0 0.00 17.9 -7.8 61.28 5.2
2021 02 06 10:00 265.1 0.0 0.00 19.6 -6.9 56.68 5.5
2021 02 06 11:00 264.9 0.0 0.00 21.7 -5.7 54.5 5.7
2021 02 06 12:00 264.3 0.0 0.00 23.8 -4.5 50.62 4.3
2021 02 06 13:00 264.5 0.0 0.00 25.4 -3.6 46.84 4.4
2021 02 06 14:00 264.5 0.0 0.00 26.2 -3.2 44.36 5.5
2021 02 06 15:00 264.9 0.0 0.00 25.8 -3.4 46.59 6.0
2021 02 06 16:00 265.2 0.0 0.00 25.0 -3.9 55.81 4.8
2021 02 06 17:00 266.8 0.0 0.00 22.5 -5.3 82.2 4.6
2021 02 06 18:00 267.1 0.0 0.00 20.9 -6.2 87.2 6.5
2021 02 06 19:00 267.0 0.0 0.00 19.9 -6.7 85.2 7.1
2021 02 06 20:00 267.1 0.0 0.00 17.6 -8.0 86 5.5
2021 02 06 21:00 266.8 0.0 0.00 15.9 -9.0 82.1 8.3
2021 02 06 22:00 266.5 0.0 0.00 13.5 -10.3 76.14 5.7
2021 02 06 23:00 266.8 0.0 0.00 10.9 -11.7 80.1 6.5
2021 02 06 24:00 266.6 0.0 0.00 9.6 -12.4 76.41 8.9
2021 02 07 1:00 266.6 0.0 0.00 5.8 -14.5 75.43 4.3
2021 02 07 2:00 266.6 0.0 0.00 4.3 -15.4 72.18 2.9
2021 02 07 3:00 266.7 0.0 0.00 2.8 -16.2 74.68 2.9
2021 02 07 4:00 267.3 0.0 0.00 2.1 -16.6 76.49 1.4
2021 02 07 5:00 268.0 0.0 0.00 2.0 -16.7 78.3 2.9
2021 02 07 6:00 268.5 0.0 0.00 1.5 -16.9 77.06 2.4
2021 02 07 7:00 268.0 0.0 0.00 0.8 -17.3 67.38 3.0
2021 02 07 8:00 266.4 0.0 0.00 1.1 -17.2 64.78 3.3
2021 02 07 9:00 265.3 0.0 0.00 4.2 -15.5 54.63 4.4
2021 02 07 10:00 265.1 0.0 0.00 5.3 -14.8 46.79 4.1
2021 02 07 11:00 263.7 0.0 0.00 6.2 -14.4 45.82 2.0
2021 02 07 12:00 263.7 0.0 0.00 7.1 -13.8 44.17 2.8
2021 02 07 13:00 263.7 0.0 0.00 8.6 -13.0 46.12 4.3
2021 02 07 14:00 264.1 0.0 0.00 8.8 -12.9 49.82 4.6
2021 02 07 15:00 264.4 0.0 0.00 9.3 -12.6 47.63 4.2
2021 02 07 16:00 264.7 0.0 0.00 10.1 -12.2 48.75 3.9
2021 02 07 17:00 265.1 0.0 0.00 10.6 -11.9 49.52 5.0
2021 02 07 18:00 265.1 0.0 0.00 9.8 -12.3 54.1 6.3
2021 02 07 19:00 265.2 0.0 0.00 9.2 -12.7 60.08 7.0
2021 02 07 20:00 265.5 0.0 0.00 8.9 -12.8 65.79 6.8
2021 02 07 21:00 265.7 0.0 0.00 9.5 -12.5 65.54 5.5
2021 02 07 22:00 265.8 0.0 0.00 9.7 -12.4 66.68 6.2
2021 02 07 23:00 265.9 0.0 0.00 10.0 -12.2 71.1 6.0
2021 02 07 24:00 265.9 0.0 0.00 10.9 -11.7 70.91 5.0
2021 02 08 1:00 265.8 0.0 0.00 11.1 -11.6 73.17 5.2
2021 02 08 2:00 265.8 0.0 0.00 11.6 -11.3 73.02 5.5
2021 02 08 3:00 265.9 0.0 0.00 11.9 -11.2 74.04 4.9
2021 02 08 4:00 266.1 0.0 0.00 12.2 -11.0 73.82 5.0
2021 02 08 5:00 266.5 0.0 0.00 11.9 -11.2 76.46 6.1
2021 02 08 6:00 266.5 0.0 0.00 11.7 -11.3 79.27 6.0
2021 02 08 7:00 266.5 0.0 0.00 12.1 -11.1 79.89 4.9
2021 02 08 8:00 266.5 0.0 0.00 12.7 -10.7 79.15 5.2
2021 02 08 9:00 266.5 0.0 0.00 13.5 -10.3 77.31 5.6
2021 02 08 10:00 266.5 0.0 0.00 14.1 -10.0 77.21 5.2
2021 02 08 11:00 266.5 0.0 0.00 14.4 -9.8 77.53 5.8
2021 02 08 12:00 266.5 0.0 0.00 14.9 -9.5 77.36 6.0
2021 02 08 13:00 266.3 0.0 0.00 15.6 -9.1 76.52 5.0
2021 02 08 14:00 266.1 0.0 0.00 16.2 -8.8 75.93 5.3
2021 02 08 15:00 266.1 0.0 0.00 17.5 -8.1 75.79 5.7
2021 02 08 16:00 266.4 0.0 0.00 16.8 -8.5 80.1 6.4
2021 02 08 17:00 266.7 0.0 0.00 16.3 -8.8 79.81 7.3
2021 02 08 18:00 267.6 0.0 0.00 15.3 -9.3 82.7 7.1
2021 02 08 19:00 268.0 0.0 0.00 13.6 -10.2 85.3 6.9
2021 02 08 20:00 270.9 0.0 0.00 12.6 -10.8 85.7 5.6
2021 02 08 21:00 271.9 0.0 0.00 12.1 -11.1 85.6 4.3
2021 02 08 22:00 271.9 0.0 0.00 12.1 -11.0 85.4 4.4
2021 02 08 23:00 271.9 0.0 0.00 12.1 -11.1 85.5 4.4
2021 02 08 24:00 271.9 0.0 0.00 12.0 -11.1 85.8 4.5
2021 02 09 1:00 271.9 0.0 0.00 12.3 -10.9 84.6 4.3
2021 02 09 2:00 271.9 0.0 0.00 12.3 -11.0 83 5.5
2021 02 09 3:00 271.6 0.0 0.00 11.7 -11.3 81.8 5.8
2021 02 09 4:00 271.2 0.0 0.00 11.3 -11.5 81.7 4.8
2021 02 09 5:00 271.2 0.0 0.00 11.0 -11.7 82 4.9
2021 02 09 6:00 271.3 0.0 0.00 10.1 -12.2 81.6 5.6
2021 02 09 7:00 271.3 0.0 0.00 10.0 -12.2 80.6 5.1
2021 02 09 8:00 271.3 0.0 0.00 10.1 -12.2 79.71 5.1
2021 02 09 9:00 270.6 0.0 0.00 10.9 -11.7 77.68 5.0
2021 02 09 10:00 270.3 0.0 0.00 12.5 -10.8 73.7 5.5
2021 02 09 11:00 269.6 0.0 0.00 13.6 -10.3 71.61 5.9
2021 02 09 12:00 268.8 0.0 0.00 15.3 -9.3 68.92 5.5
2021 02 09 13:00 268.3 0.0 0.00 16.3 -8.7 67.23 6.1
2021 02 09 14:00 267.8 0.0 0.00 17.4 -8.1 65.61 5.4
2021 02 09 15:00 267.6 0.0 0.00 18.6 -7.5 62.89 5.4
2021 02 09 16:00 267.4 0.0 0.00 18.0 -7.8 64.16 5.6
2021 02 09 17:00 266.6 0.0 0.00 16.9 -8.4 64.76 6.2
2021 02 09 18:00 266.4 0.0 0.00 16.3 -8.7 65.85 5.1
2021 02 09 19:00 266.4 0.0 0.00 15.3 -9.3 65.08 5.6
2021 02 09 20:00 266.4 0.0 0.00 14.7 -9.6 65.76 5.6
2021 02 09 21:00 266.4 0.0 0.00 14.1 -10.0 65.96 5.7
2021 02 09 22:00 266.3 0.0 0.00 13.8 -10.1 65.76 5.2
2021 02 09 23:00 266.0 0.0 0.00 13.6 -10.2 65.24 5.7
2021 02 09 24:00 265.8 0.0 0.00 13.5 -10.3 63.68 6.2
2021 02 10 1:00 265.8 0.0 0.00 13.4 -10.4 60.44 6.2
2021 02 10 2:00 265.8 0.0 0.00 13.3 -10.4 61.16 6.9
2021 02 10 3:00 266.4 0.0 0.00 12.8 -10.7 65.97 6.5
2021 02 10 4:00 266.9 0.0 0.00 11.8 -11.3 79.49 5.2
2021 02 10 5:00 267.2 0.0 0.00 11.0 -11.7 82.9 5.5
2021 02 10 6:00 266.8 0.0 0.00 10.9 -11.7 79.5 6.3
2021 02 10 7:00 266.5 0.0 0.00 11.5 -11.4 73.72 6.0
2021 02 10 8:00 266.5 0.0 0.00 11.8 -11.2 72.08 6.1
2021 02 10 9:00 266.5 0.0 0.00 12.2 -11.0 76.4 6.5
2021 02 10 10:00 266.6 0.0 0.00 13.2 -10.4 78.76 6.4
2021 02 10 11:00 266.7 0.0 0.00 14.0 -10.0 79.97 6.1
2021 02 10 12:00 266.5 0.0 0.00 14.1 -10.0 78.56 6.5
2021 02 10 13:00 266.0 0.0 0.00 15.1 -9.4 72.52 6.6
2021 02 10 14:00 265.8 0.0 0.00 16.2 -8.8 68.29 6.2
2021 02 10 15:00 267.0 0.0 0.00 15.7 -9.0 74.3 6.9
2021 02 10 16:00 266.9 0.0 0.00 15.2 -9.3 78.07 7.4
2021 02 10 17:00 266.6 0.0 0.00 15.5 -9.2 75.39 6.7
2021 02 10 18:00 266.5 0.0 0.00 15.1 -9.4 74.15 7.6
2021 02 10 19:00 266.5 0.0 0.00 14.8 -9.6 74.55 7.5
2021 02 10 20:00 266.6 0.0 0.00 14.8 -9.6 75.22 6.0
2021 02 10 21:00 266.8 0.0 0.00 14.4 -9.8 75.13 6.6
2021 02 10 22:00 266.9 0.0 0.00 13.8 -10.1 76.93 6.3
2021 02 10 23:00 267.8 0.0 0.00 12.8 -10.6 85.2 5.4
2021 02 10 24:00 267.4 0.0 0.00 12.6 -10.8 83.4 6.2
2021 02 11 1:00 267.2 0.0 0.00 12.2 -11.0 80.5 6.5
2021 02 11 2:00 267.2 0.0 0.00 11.6 -11.4 79.57 6.5
2021 02 11 3:00 267.2 0.0 0.00 11.5 -11.4 78.97 6.4
2021 02 11 4:00 267.2 0.0 0.00 11.7 -11.3 78.01 6.0
2021 02 11 5:00 267.2 0.0 0.00 12.0 -11.1 77.38 5.2
2021 02 11 6:00 266.8 0.0 0.00 12.1 -11.1 74.86 5.8
2021 02 11 7:00 266.5 0.0 0.00 12.3 -10.9 70.94 5.9
2021 02 11 8:00 266.2 0.0 0.00 12.2 -11.0 65.24 7.7
2021 02 11 9:00 266.0 0.0 0.00 12.1 -11.0 67.3 6.4
2021 02 11 10:00 265.8 0.0 0.00 13.2 -10.4 67.81 5.8
2021 02 11 11:00 265.7 0.0 0.00 14.5 -9.7 68.37 6.7
2021 02 11 12:00 265.1 0.0 0.25 19.6 -6.9 59.22 6.1
2021 02 11 13:00 265.0 0.0 0.00 20.1 -6.6 57.39 8.1
2021 02 11 14:00 265.0 0.0 0.00 19.7 -6.8 55.77 7.0
2021 02 11 15:00 265.0 0.0 0.00 19.4 -7.0 58.31 7.5
2021 02 11 16:00 265.2 0.0 0.00 18.9 -7.3 59.5 7.0
2021 02 11 17:00 265.7 0.0 0.00 18.4 -7.5 60.36 6.3
2021 02 11 18:00 265.8 0.0 0.00 17.7 -8.0 61.61 6.3
2021 02 11 19:00 265.8 0.0 0.00 17.0 -8.3 62.6 6.3
2021 02 11 20:00 265.8 0.0 0.00 16.3 -8.7 61.93 6.4
2021 02 11 21:00 265.8 0.0 0.00 15.3 -9.3 62.46 6.5
2021 02 11 22:00 265.8 0.0 0.00 13.7 -10.2 63.47 9.4
2021 02 11 23:00 265.8 0.0 0.00 12.6 -10.8 67.85 6.2
2021 02 11 24:00 265.8 0.0 0.00 12.6 -10.8 69.38 5.5
2021 02 12 1:00 266.4 0.0 0.00 12.6 -10.8 71.19 6.2
2021 02 12 2:00 266.3 0.0 0.00 11.8 -11.3 70.09 10.1
2021 02 12 3:00 265.8 0.0 0.00 10.2 -12.1 67.54 9.4
2021 02 12 4:00 266.3 0.0 0.00 9.5 -12.5 70.01 8.7
2021 02 12 5:00 266.6 0.0 0.00 8.9 -12.8 71.72 8.8
2021 02 12 6:00 266.6 0.0 0.00 8.2 -13.2 72.5 8.8
2021 02 12 7:00 266.6 0.0 0.00 7.6 -13.6 73.17 8.2
2021 02 12 8:00 266.5 0.0 0.00 7.3 -13.8 71.37 6.3
2021 02 12 9:00 265.9 0.0 0.00 7.6 -13.6 69.9 7.3
2021 02 12 10:00 265.5 0.0 0.00 8.7 -12.9 66.6 9.3
2021 02 12 11:00 265.2 0.0 0.00 10.1 -12.2 64.42 10.1
2021 02 12 12:00 265.1 0.0 0.00 14.1 -10.0 54.34 10.1
2021 02 12 13:00 265.0 0.0 0.00 15.9 -8.9 50.08 9.0
2021 02 12 14:00 265.0 0.0 0.00 15.9 -9.0 51.49 9.9
2021 02 12 15:00 265.1 0.0 0.00 14.4 -9.8 50.73 10.2
2021 02 12 16:00 265.1 0.0 0.00 12.9 -10.6 49.89 10.1
2021 02 12 17:00 265.1 0.0 0.00 12.1 -11.0 50.99 8.5
2021 02 12 18:00 265.1 0.0 0.00 9.7 -12.4 55.27 7.8
2021 02 12 19:00 265.2 0.0 0.00 8.0 -13.4 58.18 6.8
2021 02 12 20:00 265.2 0.0 0.00 6.5 -14.2 59.36 7.2
2021 02 12 21:00 265.2 0.0 0.00 5.4 -14.8 59.33 7.1
2021 02 12 22:00 265.3 0.0 0.00 4.4 -15.3 59.93 7.6
2021 02 12 23:00 265.3 0.0 0.00 4.4 -15.3 60.31 6.0
2021 02 12 24:00 265.3 0.0 0.00 4.3 -15.4 61.92 5.8
2021 02 13 1:00 265.6 0.0 0.00 3.8 -15.7 65.96 7.6
2021 02 13 2:00 265.9 0.0 0.00 2.9 -16.2 68.11 7.9
2021 02 13 3:00 266.0 0.0 0.00 2.2 -16.6 69.17 7.9
2021 02 13 4:00 266.0 0.0 0.00 1.6 -16.9 71.01 9.1
2021 02 13 5:00 266.0 0.0 0.00 1.1 -17.2 73.22 8.2
2021 02 13 6:00 266.0 0.0 0.00 0.6 -17.5 73.85 7.5
2021 02 13 7:00 266.0 0.0 0.00 0.4 -17.6 74.97 7.8
2021 02 13 8:00 266.0 0.0 0.00 -0.0 -17.8 75.64 8.2
2021 02 13 9:00 266.0 0.0 0.00 0.3 -17.6 75.49 9.1
2021 02 13 10:00 265.7 0.0 0.00 0.6 -17.4 72.37 9.4
2021 02 13 11:00 265.3 0.0 0.00 2.7 -16.3 69.06 9.8
2021 02 13 12:00 265.2 0.0 0.00 4.0 -15.5 67.82 9.0
2021 02 13 13:00 265.2 0.0 0.00 5.6 -14.7 65.72 9.1
2021 02 13 14:00 265.1 0.0 0.00 6.1 -14.4 64.96 10.8
2021 02 13 15:00 265.1 0.0 0.00 6.6 -14.1 63.4 11.0
2021 02 13 16:00 265.1 0.0 0.00 7.9 -13.4 60.01 10.4
2021 02 13 17:00 265.1 0.0 0.00 7.8 -13.4 58.11 11.4
2021 02 13 18:00 265.2 0.0 0.00 6.8 -14.0 58.07 9.4
2021 02 13 19:00 265.3 0.0 0.00 5.1 -15.0 60.05 6.8
2021 02 13 20:00 265.3 0.0 0.00 3.2 -16.0 60.78 8.7
2021 02 13 21:00 265.3 0.0 0.00 2.0 -16.7 61.67 7.0
2021 02 13 22:00 265.4 0.0 0.00 1.0 -17.2 61.26 8.9
2021 02 13 23:00 265.5 0.0 0.00 -0.2 -17.9 62.44 7.3
2021 02 13 24:00 265.6 0.0 0.00 -1.2 -18.4 63.1 6.5
2021 02 14 1:00 266.0 0.0 0.00 -1.9 -18.8 63.68 6.5
2021 02 14 2:00 265.7 0.0 0.00 -2.4 -19.1 62.54 6.9
2021 02 14 3:00 266.0 0.0 0.00 -2.9 -19.4 62.88 6.3
2021 02 14 4:00 265.7 0.0 0.00 -3.3 -19.6 61.72 5.9
2021 02 14 5:00 265.4 0.0 0.00 -3.2 -19.6 60.01 5.6
2021 02 14 6:00 265.4 0.0 0.00 -2.8 -19.3 58.38 6.1
2021 02 14 7:00 265.4 0.0 0.00 -2.2 -19.0 57.27 6.6
2021 02 14 8:00 265.3 0.0 0.00 -1.5 -18.6 55.95 7.6
2021 02 14 9:00 265.3 0.0 0.00 -0.4 -18.0 53.34 7.2
2021 02 14 10:00 265.2 0.0 0.00 1.0 -17.2 56.86 7.8
2021 02 14 11:00 265.3 0.0 0.00 1.6 -16.9 66.34 8.2
2021 02 14 12:00 265.2 0.0 0.00 3.0 -16.1 61.32 10.7
2021 02 14 13:00 265.2 0.0 0.00 2.8 -16.2 60.19 11.1
2021 02 14 14:00 265.2 0.0 0.00 2.7 -16.3 59.33 9.9
2021 02 14 15:00 265.2 0.0 0.00 3.4 -15.9 57.36 8.7
2021 02 14 16:00 265.2 0.0 0.00 3.4 -15.9 54.18 8.7
2021 02 14 17:00 265.3 0.0 0.00 2.8 -16.2 55.35 8.3
2021 02 14 18:00 265.5 0.0 0.00 1.6 -16.9 63.15 8.2
2021 02 14 19:00 265.6 0.0 0.00 1.2 -17.1 64.65 7.4
2021 02 14 20:00 265.3 0.0 0.00 1.0 -17.2 61.22 7.9
2021 02 14 21:00 265.5 0.0 0.00 0.4 -17.6 64.4 8.0
2021 02 14 22:00 266.0 0.0 0.00 -0.7 -18.1 72.6 7.5
2021 02 14 23:00 266.0 0.0 0.00 -1.5 -18.6 75.48 7.2
2021 02 14 24:00 266.0 0.0 0.00 -2.1 -18.9 72.73 7.7
2021 02 15 1:00 266.0 0.0 0.00 -2.5 -19.2 71.42 7.9
2021 02 15 2:00 266.0 0.0 0.00 -2.8 -19.3 72.27 8.2
2021 02 15 3:00 266.0 0.0 0.00 -3.0 -19.4 73.96 7.5
2021 02 15 4:00 266.1 0.0 0.00 -3.3 -19.6 77.57 7.8
2021 02 15 5:00 266.4 0.0 0.00 -3.5 -19.7 78.7 6.0
2021 02 15 6:00 266.5 0.0 0.00 -3.5 -19.7 78.77 5.4
2021 02 15 7:00 266.0 0.0 0.00 -3.2 -19.6 77.06 6.7
2021 02 15 8:00 266.0 0.0 0.00 -2.7 -19.3 74.87 7.1
2021 02 15 9:00 266.0 0.0 0.00 -1.8 -18.8 73.38 7.1
2021 02 15 10:00 266.0 0.0 0.00 -1.1 -18.4 73.46 7.5
2021 02 15 11:00 266.0 0.0 0.00 -0.3 -18.0 75.84 7.0
2021 02 15 12:00 266.0 0.0 0.00 0.2 -17.7 74.59 8.5
2021 02 15 13:00 266.0 0.0 0.00 0.3 -17.6 76.11 9.2
2021 02 15 14:00 266.0 0.0 0.00 0.2 -17.7 80.6 10.3
2021 02 15 15:00 265.9 0.0 0.00 0.5 -17.5 80.2 11.3
2021 02 15 16:00 266.0 0.0 0.00 0.2 -17.7 79.76 10.3
2021 02 15 17:00 266.0 0.0 0.00 -0.4 -18.0 80.8 11.2
2021 02 15 18:00 266.5 0.0 0.00 -0.7 -18.1 81.3 10.8
2021 02 15 19:00 266.5 0.0 0.00 -0.7 -18.2 81.3 10.7
2021 02 15 20:00 266.2 0.0 0.00 -0.9 -18.3 80.9 9.4
2021 02 15 21:00 266.0 0.0 0.00 -1.6 -18.7 79.72 9.2
2021 02 15 22:00 266.0 0.0 0.00 -2.6 -19.2 78.39 8.5
2021 02 15 23:00 266.0 0.0 0.00 -3.2 -19.5 77.37 8.2
2021 02 15 24:00 266.1 0.0 0.00 -3.2 -19.5 77.52 7.7
2021 02 16 1:00 266.0 0.0 0.00 -2.6 -19.2 76.92 8.2
2021 02 16 2:00 266.0 0.0 0.00 -3.3 -19.6 76.48 8.0
2021 02 16 3:00 266.1 0.0 0.00 -4.2 -20.1 76.66 7.3
2021 02 16 4:00 266.1 0.0 0.00 -4.6 -20.3 76.88 7.0
2021 02 16 5:00 266.6 0.0 0.00 -5.7 -21.0 77.1 5.0
2021 02 16 6:00 267.3 0.0 0.00 -6.3 -21.3 77.29 5.0
2021 02 16 7:00 267.5 0.0 0.00 -6.0 -21.1 77.23 4.4
2021 02 16 8:00 266.4 0.0 0.00 -3.8 -19.9 75.16 6.4
2021 02 16 9:00 265.4 0.0 0.00 -3.0 -19.4 73.79 7.2
2021 02 16 10:00 265.3 0.0 0.00 -1.7 -18.7 70.51 6.9
2021 02 16 11:00 264.8 0.0 0.00 0.7 -17.4 67.98 6.3
2021 02 16 12:00 264.2 0.0 0.00 3.7 -15.7 64.23 6.0
2021 02 16 13:00 264.1 0.0 0.00 6.0 -14.5 61.2 6.4
2021 02 16 14:00 264.4 0.0 0.00 8.1 -13.3 58.84 7.2
2021 02 16 15:00 264.6 0.0 0.00 9.7 -12.4 56.68 6.6
2021 02 16 16:00 265.0 0.0 0.00 11.5 -11.4 56.17 6.4
2021 02 16 17:00 265.1 0.0 0.00 13.6 -10.3 51.26 4.3
2021 02 16 18:00 265.1 0.0 0.00 12.3 -11.0 50.99 3.2
2021 02 16 19:00 265.2 0.0 0.00 8.2 -13.2 57.84 2.3
2021 02 16 20:00 265.9 0.0 0.00 5.9 -14.5 63.17 0.0
2021 02 16 21:00 266.4 0.0 0.00 2.6 -16.3 69.46 0.0
2021 02 16 22:00 266.9 0.0 0.00 -0.5 -18.1 75.7 0.5
2021 02 16 23:00 267.4 0.0 0.00 -2.8 -19.3 77.96 0.2
2021 02 16 24:00 268.0 0.0 0.00 -2.9 -19.4 77.88 0.0
2021 02 17 1:00 268.1 0.0 0.00 -3.7 -19.8 77.55 0.0
2021 02 17 2:00 268.1 0.0 0.00 -2.7 -19.3 78.26 0.0
2021 02 17 3:00 268.5 0.0 0.00 -3.9 -19.9 80.5 0.0
2021 02 17 4:00 268.8 0.0 0.00 -4.1 -20.1 79.72 0.0
2021 02 17 5:00 268.8 0.0 0.00 -0.7 -18.2 80.3 0.0
2021 02 17 6:00 268.1 0.0 0.00 2.0 -16.7 77.34 0.0
2021 02 17 7:00 267.3 0.0 0.00 3.8 -15.7 76.72 0.4
2021 02 17 8:00 266.2 0.0 0.00 4.6 -15.2 76.64 0.3
2021 02 17 9:00 265.9 0.0 0.00 6.1 -14.4 78.36 1.8
2021 02 17 10:00 265.7 0.0 0.00 7.9 -13.4 83.1 3.0
2021 02 17 11:00 265.2 0.0 0.00 9.3 -12.6 82 5.4
2021 02 17 12:00 265.1 0.0 0.00 10.9 -11.7 78.39 5.3
2021 02 17 13:00 265.1 0.0 0.00 12.3 -10.9 76.02 5.4
2021 02 17 14:00 265.1 0.0 0.00 13.9 -10.0 73.61 5.0
2021 02 17 15:00 265.1 0.0 0.00 15.2 -9.3 72.06 4.1
2021 02 17 16:00 265.7 0.0 0.00 15.3 -9.3 76.48 4.8
2021 02 17 17:00 266.2 0.0 0.00 15.0 -9.4 79.55 4.9
2021 02 17 18:00 266.5 0.0 0.00 14.8 -9.5 79.87 3.7
2021 02 17 19:00 266.5 0.0 0.00 14.9 -9.5 81.6 4.6
2021 02 17 20:00 266.5 0.0 0.00 14.8 -9.6 81 3.6
2021 02 17 21:00 266.6 0.0 0.00 14.9 -9.5 81 2.9
2021 02 17 22:00 267.1 0.0 0.00 15.1 -9.4 81.8 2.9
2021 02 17 23:00 266.6 0.0 0.00 15.3 -9.3 80.8 3.7
2021 02 17 24:00 266.8 0.0 0.00 15.3 -9.3 81 4.0
2021 02 18 1:00 267.1 0.0 0.00 15.1 -9.4 81.3 4.1
2021 02 18 2:00 267.2 0.0 0.00 14.9 -9.5 81.2 3.5
2021 02 18 3:00 267.2 0.0 0.00 14.6 -9.7 81.8 3.1
2021 02 18 4:00 267.2 0.0 0.00 14.2 -9.9 83.2 3.5
2021 02 18 5:00 267.4 0.0 0.00 13.5 -10.3 83.5 3.4
2021 02 18 6:00 268.5 0.0 0.00 11.3 -11.5 84.7 3.4
2021 02 18 7:00 270.7 0.0 0.00 9.2 -12.7 86.4 2.6
2021 02 18 8:00 272.0 0.0 0.00 9.8 -12.4 86.5 3.7
2021 02 18 9:00 268.2 0.0 0.00 12.4 -10.9 78.52 2.0
2021 02 18 10:00 264.8 0.0 0.00 13.8 -10.1 76.46 4.3
2021 02 18 11:00 265.1 0.0 0.00 17.3 -8.2 70.95 8.5
2021 02 18 12:00 265.0 0.0 0.00 19.1 -7.2 67.27 8.4
2021 02 18 13:00 264.8 0.0 0.00 20.7 -6.3 62.61 6.6
2021 02 18 14:00 264.9 0.1 1.52 22.1 -5.5 59.82 8.1
2021 02 18 15:00 264.9 0.0 0.00 23.2 -4.9 54.15 6.9
2021 02 18 16:00 265.0 0.0 0.00 24.0 -4.4 52.71 6.6
2021 02 18 17:00 265.0 0.0 0.00 21.8 -5.6 57 6.9
2021 02 18 18:00 265.1 0.0 0.00 19.5 -6.9 59.66 6.8
2021 02 18 19:00 265.8 0.0 0.00 17.2 -8.2 65.16 5.3
2021 02 18 20:00 266.2 0.0 0.00 15.0 -9.5 68.7 3.5
2021 02 18 21:00 266.5 0.0 0.00 13.4 -10.3 71.26 3.5
2021 02 18 22:00 267.3 0.0 0.00 10.7 -11.9 75.1 0.8
2021 02 18 23:00 269.1 0.0 0.00 6.9 -13.9 83.7 0.0
2021 02 18 24:00 270.7 0.0 0.00 7.3 -13.7 83.5 0.2
2021 02 19 1:00 271.8 0.0 0.00 5.0 -15.0 85 0.1
2021 02 19 2:00 272.7 0.0 0.00 3.9 -15.6 85.4 0.1
2021 02 19 3:00 273.7 0.0 0.00 2.7 -16.3 84.5 0.1
2021 02 19 4:00 274.6 0.0 0.00 0.7 -17.4 84.2 0.6
2021 02 19 5:00 275.2 0.0 0.00 0.5 -17.5 82.7 0.2
2021 02 19 6:00 275.7 0.0 0.00 -1.6 -18.7 82.6 0.0
2021 02 19 7:00 276.3 0.0 0.00 -3.7 -19.8 81.8 0.6
2021 02 19 8:00 276.3 0.0 0.00 -0.5 -18.1 82.5 1.8
2021 02 19 9:00 273.8 0.0 0.00 9.9 -12.3 77.17 0.6
2021 02 19 10:00 266.0 0.0 0.00 20.4 -6.4 54.25 1.8
2021 02 19 11:00 264.1 0.0 0.00 20.1 -6.6 54.27 4.6
2021 02 19 12:00 263.4 0.0 0.00 22.0 -5.6 51.32 4.9
2021 02 19 13:00 263.1 0.0 0.76 26.9 -2.9 44.03 3.9
2021 02 19 14:00 263.2 0.0 0.25 27.6 -2.4 44.24 5.1
2021 02 19 15:00 263.5 0.0 0.00 29.5 -1.4 41.86 5.0
2021 02 19 16:00 263.4 0.0 0.00 29.6 -1.3 40.15 2.6
2021 02 19 17:00 263.6 0.0 0.00 31.1 -0.5 37.89 2.3
2021 02 19 18:00 264.5 0.0 0.00 28.6 -1.9 41.23 1.0
2021 02 19 19:00 265.2 0.0 0.00 25.2 -3.8 50.2 0.1
2021 02 19 20:00 266.6 0.0 0.00 20.8 -6.2 59.75 0.0
2021 02 19 21:00 266.5 0.0 0.00 19.7 -6.8 61.21 0.0
2021 02 19 22:00 268.2 0.0 0.00 15.2 -9.4 73.27 0.0
2021 02 19 23:00 269.0 0.0 0.00 13.2 -10.5 76.2 0.0
2021 02 19 24:00 270.2 0.0 0.00 11.3 -11.5 79.38 0.2
2021 02 20 1:00 271.0 0.0 0.00 8.7 -13.0 81.5 0.0
2021 02 20 2:00 272.0 0.0 0.00 7.6 -13.5 82.7 0.0
2021 02 20 3:00 272.1 0.0 0.00 7.9 -13.4 83.3 0.0
2021 02 20 4:00 271.9 0.0 0.00 10.8 -11.8 82.1 0.0
2021 02 20 5:00 271.3 0.0 0.00 11.5 -11.4 80.6 0.0
2021 02 20 6:00 271.3 0.0 0.00 11.3 -11.5 80.9 0.0
2021 02 20 7:00 272.1 0.0 0.00 10.4 -12.0 84 0.0
2021 02 20 8:00 272.2 0.0 0.00 11.2 -11.5 82.3 0.0
2021 02 20 9:00 265.6 0.0 0.00 16.0 -8.9 74.72 2.0
2021 02 20 10:00 263.3 0.0 0.00 22.2 -5.5 63.3 1.5
2021 02 20 11:00 262.2 0.0 0.00 28.8 -1.8 52.33 1.8
2021 02 20 12:00 262.0 0.0 0.00 33.1 0.6 46.2 3.7
2021 02 20 13:00 262.1 0.0 0.00 35.8 2.1 41.96 5.0
2021 02 20 14:00 262.7 0.0 0.00 37.3 2.9 41.18 6.1
2021 02 20 15:00 262.8 0.0 0.00 39.0 3.9 39.41 6.5
2021 02 20 16:00 263.0 0.0 0.00 40.0 4.4 38.51 5.8
2021 02 20 17:00 263.4 0.0 0.00 40.7 4.8 38.14 4.3
2021 02 20 18:00 264.2 0.0 0.00 37.2 2.9 48.11 5.8
2021 02 20 19:00 264.9 0.0 0.00 33.9 1.1 55.5 4.7
2021 02 20 20:00 265.2 0.0 0.00 31.4 -0.3 60.97 3.6
2021 02 20 21:00 265.7 0.0 0.00 29.7 -1.3 63.82 2.4
2021 02 20 22:00 265.7 0.0 0.00 29.0 -1.7 64.45 3.7
2021 02 20 23:00 265.7 0.0 0.00 28.4 -2.0 65.24 4.4
2021 02 20 24:00 265.7 0.0 0.00 27.4 -2.5 66.87 3.9
2021 02 21 1:00 265.7 0.0 0.00 27.3 -2.6 67.15 3.9
2021 02 21 2:00 265.7 0.0 0.00 27.3 -2.6 67.26 3.5
2021 02 21 3:00 265.7 0.0 0.00 27.7 -2.4 66.82 3.4
2021 02 21 4:00 265.7 0.0 0.00 27.3 -2.6 68.07 3.8
2021 02 21 5:00 266.1 0.0 0.00 26.0 -3.3 71.55 3.7
2021 02 21 6:00 266.4 0.0 0.00 24.9 -4.0 73.66 4.4
2021 02 21 7:00 266.3 0.0 0.00 24.6 -4.1 71.82 5.3
2021 02 21 8:00 265.2 0.0 0.00 25.4 -3.7 67.46 5.0
2021 02 21 9:00 265.0 0.0 0.00 28.4 -2.0 62.88 5.3
2021 02 21 10:00 264.2 0.0 0.00 35.9 2.1 51.43 8.2
2021 02 21 11:00 263.3 0.0 0.00 40.9 4.9 44.59 9.5
2021 02 21 12:00 262.8 0.0 0.00 45.7 7.6 35.7 12.7
2021 02 21 13:00 262.8 0.0 0.00 45.8 7.7 32.77 10.5
2021 02 21 14:00 264.0 0.0 0.00 44.7 7.0 50.01 12.0
2021 02 21 15:00 264.8 0.0 0.00 44.2 6.8 58.49 12.1
2021 02 21 16:00 264.9 0.0 0.00 43.4 6.3 63.97 10.0
2021 02 21 17:00 266.0 0.0 0.00 42.0 5.6 78.46 7.2
2021 02 21 18:00 253.9 0.0 0.00 40.1 4.5 90.6 7.5
2021 02 21 19:00 215.2 0.0 0.00 39.6 4.2 93.8 8.7
2021 02 21 20:00 222.5 0.0 0.00 39.4 4.1 93.3 7.7
2021 02 21 21:00 272.2 0.0 0.00 39.0 3.9 87.7 5.9
2021 02 21 22:00 274.2 0.0 0.00 39.1 3.9 81.5 9.6
2021 02 21 23:00 272.2 0.0 0.00 38.1 3.4 75.95 9.6
2021 02 21 24:00 268.8 0.0 0.00 36.8 2.7 72.12 10.2
2021 02 22 1:00 267.8 0.0 0.00 36.1 2.3 74.17 10.0
2021 02 22 2:00 267.6 0.0 0.00 35.2 1.8 73.05 11.8
2021 02 22 3:00 267.6 0.0 0.00 34.7 1.5 73.03 11.0
2021 02 22 4:00 267.6 0.0 0.00 34.2 1.2 74.91 8.5
2021 02 22 5:00 267.7 0.0 0.00 34.1 1.2 75.22 8.8
2021 02 22 6:00 267.7 0.0 0.00 34.0 1.1 75.79 8.7
2021 02 22 7:00 268.4 0.0 0.00 33.6 0.9 77.39 6.1
2021 02 22 8:00 268.2 0.0 0.00 32.5 0.3 81.2 1.4
2021 02 22 9:00 266.1 0.0 0.00 34.5 1.4 76.08 4.8
2021 02 22 10:00 265.3 0.0 0.00 37.6 3.1 67.21 5.6
2021 02 22 11:00 264.7 0.0 0.00 41.3 5.2 56.95 6.7
2021 02 22 12:00 264.1 0.0 0.00 44.4 6.9 49.21 8.5
2021 02 22 13:00 263.4 0.0 0.00 47.4 8.6 40.84 9.1
2021 02 22 14:00 263.3 0.0 0.00 49.2 9.6 36.96 10.9
2021 02 22 15:00 263.3 0.0 0.00 50.1 10.1 35.43 10.3
2021 02 22 16:00 263.4 0.0 0.00 51.8 11.0 34.8 9.8
2021 02 22 17:00 262.9 0.0 0.00 52.1 11.2 32.63 9.6
2021 02 22 18:00 263.2 0.0 0.00 50.8 10.5 33.53 7.5
2021 02 22 19:00 263.4 0.0 0.00 48.8 9.3 35.87 6.9
2021 02 22 20:00 263.5 0.0 0.00 48.0 8.9 38 9.1
2021 02 22 21:00 263.7 0.0 0.00 47.6 8.7 42.52 8.6
2021 02 22 22:00 264.2 0.0 0.00 48.0 8.9 45.68 10.1
2021 02 22 23:00 264.2 0.0 0.00 48.5 9.2 47.22 12.6
2021 02 22 24:00 264.6 0.0 0.00 48.1 8.9 49.52 12.1
2021 02 23 1:00 264.8 0.0 0.00 48.0 8.9 50.01 10.4
2021 02 23 2:00 264.8 0.0 0.00 47.0 8.3 52.23 9.2
2021 02 23 3:00 264.9 0.0 0.00 46.0 7.8 53.71 8.4
2021 02 23 4:00 264.9 0.0 0.00 45.2 7.3 54.62 7.8
2021 02 23 5:00 265.1 0.0 0.00 43.2 6.2 58.57 6.3
2021 02 23 6:00 265.8 0.0 0.00 40.9 5.0 62.83 4.0
2021 02 23 7:00 267.0 0.0 0.00 38.4 3.6 68.22 2.8
2021 02 23 8:00 265.7 0.0 0.00 39.0 3.9 68.17 1.9
2021 02 23 9:00 264.2 0.0 0.00 44.5 6.9 59.59 4.6
2021 02 23 10:00 263.5 0.0 0.00 48.7 9.3 53.18 5.2
2021 02 23 11:00 262.6 0.0 0.00 52.1 11.1 45.39 2.8
2021 02 23 12:00 262.1 0.0 0.00 55.6 13.1 40.28 4.2
2021 02 23 13:00 262.2 0.0 0.00 58.2 14.6 37.7 5.6
2021 02 23 14:00 262.2 0.0 0.00 60.3 15.7 36.16 5.7
2021 02 23 15:00 262.1 0.0 0.00 62.7 17.1 33.38 4.7
2021 02 23 16:00 262.0 0.0 0.00 64.4 18.0 30.1 5.5
2021 02 23 17:00 262.0 0.0 0.00 64.7 18.2 28.84 5.1
2021 02 23 18:00 262.3 0.0 0.00 62.6 17.0 30.67 2.0
2021 02 23 19:00 263.0 0.0 0.00 57.3 14.1 37.9 2.7
2021 02 23 20:00 264.2 0.0 0.00 53.6 12.0 50.42 2.9
2021 02 23 21:00 264.8 0.0 0.00 50.5 10.3 56.5 2.3
2021 02 23 22:00 264.8 0.0 0.00 51.5 10.8 50.56 4.7
2021 02 23 23:00 264.8 0.0 0.00 52.0 11.1 49.77 4.3
2021 02 23 24:00 264.8 0.0 0.00 50.9 10.5 51.41 1.9
2021 02 24 1:00 264.9 0.0 0.00 52.1 11.2 50.88 4.8
2021 02 24 2:00 264.8 0.0 0.00 52.2 11.2 52.64 5.9
2021 02 24 3:00 264.8 0.0 0.00 53.1 11.7 51.35 8.3
2021 02 24 4:00 264.8 0.0 0.00 53.0 11.7 51.3 6.4
2021 02 24 5:00 264.8 0.0 0.00 51.0 10.5 54.3 3.0
2021 02 24 6:00 265.5 0.0 0.00 47.6 8.6 60.55 2.4
2021 02 24 7:00 265.7 0.0 0.00 44.6 7.0 64.17 5.5
2021 02 24 8:00 264.9 0.0 0.00 44.8 7.1 60.86 8.0
2021 02 24 9:00 264.8 0.0 0.00 47.0 8.3 57.36 12.0
2021 02 24 10:00 264.3 0.0 0.00 48.7 9.3 54.93 12.9
2021 02 24 11:00 263.6 0.0 0.00 51.0 10.5 48.92 12.5
2021 02 24 12:00 263.4 0.0 0.00 52.3 11.3 44.06 12.5
2021 02 24 13:00 263.2 0.0 0.00 53.5 11.9 42.74 12.8
2021 02 24 14:00 263.4 0.0 0.00 53.3 11.8 46.07 12.0
2021 02 24 15:00 263.4 0.0 0.00 53.6 12.0 45.53 12.4
2021 02 24 16:00 263.4 0.0 0.00 52.6 11.4 47.89 10.8
2021 02 24 17:00 263.6 0.0 0.00 50.6 10.4 49.85 9.8
2021 02 24 18:00 264.3 0.0 0.00 47.6 8.7 54.24 8.2
2021 02 24 19:00 264.8 0.0 0.00 43.8 6.6 59.02 7.6
2021 02 24 20:00 265.1 0.0 0.00 40.6 4.8 66.07 6.3
2021 02 24 21:00 266.1 0.0 0.00 37.9 3.3 72.24 5.4
2021 02 24 22:00 266.3 0.0 0.00 36.4 2.4 73.54 5.9
2021 02 24 23:00 267.2 0.0 0.00 34.5 1.4 76.15 3.0
2021 02 24 24:00 268.3 0.0 0.00 33.2 0.6 79.32 1.5
2021 02 25 1:00 266.8 0.0 0.00 31.9 -0.1 81.2 2.3
2021 02 25 2:00 265.8 0.0 0.00 30.8 -0.6 83 3.1
2021 02 25 3:00 257.8 0.0 0.00 30.0 -1.1 84.6 1.7
2021 02 25 4:00 254.3 0.0 0.00 29.4 -1.5 85.7 0.3
2021 02 25 5:00 272.4 0.0 0.00 28.2 -2.1 87.9 1.2
2021 02 25 6:00 270.6 0.0 0.00 28.0 -2.2 88.6 3.3
2021 02 25 7:00 267.5 0.0 0.00 28.2 -2.1 88.2 3.8
2021 02 25 8:00 261.6 0.0 0.00 28.3 -2.1 87.7 1.6
2021 02 25 9:00 266.9 0.0 0.00 31.6 -0.2 81.4 3.0
2021 02 25 10:00 264.8 0.0 0.00 35.3 1.8 73.79 1.4
2021 02 25 11:00 263.5 0.0 0.00 39.0 3.9 63.06 1.2
2021 02 25 12:00 262.7 0.0 0.00 41.1 5.0 56.27 2.0
2021 02 25 13:00 262.6 0.0 0.00 44.0 6.7 45.32 3.3
2021 02 25 14:00 262.1 0.0 0.00 46.2 7.9 38.46 3.0
2021 02 25 15:00 262.1 0.0 0.00 45.6 7.6 30.05 3.5
2021 02 25 16:00 262.1 0.0 0.00 45.8 7.7 29.02 3.3
2021 02 25 17:00 262.1 0.0 0.00 45.1 7.3 27.81 2.8
2021 02 25 18:00 262.7 0.0 0.00 42.9 6.1 37.51 2.2
2021 02 25 19:00 263.4 0.0 0.00 41.1 5.1 39.33 0.3
2021 02 25 20:00 263.5 0.0 0.00 39.2 4.0 45.63 2.0
2021 02 25 21:00 263.9 0.0 0.00 38.6 3.7 50.99 2.5
2021 02 25 22:00 265.0 0.0 0.00 36.5 2.5 56.47 0.0
2021 02 25 23:00 265.4 0.0 0.00 34.6 1.4 57.96 0.0
2021 02 25 24:00 267.5 0.0 0.00 31.0 -0.5 68.37 0.0
2021 02 26 1:00 265.7 0.0 0.00 28.5 -1.9 75.69 0.2
2021 02 26 2:00 259.3 0.0 0.00 27.2 -2.6 80.4 0.3
2021 02 26 3:00 265.1 0.0 0.00 25.2 -3.8 86 0.0
2021 02 26 4:00 268.6 0.0 0.00 26.3 -3.1 82.5 0.1
2021 02 26 5:00 269.2 0.0 0.00 26.0 -3.4 85.3 0.0
2021 02 26 6:00 267.2 0.0 0.00 26.6 -3.0 85.7 0.0
2021 02 26 7:00 261.3 0.0 0.00 28.1 -2.2 84.3 0.3
2021 02 26 8:00 264.3 0.0 0.00 31.2 -0.4 79.21 3.1
2021 02 26 9:00 266.1 0.0 0.00 34.4 1.4 73.86 5.7
2021 02 26 10:00 265.0 0.0 0.00 38.7 3.7 63.53 8.1
2021 02 26 11:00 264.6 0.0 0.00 41.2 5.1 58.16 8.3
2021 02 26 12:00 263.5 0.0 0.00 45.5 7.5 45.64 8.2
2021 02 26 13:00 263.0 0.0 0.00 46.8 8.2 41.14 7.0
2021 02 26 14:00 262.9 0.0 0.00 47.0 8.3 43.47 5.7
2021 02 26 15:00 263.4 0.0 0.00 47.1 8.4 47.5 6.1
2021 02 26 16:00 263.4 0.0 0.00 47.6 8.7 50.05 5.9
2021 02 26 17:00 263.6 0.0 0.00 47.6 8.7 52.38 6.2
2021 02 26 18:00 264.4 0.0 0.00 46.4 8.0 56.15 4.8
2021 02 26 19:00 264.8 0.0 0.00 45.6 7.5 63.28 4.1
2021 02 26 20:00 265.0 0.0 0.00 45.0 7.2 66.71 1.4
2021 02 26 21:00 265.5 0.0 0.00 44.6 7.0 71.01 1.5
2021 02 26 22:00 265.7 0.0 0.00 44.3 6.9 72.52 0.4
2021 02 26 23:00 266.6 0.0 0.00 44.0 6.7 77.07 1.0
2021 02 26 24:00 256.1 0.0 0.00 42.6 5.9 82.2 0.0
2021 02 27 1:00 267.4 0.0 0.00 41.5 5.3 77.33 1.1
2021 02 27 2:00 267.7 0.0 0.00 40.4 4.6 74.04 3.5
2021 02 27 3:00 265.9 0.0 0.00 38.1 3.4 78.99 3.0
2021 02 27 4:00 268.1 0.0 0.00 35.5 2.0 86.6 0.6
2021 02 27 5:00 Wet 313.6 0.0 0.00 33.6 0.9 92 0.0
2021 02 27 6:00 247.1 0.0 0.00 32.2 0.1 94.5 0.2
2021 02 27 7:00 271.3 0.0 0.00 29.5 -1.4 94.3 0.0
2021 02 27 8:00 255.2 0.0 0.00 30.7 -0.7 96.1 0.1
2021 02 27 9:00 Wet 298.9 0.0 0.00 35.4 1.9 95.6 0.2
2021 02 27 10:00 265.6 0.0 0.00 43.9 6.6 82.1 2.3
2021 02 27 11:00 264.1 0.0 0.00 50.4 10.2 65.3 3.6
2021 02 27 12:00 263.5 0.0 0.00 53.6 12.0 54.39 5.2
2021 02 27 13:00 263.0 0.0 0.00 56.1 13.4 43.8 6.9
2021 02 27 14:00 262.8 0.0 0.00 57.1 13.9 42.82 6.4
2021 02 27 15:00 262.9 0.0 0.00 57.9 14.4 43.28 7.0
2021 02 27 16:00 263.4 0.0 0.00 56.5 13.6 49.77 7.9
2021 02 27 17:00 264.2 0.0 0.00 55.3 12.9 56.22 8.9
2021 02 27 18:00 264.8 0.0 0.00 53.4 11.9 64.04 7.0
2021 02 27 19:00 265.5 0.0 0.00 51.0 10.6 70.7 5.8
2021 02 27 20:00 266.1 0.0 0.00 49.3 9.6 73.96 4.7
2021 02 27 21:00 265.7 0.0 0.00 50.8 10.5 70.92 6.3
2021 02 27 22:00 Wet 287.4 0.0 0.00 50.3 10.2 75.7 5.0
2021 02 27 23:00 Wet 392.1 0.1 1.52 48.2 9.0 88.8 3.1
2021 02 27 24:00 Wet 442.4 0.1 1.52 47.5 8.6 95 3.3
2021 02 28 1:00 Wet 495.2 0.1 3.56 47.9 8.8 96.9 2.7
2021 02 28 2:00 Wet 438.1 0.1 2.03 48.0 8.9 97.8 3.1
2021 02 28 3:00 Wet 398.4 0.1 1.27 48.1 9.0 98.4 2.4
2021 02 28 4:00 Wet 351.3 0.0 0.25 48.2 9.0 98.7 2.4
2021 02 28 5:00 Wet 366.7 0.0 0.00 48.3 9.1 98.7 0.6
2021 02 28 6:00 Wet 402.0 0.0 0.00 48.3 9.1 98.7 1.2
2021 02 28 7:00 Wet 346.5 0.0 0.00 48.3 9.0 98.8 0.4
2021 02 28 8:00 Wet 341.0 0.0 0.00 48.8 9.3 99 0.8
2021 02 28 9:00 Wet 313.8 0.0 0.00 50.5 10.3 99.1 0.1
2021 02 28 10:00 Wet 286.7 0.0 0.00 52.2 11.2 99.1 0.1
2021 02 28 11:00 271.0 0.0 0.00 54.7 12.6 98.7 5.0
2021 02 28 12:00 267.9 0.0 0.00 55.9 13.3 91.9 5.7
2021 02 28 13:00 267.8 0.0 0.00 55.6 13.1 85.9 7.1
2021 02 28 14:00 271.8 0.0 0.00 54.9 12.7 83.3 8.1
2021 02 28 15:00 266.4 0.0 0.00 54.8 12.7 71.52 12.0
2021 02 28 16:00 265.6 0.0 0.00 53.3 11.8 58.73 11.6
2021 02 28 17:00 265.0 0.0 0.00 51.5 10.9 53.07 11.1
2021 02 28 18:00 265.1 0.0 0.00 48.8 9.3 56.67 11.3
2021 02 28 19:00 265.5 0.0 0.00 45.4 7.5 62.18 11.6
2021 02 28 20:00 265.5 0.0 0.00 43.0 6.1 63.92 10.6
2021 02 28 21:00 265.5 0.0 0.00 41.5 5.3 67.13 7.8
2021 02 28 22:00 266.2 0.0 0.00 40.0 4.4 71.19 6.3
2021 02 28 23:00 266.5 0.0 0.00 37.8 3.2 74.04 6.8
2021 02 28 24:00 266.8 0.0 0.00 36.3 2.4 76.12 8.7
2021 03 01 1:00 267.1 0.0 0.00 34.6 1.4 77.74 7.4
2021 03 01 2:00 267.4 0.0 0.00 32.8 0.5 79.19 7.3
2021 03 01 3:00 267.1 0.0 0.00 31.1 -0.5 77.14 6.1
2021 03 01 4:00 269.3 0.0 0.00 29.8 -1.2 81.5 4.3
2021 03 01 5:00 269.6 0.0 0.00 28.8 -1.8 84.9 5.1
2021 03 01 6:00 269.2 0.0 0.00 28.0 -2.2 84.6 4.8
2021 03 01 7:00 270.0 0.0 0.00 27.1 -2.7 85.3 3.4
2021 03 01 8:00 267.4 0.0 0.00 28.2 -2.1 84.7 2.9
2021 03 01 9:00 266.0 0.0 0.00 31.8 -0.1 74.71 6.1
2021 03 01 10:00 265.0 0.0 0.00 34.2 1.2 64.01 4.5
2021 03 01 11:00 264.3 0.0 0.00 37.6 3.1 53.92 4.9
2021 03 01 12:00 263.6 0.0 0.00 40.9 4.9 50.41 5.2
2021 03 01 13:00 263.4 0.0 0.00 43.7 6.5 44.55 5.4
2021 03 01 14:00 263.0 0.0 0.00 47.0 8.3 38.82 5.0
2021 03 01 15:00 262.9 0.0 0.00 48.6 9.2 34.55 6.6
2021 03 01 16:00 262.9 0.0 0.00 49.4 9.7 33.84 5.9
2021 03 01 17:00 263.2 0.0 0.00 48.9 9.4 35.99 5.2
2021 03 01 18:00 263.4 0.0 0.00 47.7 8.7 39.57 4.0
2021 03 01 19:00 263.8 0.0 0.00 44.1 6.7 46.01 0.8
2021 03 01 20:00 264.3 0.0 0.00 41.5 5.3 50.61 0.6
2021 03 01 21:00 265.5 0.0 0.00 37.9 3.3 63.06 3.2
2021 03 01 22:00 265.6 0.0 0.00 37.0 2.8 64.6 3.1
2021 03 01 23:00 265.6 0.0 0.00 35.2 1.8 66.26 2.3
2021 03 01 24:00 265.7 0.0 0.00 33.5 0.8 66.91 2.4
2021 03 02 1:00 266.3 0.0 0.00 31.9 -0.1 69.19 0.8
2021 03 02 2:00 268.3 0.0 0.00 29.6 -1.3 75.83 0.2
2021 03 02 3:00 269.8 0.0 0.00 28.1 -2.2 81.3 0.2
2021 03 02 4:00 270.0 0.0 0.00 26.8 -2.9 81.5 0.6
2021 03 02 5:00 272.0 0.0 0.00 25.7 -3.5 86.8 0.0
2021 03 02 6:00 273.6 0.0 0.00 24.9 -3.9 87.8 0.2
2021 03 02 7:00 275.3 0.0 0.00 26.0 -3.3 85.9 1.7
2021 03 02 8:00 274.9 0.0 0.00 28.1 -2.2 83.5 2.9
2021 03 02 9:00 267.4 0.0 0.00 32.5 0.3 76.88 5.8
2021 03 02 10:00 264.9 0.0 0.00 38.5 3.6 64.61 7.5
2021 03 02 11:00 263.9 0.0 0.00 44.0 6.6 50.92 9.5
2021 03 02 12:00 263.1 0.0 0.00 47.9 8.8 43.17 9.0
2021 03 02 13:00 262.6 0.0 0.00 51.3 10.7 37.8 8.9
2021 03 02 14:00 262.1 0.0 0.00 53.9 12.1 32.98 8.2
2021 03 02 15:00 262.1 0.0 0.00 55.5 13.0 29.07 7.3
2021 03 02 16:00 262.0 0.0 0.00 56.0 13.3 28.96 6.0
2021 03 02 17:00 262.0 0.0 0.00 55.9 13.3 29.36 5.7
2021 03 02 18:00 262.1 0.0 0.00 54.0 12.2 31.64 2.9
2021 03 02 19:00 262.7 0.0 0.00 51.1 10.6 33.97 0.0
2021 03 02 20:00 263.5 0.0 0.00 45.8 7.6 43.87 0.8
2021 03 02 21:00 264.3 0.0 0.00 42.9 6.0 50.6 0.0
2021 03 02 22:00 264.9 0.0 0.00 40.9 4.9 53.89 0.0
2021 03 02 23:00 265.5 0.0 0.00 39.0 3.9 57.96 0.0
2021 03 02 24:00 265.9 0.0 0.00 37.9 3.3 60.61 0.0
2021 03 03 1:00 265.0 0.0 0.00 39.8 4.3 53.46 0.3
2021 03 03 2:00 265.5 0.0 0.00 38.0 3.3 57.29 0.0
2021 03 03 3:00 265.7 0.0 0.00 37.4 3.0 58.63 0.0
2021 03 03 4:00 265.7 0.0 0.00 37.6 3.1 57.44 0.9
2021 03 03 5:00 265.7 0.0 0.00 37.1 2.8 57.8 0.1
2021 03 03 6:00 265.8 0.0 0.00 36.3 2.4 59.05 0.0
2021 03 03 7:00 267.0 0.0 0.00 31.4 -0.4 74.12 0.2
2021 03 03 8:00 264.4 0.0 0.00 36.2 2.3 69.42 0.0
2021 03 03 9:00 262.9 0.0 0.00 47.4 8.6 45.14 6.1
2021 03 03 10:00 262.3 0.0 0.00 52.6 11.4 34.8 8.3
2021 03 03 11:00 261.6 0.0 0.00 57.2 14.0 27.78 11.3
2021 03 03 12:00 261.3 0.0 0.00 59.5 15.3 26.38 10.4
2021 03 03 13:00 260.7 0.0 0.00 63.0 17.2 23.98 9.0
2021 03 03 14:00 260.6 0.0 0.00 65.2 18.4 21.96 9.5
2021 03 03 15:00 260.6 0.0 0.00 66.1 18.9 21.34 7.8
2021 03 03 16:00 260.6 0.0 0.00 66.8 19.4 21.1 7.1
2021 03 03 17:00 260.6 0.0 0.00 67.4 19.7 23.34 5.0
2021 03 03 18:00 260.7 0.0 0.00 64.6 18.1 25.33 3.0
2021 03 03 19:00 261.3 0.0 0.00 59.3 15.2 30.32 0.8
2021 03 03 20:00 262.1 0.0 0.00 53.6 12.0 39.27 0.6
2021 03 03 21:00 263.7 0.0 0.00 47.9 8.8 52.66 0.0
2021 03 03 22:00 264.1 0.0 0.00 46.0 7.8 56.57 0.0
2021 03 03 23:00 265.4 0.0 0.00 41.9 5.5 67.97 0.4
2021 03 03 24:00 266.2 0.0 0.00 40.0 4.4 73.22 0.1
2021 03 04 1:00 267.5 0.0 0.00 38.6 3.7 75.38 0.2
2021 03 04 2:00 268.4 0.0 0.00 36.8 2.7 78.94 0.7
2021 03 04 3:00 270.5 0.0 0.00 34.4 1.4 83.5 0.2
2021 03 04 4:00 276.1 0.0 0.00 33.3 0.7 86.4 0.1
2021 03 04 5:00 Wet 286.9 0.0 0.00 32.1 0.1 87.2 0.0
2021 03 04 6:00 Wet 302.9 0.0 0.00 31.3 -0.4 89.8 0.0
2021 03 04 7:00 Wet 317.8 0.0 0.00 31.1 -0.5 92.4 0.0
2021 03 04 8:00 Wet 286.0 0.0 0.00 33.9 1.1 89.7 0.1
2021 03 04 9:00 264.0 0.0 0.00 41.9 5.5 74.8 3.2
2021 03 04 10:00 263.6 0.0 0.00 47.8 8.8 57.1 7.1
2021 03 04 11:00 262.6 0.0 0.00 52.0 11.1 44.04 7.9
2021 03 04 12:00 262.0 0.0 0.00 55.2 12.9 38.81 8.0
2021 03 04 13:00 261.5 0.0 0.00 57.4 14.1 32.04 9.5
2021 03 04 14:00 261.4 0.0 0.00 59.2 15.1 30.24 9.0
2021 03 04 15:00 261.4 0.0 0.00 60.0 15.6 31.14 8.9
2021 03 04 16:00 261.5 0.0 0.00 59.3 15.2 33.09 9.0
2021 03 04 17:00 262.0 0.0 0.00 57.5 14.1 36.87 8.9
2021 03 04 18:00 262.1 0.0 0.00 54.5 12.5 38.86 6.7
2021 03 04 19:00 263.0 0.0 0.00 50.8 10.5 51.89 6.4
2021 03 04 20:00 263.5 0.0 0.00 48.0 8.9 57.02 6.6
2021 03 04 21:00 263.7 0.0 0.00 45.3 7.4 57.8 6.0
2021 03 04 22:00 264.2 0.0 0.00 43.2 6.2 60.93 7.2
2021 03 04 23:00 264.7 0.0 0.00 40.9 4.9 64.35 7.5
2021 03 04 24:00 264.9 0.0 0.00 38.8 3.8 66.03 5.8
2021 03 05 1:00 264.9 0.0 0.00 37.3 2.9 68.11 5.0
2021 03 05 2:00 265.1 0.0 0.00 35.3 1.8 72.32 4.1
2021 03 05 3:00 265.6 0.0 0.00 33.9 1.1 73.72 3.2
2021 03 05 4:00 265.4 0.0 0.00 32.4 0.2 71.34 4.2
2021 03 05 5:00 265.2 0.0 0.00 31.0 -0.5 69.78 4.1
2021 03 05 6:00 265.7 0.0 0.00 29.8 -1.2 74.1 3.3
2021 03 05 7:00 266.0 0.0 0.00 28.9 -1.7 77.93 3.3
2021 03 05 8:00 265.7 0.0 0.00 29.7 -1.3 79.58 5.0
2021 03 05 9:00 264.8 0.0 0.00 32.5 0.3 74.15 7.4
2021 03 05 10:00 263.6 0.0 0.00 36.9 2.7 61.43 9.3
2021 03 05 11:00 263.0 0.0 0.00 39.8 4.3 54.15 8.4
2021 03 05 12:00 262.3 0.0 0.00 42.9 6.1 44.46 9.0
2021 03 05 13:00 262.1 0.0 0.00 45.2 7.3 37.52 8.8
2021 03 05 14:00 262.1 0.0 0.00 45.7 7.6 35.75 9.3
2021 03 05 15:00 262.1 0.0 0.00 46.4 8.0 35.85 8.0
2021 03 05 16:00 262.1 0.0 0.00 47.9 8.8 32.79 6.8
2021 03 05 17:00 262.1 0.0 0.00 48.0 8.9 32.41 5.0
2021 03 05 18:00 262.1 0.0 0.00 46.7 8.2 33.75 3.2
2021 03 05 19:00 262.8 0.0 0.00 44.5 6.9 37.35 0.9
2021 03 05 20:00 263.3 0.0 0.00 40.4 4.6 44.78 0.2
2021 03 05 21:00 263.9 0.0 0.00 36.8 2.6 54.48 0.8
2021 03 05 22:00 264.9 0.0 0.00 33.7 0.9 65.79 1.0
2021 03 05 23:00 265.4 0.0 0.00 32.7 0.4 70.94 0.3
2021 03 05 24:00 266.1 0.0 0.00 32.7 0.4 75.33 0.2
2021 03 06 1:00 266.2 0.0 0.00 33.6 0.9 79.59 0.8
2021 03 06 2:00 265.9 0.0 0.00 34.7 1.5 72.89 0.3
2021 03 06 3:00 266.1 0.0 0.00 34.8 1.6 72.54 0.5
2021 03 06 4:00 266.7 0.0 0.00 33.8 1.0 80.7 0.3
2021 03 06 5:00 267.4 0.0 0.00 33.6 0.9 80.1 0.1
2021 03 06 6:00 267.4 0.0 0.00 33.3 0.7 84.1 0.2
2021 03 06 7:00 268.6 0.0 0.00 32.8 0.4 86 0.0
2021 03 06 8:00 267.1 0.0 0.00 33.5 0.8 88 0.0
2021 03 06 9:00 263.9 0.0 0.00 39.0 3.9 73.08 0.3
2021 03 06 10:00 261.6 0.0 0.00 46.7 8.2 46.87 1.5
2021 03 06 11:00 260.9 0.0 0.00 50.2 10.1 31.74 5.5
2021 03 06 12:00 260.5 0.0 0.00 52.3 11.3 26.22 5.3
2021 03 06 13:00 260.1 0.0 0.00 54.3 12.4 24.84 4.7
2021 03 06 14:00 260.2 0.0 0.00 55.7 13.2 24.01 3.9
2021 03 06 15:00 260.0 0.0 0.00 55.9 13.3 24.08 2.4
2021 03 06 16:00 260.1 0.0 0.00 56.0 13.4 24.09 1.2
2021 03 06 17:00 260.2 0.0 0.00 56.8 13.8 22.55 1.6
2021 03 06 18:00 260.8 0.0 0.00 54.5 12.5 26.46 1.9
2021 03 06 19:00 261.5 0.0 0.00 51.3 10.7 30.39 0.3
2021 03 06 20:00 262.1 0.0 0.00 47.4 8.5 36.6 0.0
2021 03 06 21:00 263.4 0.0 0.00 42.8 6.0 51.21 0.0
2021 03 06 22:00 264.7 0.0 0.00 39.8 4.3 59.58 0.0
2021 03 06 23:00 265.1 0.0 0.00 38.0 3.3 64.29 0.0
2021 03 06 24:00 266.1 0.0 0.00 36.1 2.3 67.67 0.1
2021 03 07 1:00 268.9 0.0 0.00 33.1 0.6 78.26 0.0
2021 03 07 2:00 268.9 0.0 0.00 32.5 0.3 79.22 0.0
2021 03 07 3:00 268.7 0.0 0.00 31.2 -0.4 83.5 0.0
2021 03 07 4:00 268.7 0.0 0.00 31.0 -0.6 83.5 0.0
2021 03 07 5:00 269.7 0.0 0.00 30.4 -0.9 86.1 0.1
2021 03 07 6:00 276.1 0.0 0.00 30.1 -1.0 88.5 0.0
2021 03 07 7:00 276.4 0.0 0.00 29.8 -1.2 87.5 0.1
2021 03 07 8:00 267.4 0.0 0.00 32.4 0.2 86.4 1.0
2021 03 07 9:00 264.1 0.0 0.00 40.1 4.5 69.79 2.0
2021 03 07 10:00 262.2 0.0 0.00 49.2 9.6 49.3 3.0
2021 03 07 11:00 261.0 0.0 0.00 57.5 14.2 34.61 4.0
2021 03 07 12:00 260.7 0.0 0.00 61.3 16.3 29.85 7.3
2021 03 07 13:00 260.7 0.0 0.00 62.9 17.1 31.04 7.4
2021 03 07 14:00 260.7 0.0 0.00 63.4 17.4 31.04 7.9
2021 03 07 15:00 260.7 0.0 0.00 64.2 17.9 29 6.9
2021 03 07 16:00 260.6 0.0 0.00 64.8 18.2 27.9 7.1
2021 03 07 17:00 260.7 0.0 0.00 64.6 18.1 26.7 7.3
2021 03 07 18:00 260.8 0.0 0.00 62.7 17.1 27.29 5.2
2021 03 07 19:00 261.4 0.0 0.00 59.5 15.3 29.93 1.2
2021 03 07 20:00 261.8 0.0 0.00 55.6 13.1 34.71 0.6
2021 03 07 21:00 262.4 0.0 0.00 51.9 11.1 41.01 0.3
2021 03 07 22:00 262.9 0.0 0.00 49.4 9.7 46.53 0.2
2021 03 07 23:00 263.7 0.0 0.00 46.0 7.8 53.58 0.8
2021 03 07 24:00 263.6 0.0 0.00 46.4 8.0 49.16 2.1
2021 03 08 1:00 263.5 0.0 0.00 47.9 8.8 47.34 4.4
2021 03 08 2:00 263.5 0.0 0.00 47.9 8.9 49.86 6.0
2021 03 08 3:00 263.5 0.0 0.00 46.8 8.2 51.56 4.7
2021 03 08 4:00 263.5 0.0 0.00 45.5 7.5 53.44 4.5
2021 03 08 5:00 263.5 0.0 0.00 45.4 7.4 53.28 5.1
2021 03 08 6:00 263.5 0.0 0.00 44.5 7.0 54.17 4.0
2021 03 08 7:00 263.5 0.0 0.00 44.7 7.1 54.07 5.1
2021 03 08 8:00 262.5 0.0 0.00 47.0 8.3 50.73 5.2
2021 03 08 9:00 261.7 0.0 0.00 52.0 11.1 43.7 6.0
2021 03 08 10:00 261.0 0.0 0.00 57.3 14.0 35.88 7.7
2021 03 08 11:00 260.6 0.0 0.00 61.0 16.1 29.89 9.6
2021 03 08 12:00 260.6 0.0 0.00 63.1 17.3 27.36 10.0
2021 03 08 13:00 260.0 0.0 0.00 64.8 18.2 25.04 8.7
2021 03 08 14:00 260.0 0.0 0.00 66.1 18.9 23.08 9.3
2021 03 08 15:00 260.0 0.0 0.00 66.9 19.4 21.79 7.8
2021 03 08 16:00 260.0 0.0 0.00 67.1 19.5 20.94 8.2
2021 03 08 17:00 260.0 0.0 0.00 67.0 19.5 20.95 6.9
2021 03 08 18:00 260.1 0.0 0.00 65.0 18.3 22.58 5.4
2021 03 08 19:00 260.7 0.0 0.00 61.5 16.4 25.03 1.6
2021 03 08 20:00 261.2 0.0 0.00 57.8 14.4 29.14 1.9
2021 03 08 21:00 261.7 0.0 0.00 54.4 12.4 34.96 0.7
2021 03 08 22:00 262.1 0.0 0.00 53.1 11.7 36.32 2.0
2021 03 08 23:00 262.1 0.0 0.00 51.3 10.7 40.16 1.6
2021 03 08 24:00 262.1 0.0 0.00 51.4 10.8 42.05 4.4
2021 03 09 1:00 262.1 0.0 0.00 51.5 10.8 43.36 3.7
2021 03 09 2:00 262.5 0.0 0.00 50.4 10.2 44.95 2.7
2021 03 09 3:00 262.8 0.0 0.00 48.4 9.1 48.81 2.1
2021 03 09 4:00 263.0 0.0 0.00 46.3 7.9 53.7 2.5
2021 03 09 5:00 263.5 0.0 0.00 45.1 7.3 57.31 1.8
2021 03 09 6:00 263.4 0.0 0.00 46.5 8.0 53.66 2.0
2021 03 09 7:00 262.9 0.0 0.00 48.1 8.9 49.76 2.1
2021 03 09 8:00 262.4 0.0 0.00 48.9 9.4 49.33 2.4
2021 03 09 9:00 261.1 0.0 0.00 55.0 12.8 41.22 4.7
2021 03 09 10:00 260.7 0.0 0.00 61.1 16.1 32.33 9.2
2021 03 09 11:00 260.6 0.0 0.00 63.4 17.4 33.14 10.5
2021 03 09 12:00 260.7 0.0 0.00 66.2 19.0 34.07 11.2
2021 03 09 13:00 260.6 0.0 0.00 69.0 20.6 35.21 12.2
2021 03 09 14:00 260.7 0.0 0.00 70.4 21.3 34.3 14.3
2021 03 09 15:00 260.8 0.0 0.00 71.2 21.8 33.69 14.5
2021 03 09 16:00 261.1 0.0 0.00 71.4 21.9 34.51 14.3
2021 03 09 17:00 261.3 0.0 0.00 70.1 21.2 37.45 13.8
2021 03 09 18:00 261.4 0.0 0.00 68.1 20.1 40.6 12.0
2021 03 09 19:00 262.0 0.0 0.00 66.2 19.0 44.67 10.6
2021 03 09 20:00 262.1 0.0 0.00 64.2 17.9 48.97 8.9
2021 03 09 21:00 262.6 0.0 0.00 63.0 17.2 51.87 10.5
2021 03 09 22:00 262.7 0.0 0.00 61.8 16.6 55.52 11.0
2021 03 09 23:00 262.7 0.0 0.00 60.8 16.0 55.97 10.0
2021 03 09 24:00 262.7 0.0 0.00 59.9 15.5 55.35 9.7
2021 03 10 1:00 262.9 0.0 0.00 59.0 15.0 56.65 7.9
2021 03 10 2:00 262.9 0.0 0.00 58.8 14.9 56.7 7.1
2021 03 10 3:00 263.2 0.0 0.00 58.5 14.7 56.92 5.1
2021 03 10 4:00 263.4 0.0 0.00 58.0 14.5 57.25 5.2
2021 03 10 5:00 263.4 0.0 0.00 58.0 14.4 56.96 6.3
2021 03 10 6:00 263.4 0.0 0.00 58.3 14.6 55.77 6.1
2021 03 10 7:00 263.4 0.0 0.00 58.5 14.7 56.43 6.1
2021 03 10 8:00 263.3 0.0 0.00 59.5 15.3 56.72 9.5
2021 03 10 9:00 262.9 0.0 0.00 61.1 16.2 55.97 11.5
2021 03 10 10:00 262.5 0.0 0.00 63.5 17.5 52.66 14.2
2021 03 10 11:00 262.6 0.0 0.00 64.2 17.9 51.84 13.9
2021 03 10 12:00 262.6 0.0 0.00 65.6 18.7 52.8 17.1
2021 03 10 13:00 262.4 0.0 0.00 67.1 19.5 53.29 17.8
2021 03 10 14:00 262.6 0.0 0.00 66.5 19.2 55.74 17.4
2021 03 10 15:00 262.8 0.0 0.00 66.1 18.9 57.47 15.7
2021 03 10 16:00 263.2 0.0 0.00 66.2 19.0 58.03 14.1
2021 03 10 17:00 263.4 0.0 0.00 65.6 18.6 60.02 14.5
2021 03 10 18:00 263.4 0.0 0.00 65.1 18.4 61.91 13.0
2021 03 10 19:00 263.5 0.0 0.00 64.7 18.2 64 13.3
2021 03 10 20:00 264.5 0.0 0.00 63.2 17.3 70.33 14.4
2021 03 10 21:00 264.8 0.0 0.00 62.9 17.1 72.41 14.4
2021 03 10 22:00 264.8 0.0 0.00 63.2 17.3 72.34 15.6
2021 03 10 23:00 264.8 0.0 0.00 63.9 17.7 70.29 14.6
2021 03 10 24:00 264.8 0.0 0.00 64.4 18.0 68.36 13.0
2021 03 11 1:00 264.8 0.0 0.00 64.7 18.2 67.62 13.5
2021 03 11 2:00 Wet 348.5 0.1 3.56 62.3 16.8 73.63 10.1
2021 03 11 3:00 Wet 439.4 0.1 2.54 55.7 13.2 93.3 3.6
2021 03 11 4:00 Wet 360.8 0.0 0.25 56.0 13.4 91.2 4.0
2021 03 11 5:00 Wet 337.0 0.0 0.00 55.0 12.8 90.9 1.6
2021 03 11 6:00 Wet 420.0 0.1 3.05 54.4 12.5 93.2 4.0
2021 03 11 7:00 Wet 433.9 0.1 1.78 49.6 9.8 93.1 5.4
2021 03 11 8:00 Wet 324.5 0.0 0.00 49.0 9.5 94.3 2.6
2021 03 11 9:00 Wet 337.9 0.0 0.25 48.7 9.3 87.9 6.4
2021 03 11 10:00 Wet 371.2 0.0 0.25 48.1 8.9 81.5 5.8
2021 03 11 11:00 Wet 319.6 0.0 0.00 49.1 9.5 79.76 6.5
2021 03 11 12:00 266.3 0.0 0.00 51.2 10.7 71.27 6.2
2021 03 11 13:00 Wet 304.6 0.0 0.25 50.6 10.3 71.48 7.2
2021 03 11 14:00 Wet 363.1 0.0 1.02 49.3 9.6 76.58 4.6
2021 03 11 15:00 Wet 386.7 0.0 0.76 48.9 9.4 84.8 4.2
2021 03 11 16:00 Wet 284.8 0.0 0.00 50.2 10.1 81.3 2.4
2021 03 11 17:00 266.1 0.0 0.00 51.8 11.0 75.19 1.2
2021 03 11 18:00 265.9 0.0 0.00 51.4 10.8 75.65 1.2
2021 03 11 19:00 266.9 0.0 0.00 50.1 10.1 82.1 1.3
2021 03 11 20:00 270.1 0.0 0.00 48.9 9.4 86.6 0.3
2021 03 11 21:00 269.2 0.0 0.00 48.4 9.1 87.1 1.0
2021 03 11 22:00 Wet 292.8 0.0 0.00 46.6 8.1 91.7 0.0
2021 03 11 23:00 Wet 305.8 0.0 0.00 46.3 8.0 93.5 0.9
2021 03 11 24:00 272.0 0.0 0.00 46.7 8.2 78.29 1.9
2021 03 12 1:00 266.7 0.0 0.00 46.4 8.0 72.75 1.5
2021 03 12 2:00 266.7 0.0 0.00 45.2 7.4 74.1 1.0
2021 03 12 3:00 266.6 0.0 0.00 44.4 6.9 73.75 1.0
2021 03 12 4:00 267.3 0.0 0.00 43.2 6.2 76.73 1.3
2021 03 12 5:00 267.9 0.0 0.00 42.6 5.9 75.13 0.8
2021 03 12 6:00 267.8 0.0 0.00 41.2 5.1 79.29 1.4
2021 03 12 7:00 267.3 0.0 0.00 41.3 5.2 79.42 1.8
2021 03 12 8:00 266.2 0.0 0.00 43.0 6.1 75.7 3.3
2021 03 12 9:00 265.1 0.0 0.00 45.8 7.7 68.63 5.4
2021 03 12 10:00 264.4 0.0 0.00 49.1 9.5 59.17 6.8
2021 03 12 11:00 263.4 0.0 0.00 51.1 10.6 49.93 8.0
2021 03 12 12:00 262.8 0.0 0.00 52.6 11.4 43.53 7.3
2021 03 12 13:00 262.7 0.0 0.00 52.6 11.5 40.99 6.7
2021 03 12 14:00 262.7 0.0 0.00 52.1 11.2 40.48 7.2
2021 03 12 15:00 262.7 0.0 0.00 51.5 10.9 40.56 4.7
2021 03 12 16:00 274.8 0.0 0.00 51.3 10.7 41.96 3.2
2021 03 12 17:00 Wet 497.9 0.1 1.78 47.7 8.7 65.09 2.2
2021 03 12 18:00 Wet 465.5 0.0 0.51 45.3 7.4 82.7 0.9
2021 03 12 19:00 Wet 478.8 0.0 0.76 44.8 7.1 81.5 3.7
2021 03 12 20:00 Wet 381.4 0.0 0.25 44.4 6.9 81.8 3.0
2021 03 12 21:00 Wet 345.1 0.0 0.00 44.8 7.1 79.82 2.1
2021 03 12 22:00 Wet 333.3 0.0 0.00 44.4 6.9 82.3 0.0
2021 03 12 23:00 Wet 291.6 0.0 0.00 43.6 6.5 84.8 0.4
2021 03 12 24:00 271.4 0.0 0.00 43.4 6.3 83.7 1.9
2021 03 13 1:00 267.7 0.0 0.00 43.9 6.6 77.98 2.6
2021 03 13 2:00 266.2 0.0 0.00 44.8 7.1 68.22 3.7
2021 03 13 3:00 265.6 0.0 0.00 45.2 7.4 60.16 5.5
2021 03 13 4:00 265.3 0.0 0.00 45.2 7.4 59.27 6.1
2021 03 13 5:00 264.9 0.0 0.00 45.5 7.5 59.57 5.2
2021 03 13 6:00 264.9 0.0 0.00 45.3 7.4 60.73 5.1
2021 03 13 7:00 264.9 0.0 0.00 45.3 7.4 60.71 4.7
2021 03 13 8:00 264.9 0.0 0.00 45.7 7.6 61.15 4.4
2021 03 13 9:00 264.9 0.0 0.00 46.8 8.2 58.44 5.7
2021 03 13 10:00 264.5 0.0 0.00 48.1 8.9 55.04 7.5
2021 03 13 11:00 263.7 0.0 0.00 49.8 9.9 51.09 8.5
2021 03 13 12:00 263.4 0.0 0.00 51.0 10.6 48.11 8.0
2021 03 13 13:00 263.1 0.0 0.00 52.3 11.3 46.83 6.5
2021 03 13 14:00 262.9 0.0 0.00 53.3 11.9 45.37 7.1
2021 03 13 15:00 263.2 0.0 0.00 53.5 11.9 45.36 6.5
2021 03 13 16:00 263.3 0.0 0.00 54.0 12.2 47.43 6.6
2021 03 13 17:00 263.4 0.0 0.00 53.8 12.1 47.5 6.2
2021 03 13 18:00 263.4 0.0 0.00 53.3 11.9 49.31 6.2
2021 03 13 19:00 263.4 0.0 0.00 52.0 11.1 52.77 5.1
2021 03 13 20:00 263.4 0.0 0.00 51.9 11.1 52.91 7.0
2021 03 13 21:00 263.4 0.0 0.00 51.5 10.9 53.67 5.5
2021 03 13 22:00 264.0 0.0 0.00 50.6 10.3 54.99 5.0
2021 03 13 23:00 264.1 0.0 0.00 49.4 9.7 57.17 6.4
2021 03 13 24:00 264.2 0.0 0.00 48.3 9.1 58.69 6.5
2021 03 14 1:00 264.2 0.0 0.00 47.7 8.7 56.03 6.2
2021 03 14 2:00 264.2 0.0 0.00 46.8 8.2 55.21 5.7
2021 03 14 3:00 264.2 0.0 0.00 46.3 7.9 54.96 3.7
2021 03 14 4:00 264.2 0.0 0.00 45.9 7.7 54.7 4.5
2021 03 14 5:00 264.8 0.0 0.00 45.6 7.6 55.2 4.2
2021 03 14 6:00 278.5 0.0 0.00 45.5 7.5 56 4.7
2021 03 14 7:00 281.4 0.0 0.00 45.9 7.7 54.6 4.9
2021 03 14 8:00 Wet 382.7 0.0 0.25 44.6 7.0 66.13 3.9
2021 03 14 9:00 Wet 304.7 0.0 0.00 44.3 6.8 68.21 4.2
2021 03 14 10:00 Wet 342.0 0.0 0.00 45.2 7.3 66.01 6.5
2021 03 14 11:00 268.0 0.0 0.00 46.6 8.1 57.89 6.9
2021 03 14 12:00 264.0 0.0 0.00 48.3 9.0 49.33 8.8
2021 03 14 13:00 263.4 0.0 0.00 50.8 10.4 42.17 9.9
2021 03 14 14:00 263.1 0.0 0.00 51.1 10.6 42.18 13.2
2021 03 14 15:00 262.9 0.0 0.00 51.0 10.6 44.66 14.8
2021 03 14 16:00 263.3 0.0 0.00 50.5 10.3 44.99 14.4
2021 03 14 17:00 263.3 0.0 0.00 50.1 10.1 45.24 12.1
2021 03 14 18:00 Wet 298.5 0.0 0.00 48.4 9.1 53.81 10.8
2021 03 14 19:00 Wet 387.1 0.0 0.76 45.4 7.4 70.5 7.7
2021 03 14 20:00 279.7 0.0 0.00 47.0 8.3 60.83 10.8
2021 03 14 21:00 265.0 0.0 0.00 47.8 8.8 56.42 12.5
2021 03 14 22:00 264.5 0.0 0.00 48.3 9.1 55.05 13.9
2021 03 14 23:00 264.6 0.0 0.00 48.7 9.3 53.66 14.2
2021 03 14 24:00 Wet 329.9 0.0 0.25 47.3 8.5 60.56 13.5
2021 03 15 1:00 Wet 298.4 0.0 0.00 46.4 8.0 64.55 10.9
2021 03 15 2:00 Wet 409.8 0.1 1.27 46.1 7.8 68.02 7.9
2021 03 15 3:00 Wet 451.6 0.1 1.78 44.2 6.8 79.68 3.9
2021 03 15 4:00 Wet 471.8 0.1 1.78 43.0 6.1 86.2 5.4
2021 03 15 5:00 Wet 491.6 0.1 1.78 42.6 5.9 91.3 2.9
2021 03 15 6:00 Wet 431.3 0.0 0.00 42.4 5.8 95.8 2.3
2021 03 15 7:00 Wet 472.7 0.0 0.25 42.4 5.8 96.9 4.3
2021 03 15 8:00 Wet 469.2 0.0 0.25 42.4 5.8 97.6 4.6
2021 03 15 9:00 Wet 389.0 0.0 0.00 42.7 5.9 97.9 7.0
2021 03 15 10:00 Wet 301.8 0.0 0.00 43.4 6.3 96.6 6.2
2021 03 15 11:00 274.0 0.0 0.00 42.9 6.0 94.4 8.0
2021 03 15 12:00 268.0 0.0 0.00 42.3 5.7 93.1 8.9
2021 03 15 13:00 267.6 0.0 0.00 43.0 6.1 92 8.0
2021 03 15 14:00 267.6 0.0 0.00 43.9 6.6 91.7 8.1
2021 03 15 15:00 267.6 0.0 0.00 45.1 7.3 89.6 9.6
2021 03 15 16:00 267.6 0.0 0.00 45.4 7.4 89.6 7.6
2021 03 15 17:00 280.3 0.0 0.00 45.0 7.2 91 5.1
2021 03 15 18:00 Wet 369.1 0.0 0.25 45.3 7.4 94.5 6.9
2021 03 15 19:00 Wet 308.8 0.0 0.00 44.9 7.2 95 5.1
2021 03 15 20:00 Wet 289.8 0.0 0.00 45.0 7.2 95 2.3
2021 03 15 21:00 Wet 295.0 0.0 0.00 45.0 7.2 94.4 3.2
2021 03 15 22:00 Wet 348.0 0.0 1.02 44.8 7.1 93.7 6.0
2021 03 15 23:00 Wet 366.6 0.0 0.00 42.5 5.8 94.5 3.4
2021 03 15 24:00 Wet 424.9 0.0 0.00 42.1 5.6 96.9 4.2
2021 03 16 1:00 Wet 424.1 0.0 0.00 42.5 5.8 97.9 0.3
2021 03 16 2:00 Wet 403.9 0.0 0.00 42.9 6.1 97.9 1.8
2021 03 16 3:00 Wet 424.0 0.0 0.00 43.2 6.2 98 0.9
2021 03 16 4:00 Wet 450.6 0.0 0.00 43.2 6.2 98 1.2
2021 03 16 5:00 Wet 393.9 0.0 0.00 42.7 5.9 98 3.2
2021 03 16 6:00 Wet 369.6 0.0 0.25 41.3 5.2 97.9 4.0
2021 03 16 7:00 Wet 373.4 0.0 0.00 40.4 4.6 97.9 3.1
2021 03 16 8:00 Wet 396.5 0.0 0.00 40.2 4.5 97.8 3.4
2021 03 16 9:00 Wet 347.4 0.0 0.00 39.8 4.4 97.5 3.3
2021 03 16 10:00 Wet 295.8 0.0 0.00 40.5 4.7 96.6 2.8
2021 03 16 11:00 271.5 0.0 0.00 40.9 4.9 95.2 3.0
2021 03 16 12:00 267.9 0.0 0.00 41.5 5.3 94 4.2
2021 03 16 13:00 267.0 0.0 0.00 42.3 5.7 91.3 4.1
2021 03 16 14:00 266.9 0.0 0.00 43.2 6.2 88.1 4.0
2021 03 16 15:00 266.9 0.0 0.00 44.1 6.7 86.1 4.0
2021 03 16 16:00 266.9 0.0 0.00 45.0 7.2 85.1 4.4
2021 03 16 17:00 266.9 0.0 0.00 45.6 7.6 84.1 6.1
2021 03 16 18:00 266.9 0.0 0.00 45.7 7.6 84.2 6.1
2021 03 16 19:00 270.0 0.0 0.00 44.6 7.0 86.4 3.4
2021 03 16 20:00 278.2 0.0 0.00 43.3 6.3 90.6 3.1
2021 03 16 21:00 268.9 0.0 0.00 44.2 6.8 91.7 7.0
2021 03 16 22:00 268.3 0.0 0.00 45.0 7.2 90.6 7.4
2021 03 16 23:00 268.3 0.0 0.00 44.9 7.2 91.2 5.6
2021 03 16 24:00 268.5 0.0 0.00 44.9 7.2 92 4.3
2021 03 17 1:00 268.9 0.0 0.00 44.8 7.1 93.2 6.5
2021 03 17 2:00 268.8 0.0 0.00 44.9 7.2 92.4 7.3
2021 03 17 3:00 268.9 0.0 0.00 44.6 7.0 93 8.2
2021 03 17 4:00 268.9 0.0 0.00 44.4 6.9 93.9 9.7
2021 03 17 5:00 Wet 291.5 0.0 0.00 44.4 6.9 92.9 8.0
2021 03 17 6:00 Wet 329.8 0.0 0.00 44.0 6.6 92.7 8.3
2021 03 17 7:00 282.1 0.0 0.00 44.1 6.7 91.7 8.3
2021 03 17 8:00 268.6 0.0 0.00 44.6 7.0 91.6 8.8
2021 03 17 9:00 Wet 307.4 0.0 0.00 45.6 7.6 91 6.9
2021 03 17 10:00 Wet 339.7 0.0 0.00 45.7 7.6 91.3 9.1
2021 03 17 11:00 Wet 528.0 0.1 2.29 43.9 6.6 94.4 6.2
2021 03 17 12:00 Wet 497.7 0.1 3.30 43.4 6.3 96.2 8.5
2021 03 17 13:00 Wet 525.6 0.2 4.32 44.3 6.8 96.6 3.6
2021 03 17 14:00 Wet 521.8 0.1 3.05 44.7 7.0 96.8 4.4
2021 03 17 15:00 Wet 317.1 0.0 0.00 46.2 7.9 96.3 6.0
2021 03 17 16:00 271.5 0.0 0.00 47.5 8.6 95.3 3.6
2021 03 17 17:00 Wet 428.2 0.0 0.00 47.6 8.7 95 5.9
2021 03 17 18:00 Wet 545.8 0.0 0.76 45.1 7.3 95.7 7.8
2021 03 17 19:00 Wet 497.0 0.0 0.00 41.8 5.4 95.4 9.2
2021 03 17 20:00 Wet 461.9 0.0 0.25 39.7 4.3 94.3 9.8
2021 03 17 21:00 Wet 508.2 0.0 0.51 39.1 3.9 94.5 6.5
2021 03 17 22:00 Wet 513.9 0.0 0.25 39.1 3.9 95.6 7.0
2021 03 17 23:00 Wet 578.8 0.2 5.59 39.2 4.0 95.2 8.2
2021 03 17 24:00 Wet 478.0 0.0 0.76 39.2 4.0 94.8 7.2
2021 03 18 1:00 Wet 531.1 0.1 2.79 38.9 3.8 93.3 7.0
2021 03 18 2:00 Wet 595.6 0.4 9.14 38.4 3.5 94.7 5.4
2021 03 18 3:00 Wet 578.0 0.2 5.08 38.5 3.6 95.8 8.0
2021 03 18 4:00 Wet 508.1 0.1 1.27 38.7 3.7 95.3 9.1
2021 03 18 5:00 Wet 354.3 0.0 0.00 39.6 4.2 91.1 6.3
2021 03 18 6:00 Wet 288.0 0.0 0.00 40.3 4.6 89 7.9
2021 03 18 7:00 Wet 452.1 0.1 3.05 40.5 4.7 90.6 9.0
2021 03 18 8:00 Wet 564.3 0.2 4.32 40.7 4.8 94 9.4
2021 03 18 9:00 Wet 501.2 0.0 0.51 40.9 5.0 94.4 9.3
2021 03 18 10:00 Wet 469.8 0.0 0.25 41.6 5.3 90.6 11.3
2021 03 18 11:00 Wet 325.4 0.0 0.00 41.4 5.2 87.6 11.2
2021 03 18 12:00 Wet 501.0 0.0 0.25 40.2 4.5 89.7 10.4
2021 03 18 13:00 Wet 521.2 0.0 0.25 39.7 4.3 91.6 10.0
2021 03 18 14:00 Wet 527.9 0.0 0.25 39.7 4.3 92.3 9.8
2021 03 18 15:00 Wet 497.6 0.0 0.25 39.7 4.3 90.1 11.7
2021 03 18 16:00 Wet 498.2 0.0 0.51 40.5 4.7 88.5 10.3
2021 03 18 17:00 Wet 520.5 0.0 0.25 40.6 4.8 90.2 9.4
2021 03 18 18:00 Wet 489.6 0.0 0.51 40.6 4.8 88.7 10.1
2021 03 18 19:00 Wet 342.6 0.0 0.00 41.0 5.0 83.2 9.4
2021 03 18 20:00 270.0 0.0 0.00 41.8 5.4 76.23 7.5
2021 03 18 21:00 267.2 0.0 0.00 42.6 5.9 68.5 8.5
2021 03 18 22:00 266.9 0.0 0.00 42.7 5.9 66.99 7.9
2021 03 18 23:00 266.5 0.0 0.00 42.2 5.6 62.86 9.0
2021 03 18 24:00 266.3 0.0 0.00 40.2 4.6 62.6 7.6
2021 03 19 1:00 266.3 0.0 0.00 38.7 3.7 63.01 5.2
2021 03 19 2:00 266.3 0.0 0.00 37.7 3.2 62.99 6.1
2021 03 19 3:00 266.3 0.0 0.00 36.5 2.5 61.75 5.2
2021 03 19 4:00 266.3 0.0 0.00 35.2 1.8 61.47 7.0
2021 03 19 5:00 266.3 0.0 0.00 34.0 1.1 62.96 6.9
2021 03 19 6:00 266.4 0.0 0.00 33.0 0.5 65.69 6.4
2021 03 19 7:00 266.4 0.0 0.00 32.5 0.3 67.02 6.5
2021 03 19 8:00 265.4 0.0 0.00 34.0 1.1 59.37 7.2
2021 03 19 9:00 264.9 0.0 0.00 36.4 2.5 54.39 7.7
2021 03 19 10:00 264.9 0.0 0.00 38.6 3.7 52.6 8.1
2021 03 19 11:00 264.2 0.0 0.00 41.5 5.3 46.97 7.4
2021 03 19 12:00 263.5 0.0 0.00 44.5 7.0 40.85 7.9
2021 03 19 13:00 263.4 0.0 0.00 46.5 8.1 37.59 7.9
2021 03 19 14:00 263.2 0.0 0.00 48.1 8.9 35.08 8.0
2021 03 19 15:00 263.1 0.0 0.00 49.7 9.8 32.58 7.9
2021 03 19 16:00 262.9 0.0 0.00 50.9 10.5 30.82 7.5
2021 03 19 17:00 262.9 0.0 0.00 50.4 10.2 33.66 7.9
2021 03 19 18:00 263.2 0.0 0.00 49.0 9.5 36.91 6.4
2021 03 19 19:00 263.8 0.0 0.00 46.4 8.0 43.31 3.7
2021 03 19 20:00 264.8 0.0 0.00 43.6 6.4 48.69 2.3
2021 03 19 21:00 264.9 0.0 0.00 41.0 5.0 54.48 0.5
2021 03 19 22:00 264.9 0.0 0.00 39.5 4.2 59.03 1.3
2021 03 19 23:00 265.8 0.0 0.00 37.5 3.0 65.91 1.1
2021 03 19 24:00 266.4 0.0 0.00 36.6 2.6 68.86 1.7
2021 03 20 1:00 Wet 286.2 0.0 0.00 31.2 -0.5 85.1 0.0
2021 03 20 2:00 Wet 309.3 0.0 0.00 30.8 -0.7 85.4 0.0
2021 03 20 3:00 Wet 293.9 0.0 0.00 29.4 -1.5 88.7 0.0
2021 03 20 4:00 276.9 0.0 0.00 28.5 -1.9 91.1 0.0
2021 03 20 5:00 279.6 0.0 0.00 27.7 -2.4 92.8 0.6
2021 03 20 6:00 282.1 0.0 0.00 27.9 -2.3 93 0.5
2021 03 20 7:00 Wet 286.8 0.0 0.00 26.2 -3.2 92.9 0.1
2021 03 20 8:00 Wet 316.2 0.0 0.00 31.0 -0.5 91.7 0.8
2021 03 20 9:00 267.0 0.0 0.00 37.6 3.1 75.3 4.3
2021 03 20 10:00 264.5 0.0 0.00 41.9 5.5 63.65 4.7
2021 03 20 11:00 263.6 0.0 0.00 46.0 7.8 56.46 4.0
2021 03 20 12:00 263.2 0.0 0.00 49.0 9.4 50.75 3.1
2021 03 20 13:00 263.0 0.0 0.00 51.9 11.0 44.93 4.9
2021 03 20 14:00 262.8 0.0 0.00 54.2 12.3 40.48 5.7
2021 03 20 15:00 262.7 0.0 0.00 56.0 13.4 36.82 6.6
2021 03 20 16:00 262.7 0.0 0.00 57.1 13.9 34.64 7.3
2021 03 20 17:00 262.7 0.0 0.00 57.5 14.2 34.17 7.2
2021 03 20 18:00 262.7 0.0 0.00 56.1 13.4 37.5 6.5
2021 03 20 19:00 263.4 0.0 0.00 52.8 11.6 43.88 4.2
2021 03 20 20:00 264.1 0.0 0.00 50.8 10.4 49.07 1.8
2021 03 20 21:00 264.8 0.0 0.00 48.8 9.3 54.57 2.0
2021 03 20 22:00 264.9 0.0 0.00 46.6 8.1 61.2 1.1
2021 03 20 23:00 266.2 0.0 0.00 43.7 6.5 67.51 0.4
2021 03 20 24:00 266.3 0.0 0.00 44.2 6.8 66.23 0.9
2021 03 21 1:00 266.8 0.0 0.00 42.9 6.1 70.16 0.4
2021 03 21 2:00 267.3 0.0 0.00 41.8 5.5 73.02 1.1
2021 03 21 3:00 271.5 0.0 0.00 40.8 4.9 75.93 0.0
2021 03 21 4:00 278.5 0.0 0.00 38.0 3.3 81.3 0.0
2021 03 21 5:00 Wet 297.5 0.0 0.00 35.9 2.2 86.2 0.3
2021 03 21 6:00 Wet 308.7 0.0 0.00 35.0 1.7